<?xml version="1.0" encoding="UTF-8" standalone="no" ?>
<gpx xmlns="http://www.topografix.com/GPX/1/1" xmlns:xsi="http://www.w3.org/2001/XMLSchema-instance" xsi:schemaLocation="http://www.topografix.com/GPX/1/1 http://www.topografix.com/GPX/1/1/gpx.xsd" version="1.1" creator="VisuGPX - https://www.visugpx.com">
  <metadata>
    <name>auxange</name>
    <desc><![CDATA[Petit circuit en bordure de serre]]></desc>
  </metadata>
  <trk>
    <name><![CDATA[auxange]]></name>
    <trkseg>
      <trkpt lat="47.07516" lon="5.49263">
        <ele>190</ele>
        <time>2012-10-02T13:48:22Z</time>
      </trkpt>
      <trkpt lat="47.07467" lon="5.49364">
        <ele>191</ele>
        <time>2012-10-02T13:48:37Z</time>
      </trkpt>
      <trkpt lat="47.07449" lon="5.49407">
        <ele>193</ele>
        <time>2012-10-02T13:48:48Z</time>
      </trkpt>
      <trkpt lat="47.07445" lon="5.49417">
        <ele>194</ele>
        <time>2012-10-02T13:48:53Z</time>
      </trkpt>
      <trkpt lat="47.07437" lon="5.49452">
        <ele>195</ele>
        <time>2012-10-02T13:49:02Z</time>
      </trkpt>
      <trkpt lat="47.07445" lon="5.49453">
        <ele>195</ele>
        <time>2012-10-02T13:49:05Z</time>
      </trkpt>
      <trkpt lat="47.0746" lon="5.49449">
        <ele>195</ele>
        <time>2012-10-02T13:49:09Z</time>
      </trkpt>
      <trkpt lat="47.07535" lon="5.49496">
        <ele>197</ele>
        <time>2012-10-02T13:49:27Z</time>
      </trkpt>
      <trkpt lat="47.07565" lon="5.49519">
        <ele>201</ele>
        <time>2012-10-02T13:49:35Z</time>
      </trkpt>
      <trkpt lat="47.07585" lon="5.4954">
        <ele>203</ele>
        <time>2012-10-02T13:49:40Z</time>
      </trkpt>
      <trkpt lat="47.07592" lon="5.49575">
        <ele>206</ele>
        <time>2012-10-02T13:49:46Z</time>
      </trkpt>
      <trkpt lat="47.07587" lon="5.49594">
        <ele>208</ele>
        <time>2012-10-02T13:49:49Z</time>
      </trkpt>
      <trkpt lat="47.0757" lon="5.49667">
        <ele>212</ele>
        <time>2012-10-02T13:49:58Z</time>
      </trkpt>
      <trkpt lat="47.07569" lon="5.49675">
        <ele>213</ele>
        <time>2012-10-02T13:49:59Z</time>
      </trkpt>
      <trkpt lat="47.07548" lon="5.49768">
        <ele>215</ele>
        <time>2012-10-02T13:50:14Z</time>
      </trkpt>
      <trkpt lat="47.07541" lon="5.49836">
        <ele>216</ele>
        <time>2012-10-02T13:50:26Z</time>
      </trkpt>
      <trkpt lat="47.07538" lon="5.49847">
        <ele>216</ele>
        <time>2012-10-02T13:50:28Z</time>
      </trkpt>
      <trkpt lat="47.07538" lon="5.49884">
        <ele>216</ele>
        <time>2012-10-02T13:50:34Z</time>
      </trkpt>
      <trkpt lat="47.07532" lon="5.49957">
        <ele>220</ele>
        <time>2012-10-02T13:50:45Z</time>
      </trkpt>
      <trkpt lat="47.07532" lon="5.49997">
        <ele>223</ele>
        <time>2012-10-02T13:50:55Z</time>
      </trkpt>
      <trkpt lat="47.07527" lon="5.50025">
        <ele>227</ele>
        <time>2012-10-02T13:51:02Z</time>
      </trkpt>
      <trkpt lat="47.07527" lon="5.50036">
        <ele>228</ele>
        <time>2012-10-02T13:51:05Z</time>
      </trkpt>
      <trkpt lat="47.07528" lon="5.50084">
        <ele>231</ele>
        <time>2012-10-02T13:51:16Z</time>
      </trkpt>
      <trkpt lat="47.07531" lon="5.50138">
        <ele>234</ele>
        <time>2012-10-02T13:51:30Z</time>
      </trkpt>
      <trkpt lat="47.07532" lon="5.50146">
        <ele>238</ele>
        <time>2012-10-02T13:51:34Z</time>
      </trkpt>
      <trkpt lat="47.07532" lon="5.50149">
        <ele>240</ele>
        <time>2012-10-02T13:51:37Z</time>
      </trkpt>
      <trkpt lat="47.07532" lon="5.50148">
        <ele>242</ele>
        <time>2012-10-02T13:51:43Z</time>
      </trkpt>
      <trkpt lat="47.07532" lon="5.50149">
        <ele>246</ele>
        <time>2012-10-02T13:51:51Z</time>
      </trkpt>
      <trkpt lat="47.07532" lon="5.50151">
        <ele>249</ele>
        <time>2012-10-02T13:52:01Z</time>
      </trkpt>
      <trkpt lat="47.07533" lon="5.50156">
        <ele>252</ele>
        <time>2012-10-02T13:52:19Z</time>
      </trkpt>
      <trkpt lat="47.07537" lon="5.50178">
        <ele>253</ele>
        <time>2012-10-02T13:52:39Z</time>
      </trkpt>
      <trkpt lat="47.07556" lon="5.50237">
        <ele>253</ele>
        <time>2012-10-02T13:52:51Z</time>
      </trkpt>
      <trkpt lat="47.07588" lon="5.50331">
        <ele>257</ele>
        <time>2012-10-02T13:53:06Z</time>
      </trkpt>
      <trkpt lat="47.07628" lon="5.5046">
        <ele>260</ele>
        <time>2012-10-02T13:53:24Z</time>
      </trkpt>
      <trkpt lat="47.07661" lon="5.50544">
        <ele>260</ele>
        <time>2012-10-02T13:53:35Z</time>
      </trkpt>
      <trkpt lat="47.07723" lon="5.50691">
        <ele>262</ele>
        <time>2012-10-02T13:53:53Z</time>
      </trkpt>
      <trkpt lat="47.07784" lon="5.50825">
        <ele>263</ele>
        <time>2012-10-02T13:54:11Z</time>
      </trkpt>
      <trkpt lat="47.078" lon="5.50859">
        <ele>263</ele>
        <time>2012-10-02T13:54:16Z</time>
      </trkpt>
      <trkpt lat="47.07827" lon="5.50869">
        <ele>262</ele>
        <time>2012-10-02T13:54:24Z</time>
      </trkpt>
      <trkpt lat="47.07838" lon="5.50856">
        <ele>263</ele>
        <time>2012-10-02T13:54:28Z</time>
      </trkpt>
      <trkpt lat="47.07869" lon="5.50823">
        <ele>264</ele>
        <time>2012-10-02T13:54:37Z</time>
      </trkpt>
      <trkpt lat="47.07907" lon="5.50795">
        <ele>264</ele>
        <time>2012-10-02T13:54:49Z</time>
      </trkpt>
      <trkpt lat="47.07962" lon="5.50752">
        <ele>264</ele>
        <time>2012-10-02T13:55:04Z</time>
      </trkpt>
      <trkpt lat="47.07985" lon="5.50732">
        <ele>264</ele>
        <time>2012-10-02T13:55:15Z</time>
      </trkpt>
      <trkpt lat="47.08004" lon="5.50707">
        <ele>264</ele>
        <time>2012-10-02T13:56:03Z</time>
      </trkpt>
      <trkpt lat="47.08004" lon="5.50706">
        <ele>263</ele>
        <time>2012-10-02T14:01:10Z</time>
      </trkpt>
      <trkpt lat="47.08024" lon="5.50715">
        <ele>263</ele>
        <time>2012-10-02T14:01:26Z</time>
      </trkpt>
      <trkpt lat="47.08056" lon="5.50761">
        <ele>261</ele>
        <time>2012-10-02T14:01:38Z</time>
      </trkpt>
      <trkpt lat="47.08072" lon="5.5079">
        <ele>261</ele>
        <time>2012-10-02T14:01:43Z</time>
      </trkpt>
      <trkpt lat="47.08089" lon="5.50791">
        <ele>261</ele>
        <time>2012-10-02T14:01:48Z</time>
      </trkpt>
      <trkpt lat="47.08105" lon="5.50781">
        <ele>261</ele>
        <time>2012-10-02T14:01:53Z</time>
      </trkpt>
      <trkpt lat="47.08116" lon="5.5077">
        <ele>262</ele>
        <time>2012-10-02T14:01:56Z</time>
      </trkpt>
      <trkpt lat="47.08125" lon="5.50757">
        <ele>262</ele>
        <time>2012-10-02T14:01:59Z</time>
      </trkpt>
      <trkpt lat="47.0816" lon="5.50711">
        <ele>263</ele>
        <time>2012-10-02T14:02:10Z</time>
      </trkpt>
      <trkpt lat="47.08185" lon="5.50671">
        <ele>262</ele>
        <time>2012-10-02T14:02:17Z</time>
      </trkpt>
      <trkpt lat="47.08222" lon="5.50615">
        <ele>258</ele>
        <time>2012-10-02T14:02:26Z</time>
      </trkpt>
      <trkpt lat="47.08237" lon="5.50581">
        <ele>255</ele>
        <time>2012-10-02T14:02:32Z</time>
      </trkpt>
      <trkpt lat="47.08261" lon="5.50583">
        <ele>255</ele>
        <time>2012-10-02T14:02:37Z</time>
      </trkpt>
      <trkpt lat="47.08347" lon="5.50641">
        <ele>255</ele>
        <time>2012-10-02T14:02:54Z</time>
      </trkpt>
      <trkpt lat="47.08392" lon="5.50676">
        <ele>252</ele>
        <time>2012-10-02T14:03:02Z</time>
      </trkpt>
      <trkpt lat="47.08451" lon="5.50725">
        <ele>249</ele>
        <time>2012-10-02T14:03:11Z</time>
      </trkpt>
      <trkpt lat="47.0849" lon="5.50751">
        <ele>246</ele>
        <time>2012-10-02T14:03:19Z</time>
      </trkpt>
      <trkpt lat="47.08493" lon="5.50769">
        <ele>245</ele>
        <time>2012-10-02T14:03:23Z</time>
      </trkpt>
      <trkpt lat="47.08492" lon="5.5079">
        <ele>244</ele>
        <time>2012-10-02T14:03:26Z</time>
      </trkpt>
      <trkpt lat="47.08497" lon="5.50828">
        <ele>242</ele>
        <time>2012-10-02T14:03:30Z</time>
      </trkpt>
      <trkpt lat="47.08491" lon="5.50869">
        <ele>239</ele>
        <time>2012-10-02T14:03:35Z</time>
      </trkpt>
      <trkpt lat="47.08485" lon="5.50893">
        <ele>237</ele>
        <time>2012-10-02T14:03:38Z</time>
      </trkpt>
      <trkpt lat="47.08466" lon="5.50932">
        <ele>235</ele>
        <time>2012-10-02T14:03:42Z</time>
      </trkpt>
      <trkpt lat="47.08444" lon="5.50981">
        <ele>233</ele>
        <time>2012-10-02T14:03:46Z</time>
      </trkpt>
      <trkpt lat="47.08433" lon="5.51044">
        <ele>231</ele>
        <time>2012-10-02T14:03:52Z</time>
      </trkpt>
      <trkpt lat="47.08411" lon="5.51092">
        <ele>230</ele>
        <time>2012-10-02T14:03:57Z</time>
      </trkpt>
      <trkpt lat="47.08338" lon="5.51157">
        <ele>229</ele>
        <time>2012-10-02T14:04:06Z</time>
      </trkpt>
      <trkpt lat="47.08317" lon="5.51184">
        <ele>230</ele>
        <time>2012-10-02T14:04:09Z</time>
      </trkpt>
      <trkpt lat="47.08262" lon="5.51292">
        <ele>229</ele>
        <time>2012-10-02T14:04:20Z</time>
      </trkpt>
      <trkpt lat="47.08243" lon="5.51314">
        <ele>230</ele>
        <time>2012-10-02T14:04:23Z</time>
      </trkpt>
      <trkpt lat="47.08212" lon="5.51344">
        <ele>231</ele>
        <time>2012-10-02T14:04:27Z</time>
      </trkpt>
      <trkpt lat="47.08195" lon="5.51391">
        <ele>233</ele>
        <time>2012-10-02T14:04:36Z</time>
      </trkpt>
      <trkpt lat="47.08191" lon="5.514">
        <ele>235</ele>
        <time>2012-10-02T14:04:39Z</time>
      </trkpt>
      <trkpt lat="47.08186" lon="5.51411">
        <ele>235</ele>
        <time>2012-10-02T14:04:43Z</time>
      </trkpt>
      <trkpt lat="47.08177" lon="5.51437">
        <ele>237</ele>
        <time>2012-10-02T14:04:52Z</time>
      </trkpt>
      <trkpt lat="47.08163" lon="5.51471">
        <ele>240</ele>
        <time>2012-10-02T14:05:03Z</time>
      </trkpt>
      <trkpt lat="47.08154" lon="5.51489">
        <ele>240</ele>
        <time>2012-10-02T14:05:08Z</time>
      </trkpt>
      <trkpt lat="47.0815" lon="5.51496">
        <ele>239</ele>
        <time>2012-10-02T14:05:12Z</time>
      </trkpt>
      <trkpt lat="47.0814" lon="5.51525">
        <ele>237</ele>
        <time>2012-10-02T14:05:20Z</time>
      </trkpt>
      <trkpt lat="47.08127" lon="5.51535">
        <ele>235</ele>
        <time>2012-10-02T14:05:25Z</time>
      </trkpt>
      <trkpt lat="47.08125" lon="5.51549">
        <ele>233</ele>
        <time>2012-10-02T14:05:29Z</time>
      </trkpt>
      <trkpt lat="47.08125" lon="5.51553">
        <ele>233</ele>
        <time>2012-10-02T14:05:30Z</time>
      </trkpt>
      <trkpt lat="47.08108" lon="5.51588">
        <ele>230</ele>
        <time>2012-10-02T14:05:41Z</time>
      </trkpt>
      <trkpt lat="47.08112" lon="5.51604">
        <ele>230</ele>
        <time>2012-10-02T14:05:44Z</time>
      </trkpt>
      <trkpt lat="47.08058" lon="5.51698">
        <ele>230</ele>
        <time>2012-10-02T14:05:51Z</time>
      </trkpt>
      <trkpt lat="47.08052" lon="5.51798">
        <ele>229</ele>
        <time>2012-10-02T14:06:05Z</time>
      </trkpt>
      <trkpt lat="47.08028" lon="5.51854">
        <ele>229</ele>
        <time>2012-10-02T14:06:17Z</time>
      </trkpt>
      <trkpt lat="47.0803" lon="5.51899">
        <ele>229</ele>
        <time>2012-10-02T14:06:25Z</time>
      </trkpt>
      <trkpt lat="47.08027" lon="5.51921">
        <ele>229</ele>
        <time>2012-10-02T14:06:28Z</time>
      </trkpt>
      <trkpt lat="47.08032" lon="5.51992">
        <ele>229</ele>
        <time>2012-10-02T14:06:39Z</time>
      </trkpt>
      <trkpt lat="47.08039" lon="5.5201">
        <ele>229</ele>
        <time>2012-10-02T14:06:44Z</time>
      </trkpt>
      <trkpt lat="47.08053" lon="5.52045">
        <ele>229</ele>
        <time>2012-10-02T14:06:52Z</time>
      </trkpt>
      <trkpt lat="47.08058" lon="5.52212">
        <ele>229</ele>
        <time>2012-10-02T14:07:06Z</time>
      </trkpt>
      <trkpt lat="47.08085" lon="5.52287">
        <ele>229</ele>
        <time>2012-10-02T14:07:14Z</time>
      </trkpt>
      <trkpt lat="47.081" lon="5.52376">
        <ele>229</ele>
        <time>2012-10-02T14:07:24Z</time>
      </trkpt>
      <trkpt lat="47.08107" lon="5.52403">
        <ele>229</ele>
        <time>2012-10-02T14:07:27Z</time>
      </trkpt>
      <trkpt lat="47.08111" lon="5.52418">
        <ele>229</ele>
        <time>2012-10-02T14:07:29Z</time>
      </trkpt>
      <trkpt lat="47.08147" lon="5.52506">
        <ele>229</ele>
        <time>2012-10-02T14:07:40Z</time>
      </trkpt>
      <trkpt lat="47.08161" lon="5.52547">
        <ele>229</ele>
        <time>2012-10-02T14:07:45Z</time>
      </trkpt>
      <trkpt lat="47.08176" lon="5.52584">
        <ele>229</ele>
        <time>2012-10-02T14:07:50Z</time>
      </trkpt>
      <trkpt lat="47.08228" lon="5.52731">
        <ele>229</ele>
        <time>2012-10-02T14:08:03Z</time>
      </trkpt>
      <trkpt lat="47.0826" lon="5.52821">
        <ele>229</ele>
        <time>2012-10-02T14:08:11Z</time>
      </trkpt>
      <trkpt lat="47.08293" lon="5.5291">
        <ele>230</ele>
        <time>2012-10-02T14:08:19Z</time>
      </trkpt>
      <trkpt lat="47.08293" lon="5.52961">
        <ele>230</ele>
        <time>2012-10-02T14:08:25Z</time>
      </trkpt>
      <trkpt lat="47.0833" lon="5.53054">
        <ele>230</ele>
        <time>2012-10-02T14:08:36Z</time>
      </trkpt>
      <trkpt lat="47.0834" lon="5.53085">
        <ele>230</ele>
        <time>2012-10-02T14:08:40Z</time>
      </trkpt>
      <trkpt lat="47.08357" lon="5.53152">
        <ele>230</ele>
        <time>2012-10-02T14:08:47Z</time>
      </trkpt>
      <trkpt lat="47.08362" lon="5.53198">
        <ele>230</ele>
        <time>2012-10-02T14:08:52Z</time>
      </trkpt>
      <trkpt lat="47.08349" lon="5.53293">
        <ele>230</ele>
        <time>2012-10-02T14:09:02Z</time>
      </trkpt>
      <trkpt lat="47.08352" lon="5.53344">
        <ele>230</ele>
        <time>2012-10-02T14:09:07Z</time>
      </trkpt>
      <trkpt lat="47.08357" lon="5.5339">
        <ele>230</ele>
        <time>2012-10-02T14:09:13Z</time>
      </trkpt>
      <trkpt lat="47.0839" lon="5.53529">
        <ele>229</ele>
        <time>2012-10-02T14:09:29Z</time>
      </trkpt>
      <trkpt lat="47.08421" lon="5.53622">
        <ele>230</ele>
        <time>2012-10-02T14:09:39Z</time>
      </trkpt>
      <trkpt lat="47.08424" lon="5.5363">
        <ele>230</ele>
        <time>2012-10-02T14:09:40Z</time>
      </trkpt>
      <trkpt lat="47.08415" lon="5.53668">
        <ele>229</ele>
        <time>2012-10-02T14:09:45Z</time>
      </trkpt>
      <trkpt lat="47.08412" lon="5.53697">
        <ele>229</ele>
        <time>2012-10-02T14:09:48Z</time>
      </trkpt>
      <trkpt lat="47.08402" lon="5.53733">
        <ele>229</ele>
        <time>2012-10-02T14:09:53Z</time>
      </trkpt>
      <trkpt lat="47.08367" lon="5.53781">
        <ele>230</ele>
        <time>2012-10-02T14:10:04Z</time>
      </trkpt>
      <trkpt lat="47.08379" lon="5.53811">
        <ele>230</ele>
        <time>2012-10-02T14:10:06Z</time>
      </trkpt>
      <trkpt lat="47.08389" lon="5.53836">
        <ele>230</ele>
        <time>2012-10-02T14:10:08Z</time>
      </trkpt>
      <trkpt lat="47.08415" lon="5.53923">
        <ele>230</ele>
        <time>2012-10-02T14:10:17Z</time>
      </trkpt>
      <trkpt lat="47.0843" lon="5.53964">
        <ele>230</ele>
        <time>2012-10-02T14:10:23Z</time>
      </trkpt>
      <trkpt lat="47.08434" lon="5.53981">
        <ele>230</ele>
        <time>2012-10-02T14:10:26Z</time>
      </trkpt>
      <trkpt lat="47.08459" lon="5.54059">
        <ele>230</ele>
        <time>2012-10-02T14:10:36Z</time>
      </trkpt>
      <trkpt lat="47.08464" lon="5.54078">
        <ele>230</ele>
        <time>2012-10-02T14:10:39Z</time>
      </trkpt>
      <trkpt lat="47.08503" lon="5.54162">
        <ele>230</ele>
        <time>2012-10-02T14:10:48Z</time>
      </trkpt>
      <trkpt lat="47.08509" lon="5.54187">
        <ele>229</ele>
        <time>2012-10-02T14:10:53Z</time>
      </trkpt>
      <trkpt lat="47.08549" lon="5.54223">
        <ele>229</ele>
        <time>2012-10-02T14:11:01Z</time>
      </trkpt>
      <trkpt lat="47.08564" lon="5.5425">
        <ele>229</ele>
        <time>2012-10-02T14:11:10Z</time>
      </trkpt>
      <trkpt lat="47.08597" lon="5.54301">
        <ele>229</ele>
        <time>2012-10-02T14:11:18Z</time>
      </trkpt>
      <trkpt lat="47.08575" lon="5.54319">
        <ele>229</ele>
        <time>2012-10-02T14:11:26Z</time>
      </trkpt>
      <trkpt lat="47.0861" lon="5.54327">
        <ele>230</ele>
        <time>2012-10-02T14:11:36Z</time>
      </trkpt>
      <trkpt lat="47.0866" lon="5.54367">
        <ele>230</ele>
        <time>2012-10-02T14:11:47Z</time>
      </trkpt>
      <trkpt lat="47.08668" lon="5.54377">
        <ele>230</ele>
        <time>2012-10-02T14:11:49Z</time>
      </trkpt>
      <trkpt lat="47.08678" lon="5.54381">
        <ele>231</ele>
        <time>2012-10-02T14:11:52Z</time>
      </trkpt>
      <trkpt lat="47.08708" lon="5.54415">
        <ele>231</ele>
        <time>2012-10-02T14:11:58Z</time>
      </trkpt>
      <trkpt lat="47.08724" lon="5.54429">
        <ele>231</ele>
        <time>2012-10-02T14:12:01Z</time>
      </trkpt>
      <trkpt lat="47.08754" lon="5.54443">
        <ele>231</ele>
        <time>2012-10-02T14:12:05Z</time>
      </trkpt>
      <trkpt lat="47.08774" lon="5.54449">
        <ele>231</ele>
        <time>2012-10-02T14:12:08Z</time>
      </trkpt>
      <trkpt lat="47.08878" lon="5.545">
        <ele>230</ele>
        <time>2012-10-02T14:12:26Z</time>
      </trkpt>
      <trkpt lat="47.08883" lon="5.54518">
        <ele>229</ele>
        <time>2012-10-02T14:12:30Z</time>
      </trkpt>
      <trkpt lat="47.08902" lon="5.5452">
        <ele>229</ele>
        <time>2012-10-02T14:12:35Z</time>
      </trkpt>
      <trkpt lat="47.08927" lon="5.5453">
        <ele>228</ele>
        <time>2012-10-02T14:12:42Z</time>
      </trkpt>
      <trkpt lat="47.08988" lon="5.54502">
        <ele>229</ele>
        <time>2012-10-02T14:12:56Z</time>
      </trkpt>
      <trkpt lat="47.09086" lon="5.54422">
        <ele>229</ele>
        <time>2012-10-02T14:13:14Z</time>
      </trkpt>
      <trkpt lat="47.09204" lon="5.54363">
        <ele>229</ele>
        <time>2012-10-02T14:13:30Z</time>
      </trkpt>
      <trkpt lat="47.09377" lon="5.54348">
        <ele>229</ele>
        <time>2012-10-02T14:13:50Z</time>
      </trkpt>
      <trkpt lat="47.09608" lon="5.54349">
        <ele>229</ele>
        <time>2012-10-02T14:14:15Z</time>
      </trkpt>
      <trkpt lat="47.09673" lon="5.54348">
        <ele>229</ele>
        <time>2012-10-02T14:14:26Z</time>
      </trkpt>
      <trkpt lat="47.0969" lon="5.5437">
        <ele>229</ele>
        <time>2012-10-02T14:14:31Z</time>
      </trkpt>
      <trkpt lat="47.09731" lon="5.54515">
        <ele>229</ele>
        <time>2012-10-02T14:14:48Z</time>
      </trkpt>
      <trkpt lat="47.09782" lon="5.54684">
        <ele>230</ele>
        <time>2012-10-02T14:15:07Z</time>
      </trkpt>
      <trkpt lat="47.09817" lon="5.54859">
        <ele>230</ele>
        <time>2012-10-02T14:15:26Z</time>
      </trkpt>
      <trkpt lat="47.09848" lon="5.5502">
        <ele>231</ele>
        <time>2012-10-02T14:15:44Z</time>
      </trkpt>
      <trkpt lat="47.09884" lon="5.55193">
        <ele>230</ele>
        <time>2012-10-02T14:16:03Z</time>
      </trkpt>
      <trkpt lat="47.09929" lon="5.55295">
        <ele>230</ele>
        <time>2012-10-02T14:16:16Z</time>
      </trkpt>
      <trkpt lat="47.09988" lon="5.55418">
        <ele>231</ele>
        <time>2012-10-02T14:16:32Z</time>
      </trkpt>
      <trkpt lat="47.10083" lon="5.55574">
        <ele>231</ele>
        <time>2012-10-02T14:16:54Z</time>
      </trkpt>
      <trkpt lat="47.10182" lon="5.55657">
        <ele>231</ele>
        <time>2012-10-02T14:17:12Z</time>
      </trkpt>
      <trkpt lat="47.10257" lon="5.55765">
        <ele>231</ele>
        <time>2012-10-02T14:17:28Z</time>
      </trkpt>
      <trkpt lat="47.10275" lon="5.55815">
        <ele>231</ele>
        <time>2012-10-02T14:17:34Z</time>
      </trkpt>
      <trkpt lat="47.10272" lon="5.55888">
        <ele>231</ele>
        <time>2012-10-02T14:17:42Z</time>
      </trkpt>
      <trkpt lat="47.10269" lon="5.55907">
        <ele>231</ele>
        <time>2012-10-02T14:17:44Z</time>
      </trkpt>
      <trkpt lat="47.10265" lon="5.55953">
        <ele>231</ele>
        <time>2012-10-02T14:17:49Z</time>
      </trkpt>
      <trkpt lat="47.10284" lon="5.56114">
        <ele>231</ele>
        <time>2012-10-02T14:18:07Z</time>
      </trkpt>
      <trkpt lat="47.10289" lon="5.56155">
        <ele>231</ele>
        <time>2012-10-02T14:18:12Z</time>
      </trkpt>
      <trkpt lat="47.10289" lon="5.5626">
        <ele>232</ele>
        <time>2012-10-02T14:18:25Z</time>
      </trkpt>
      <trkpt lat="47.10284" lon="5.56284">
        <ele>232</ele>
        <time>2012-10-02T14:18:28Z</time>
      </trkpt>
      <trkpt lat="47.10283" lon="5.56309">
        <ele>232</ele>
        <time>2012-10-02T14:18:31Z</time>
      </trkpt>
      <trkpt lat="47.10303" lon="5.56347">
        <ele>233</ele>
        <time>2012-10-02T14:18:37Z</time>
      </trkpt>
      <trkpt lat="47.10302" lon="5.56373">
        <ele>234</ele>
        <time>2012-10-02T14:18:41Z</time>
      </trkpt>
      <trkpt lat="47.1028" lon="5.56386">
        <ele>234</ele>
        <time>2012-10-02T14:18:45Z</time>
      </trkpt>
      <trkpt lat="47.10267" lon="5.56455">
        <ele>238</ele>
        <time>2012-10-02T14:18:57Z</time>
      </trkpt>
      <trkpt lat="47.10229" lon="5.56495">
        <ele>240</ele>
        <time>2012-10-02T14:19:07Z</time>
      </trkpt>
      <trkpt lat="47.102" lon="5.56548">
        <ele>243</ele>
        <time>2012-10-02T14:19:19Z</time>
      </trkpt>
      <trkpt lat="47.10199" lon="5.5657">
        <ele>244</ele>
        <time>2012-10-02T14:19:22Z</time>
      </trkpt>
      <trkpt lat="47.10213" lon="5.56593">
        <ele>245</ele>
        <time>2012-10-02T14:19:25Z</time>
      </trkpt>
      <trkpt lat="47.10219" lon="5.56599">
        <ele>248</ele>
        <time>2012-10-02T14:19:35Z</time>
      </trkpt>
      <trkpt lat="47.10263" lon="5.56588">
        <ele>251</ele>
        <time>2012-10-02T14:19:47Z</time>
      </trkpt>
      <trkpt lat="47.10318" lon="5.56539">
        <ele>254</ele>
        <time>2012-10-02T14:20:01Z</time>
      </trkpt>
      <trkpt lat="47.10365" lon="5.5651">
        <ele>257</ele>
        <time>2012-10-02T14:20:14Z</time>
      </trkpt>
      <trkpt lat="47.10388" lon="5.56481">
        <ele>257</ele>
        <time>2012-10-02T14:20:22Z</time>
      </trkpt>
      <trkpt lat="47.104" lon="5.56466">
        <ele>257</ele>
        <time>2012-10-02T14:20:25Z</time>
      </trkpt>
      <trkpt lat="47.1042" lon="5.56454">
        <ele>256</ele>
        <time>2012-10-02T14:20:29Z</time>
      </trkpt>
      <trkpt lat="47.105" lon="5.56443">
        <ele>257</ele>
        <time>2012-10-02T14:20:47Z</time>
      </trkpt>
      <trkpt lat="47.10515" lon="5.56431">
        <ele>256</ele>
        <time>2012-10-02T14:20:53Z</time>
      </trkpt>
      <trkpt lat="47.10547" lon="5.56411">
        <ele>254</ele>
        <time>2012-10-02T14:20:58Z</time>
      </trkpt>
      <trkpt lat="47.10583" lon="5.56416">
        <ele>255</ele>
        <time>2012-10-02T14:21:03Z</time>
      </trkpt>
      <trkpt lat="47.10598" lon="5.56425">
        <ele>256</ele>
        <time>2012-10-02T14:21:06Z</time>
      </trkpt>
      <trkpt lat="47.10681" lon="5.56462">
        <ele>258</ele>
        <time>2012-10-02T14:21:24Z</time>
      </trkpt>
      <trkpt lat="47.10789" lon="5.5654">
        <ele>259</ele>
        <time>2012-10-02T14:21:44Z</time>
      </trkpt>
      <trkpt lat="47.10862" lon="5.56621">
        <ele>258</ele>
        <time>2012-10-02T14:21:58Z</time>
      </trkpt>
      <trkpt lat="47.10936" lon="5.56698">
        <ele>258</ele>
        <time>2012-10-02T14:22:14Z</time>
      </trkpt>
      <trkpt lat="47.11022" lon="5.56793">
        <ele>255</ele>
        <time>2012-10-02T14:22:28Z</time>
      </trkpt>
      <trkpt lat="47.11117" lon="5.56958">
        <ele>254</ele>
        <time>2012-10-02T14:22:47Z</time>
      </trkpt>
      <trkpt lat="47.11177" lon="5.5706">
        <ele>255</ele>
        <time>2012-10-02T14:23:00Z</time>
      </trkpt>
      <trkpt lat="47.11266" lon="5.57212">
        <ele>256</ele>
        <time>2012-10-02T14:23:20Z</time>
      </trkpt>
      <trkpt lat="47.1133" lon="5.57308">
        <ele>258</ele>
        <time>2012-10-02T14:23:36Z</time>
      </trkpt>
      <trkpt lat="47.11341" lon="5.5732">
        <ele>258</ele>
        <time>2012-10-02T14:23:40Z</time>
      </trkpt>
      <trkpt lat="47.11361" lon="5.57348">
        <ele>260</ele>
        <time>2012-10-02T14:23:50Z</time>
      </trkpt>
      <trkpt lat="47.11364" lon="5.57352">
        <ele>260</ele>
        <time>2012-10-02T14:23:52Z</time>
      </trkpt>
      <trkpt lat="47.11392" lon="5.57411">
        <ele>262</ele>
        <time>2012-10-02T14:24:05Z</time>
      </trkpt>
      <trkpt lat="47.11438" lon="5.57489">
        <ele>263</ele>
        <time>2012-10-02T14:24:20Z</time>
      </trkpt>
      <trkpt lat="47.11487" lon="5.57559">
        <ele>263</ele>
        <time>2012-10-02T14:24:32Z</time>
      </trkpt>
      <trkpt lat="47.1158" lon="5.57704">
        <ele>266</ele>
        <time>2012-10-02T14:24:48Z</time>
      </trkpt>
      <trkpt lat="47.11672" lon="5.57854">
        <ele>267</ele>
        <time>2012-10-02T14:25:10Z</time>
      </trkpt>
      <trkpt lat="47.1176" lon="5.58001">
        <ele>266</ele>
        <time>2012-10-02T14:25:31Z</time>
      </trkpt>
      <trkpt lat="47.11777" lon="5.58022">
        <ele>266</ele>
        <time>2012-10-02T14:25:35Z</time>
      </trkpt>
      <trkpt lat="47.1181" lon="5.58067">
        <ele>264</ele>
        <time>2012-10-02T14:25:43Z</time>
      </trkpt>
      <trkpt lat="47.11869" lon="5.58143">
        <ele>265</ele>
        <time>2012-10-02T14:25:54Z</time>
      </trkpt>
      <trkpt lat="47.11987" lon="5.58262">
        <ele>268</ele>
        <time>2012-10-02T14:26:15Z</time>
      </trkpt>
      <trkpt lat="47.12057" lon="5.58358">
        <ele>265</ele>
        <time>2012-10-02T14:26:32Z</time>
      </trkpt>
      <trkpt lat="47.12062" lon="5.58365">
        <ele>265</ele>
        <time>2012-10-02T14:26:33Z</time>
      </trkpt>
      <trkpt lat="47.12099" lon="5.58425">
        <ele>262</ele>
        <time>2012-10-02T14:26:40Z</time>
      </trkpt>
      <trkpt lat="47.12126" lon="5.58467">
        <ele>259</ele>
        <time>2012-10-02T14:26:45Z</time>
      </trkpt>
      <trkpt lat="47.12155" lon="5.58513">
        <ele>255</ele>
        <time>2012-10-02T14:26:50Z</time>
      </trkpt>
      <trkpt lat="47.12174" lon="5.58543">
        <ele>253</ele>
        <time>2012-10-02T14:26:53Z</time>
      </trkpt>
      <trkpt lat="47.12184" lon="5.58565">
        <ele>252</ele>
        <time>2012-10-02T14:26:55Z</time>
      </trkpt>
      <trkpt lat="47.12205" lon="5.58614">
        <ele>249</ele>
        <time>2012-10-02T14:26:59Z</time>
      </trkpt>
      <trkpt lat="47.12231" lon="5.58664">
        <ele>245</ele>
        <time>2012-10-02T14:27:04Z</time>
      </trkpt>
      <trkpt lat="47.12239" lon="5.58678">
        <ele>245</ele>
        <time>2012-10-02T14:27:06Z</time>
      </trkpt>
      <trkpt lat="47.12255" lon="5.58678">
        <ele>243</ele>
        <time>2012-10-02T14:27:10Z</time>
      </trkpt>
      <trkpt lat="47.1228" lon="5.58661">
        <ele>242</ele>
        <time>2012-10-02T14:27:14Z</time>
      </trkpt>
      <trkpt lat="47.12311" lon="5.58656">
        <ele>241</ele>
        <time>2012-10-02T14:27:19Z</time>
      </trkpt>
      <trkpt lat="47.12326" lon="5.58659">
        <ele>240</ele>
        <time>2012-10-02T14:27:21Z</time>
      </trkpt>
      <trkpt lat="47.1236" lon="5.58662">
        <ele>240</ele>
        <time>2012-10-02T14:27:25Z</time>
      </trkpt>
      <trkpt lat="47.12396" lon="5.58661">
        <ele>238</ele>
        <time>2012-10-02T14:27:29Z</time>
      </trkpt>
      <trkpt lat="47.12446" lon="5.587">
        <ele>236</ele>
        <time>2012-10-02T14:27:36Z</time>
      </trkpt>
      <trkpt lat="47.1247" lon="5.58696">
        <ele>236</ele>
        <time>2012-10-02T14:27:41Z</time>
      </trkpt>
      <trkpt lat="47.12513" lon="5.58642">
        <ele>234</ele>
        <time>2012-10-02T14:27:51Z</time>
      </trkpt>
      <trkpt lat="47.12531" lon="5.58635">
        <ele>235</ele>
        <time>2012-10-02T14:27:57Z</time>
      </trkpt>
      <trkpt lat="47.12548" lon="5.5873">
        <ele>235</ele>
        <time>2012-10-02T14:28:12Z</time>
      </trkpt>
      <trkpt lat="47.12551" lon="5.58747">
        <ele>235</ele>
        <time>2012-10-02T14:28:14Z</time>
      </trkpt>
      <trkpt lat="47.12569" lon="5.58833">
        <ele>235</ele>
        <time>2012-10-02T14:28:23Z</time>
      </trkpt>
      <trkpt lat="47.1262" lon="5.58954">
        <ele>235</ele>
        <time>2012-10-02T14:28:37Z</time>
      </trkpt>
      <trkpt lat="47.12625" lon="5.58962">
        <ele>235</ele>
        <time>2012-10-02T14:28:38Z</time>
      </trkpt>
      <trkpt lat="47.12671" lon="5.59018">
        <ele>235</ele>
        <time>2012-10-02T14:28:46Z</time>
      </trkpt>
      <trkpt lat="47.12711" lon="5.59138">
        <ele>235</ele>
        <time>2012-10-02T14:28:58Z</time>
      </trkpt>
      <trkpt lat="47.12715" lon="5.5933">
        <ele>236</ele>
        <time>2012-10-02T14:29:15Z</time>
      </trkpt>
      <trkpt lat="47.12717" lon="5.59504">
        <ele>236</ele>
        <time>2012-10-02T14:29:31Z</time>
      </trkpt>
      <trkpt lat="47.12722" lon="5.59696">
        <ele>236</ele>
        <time>2012-10-02T14:29:49Z</time>
      </trkpt>
      <trkpt lat="47.12709" lon="5.59868">
        <ele>236</ele>
        <time>2012-10-02T14:30:05Z</time>
      </trkpt>
      <trkpt lat="47.12691" lon="5.59955">
        <ele>236</ele>
        <time>2012-10-02T14:30:14Z</time>
      </trkpt>
      <trkpt lat="47.12687" lon="5.59975">
        <ele>236</ele>
        <time>2012-10-02T14:30:16Z</time>
      </trkpt>
      <trkpt lat="47.12681" lon="5.60091">
        <ele>236</ele>
        <time>2012-10-02T14:30:29Z</time>
      </trkpt>
      <trkpt lat="47.12685" lon="5.60116">
        <ele>236</ele>
        <time>2012-10-02T14:30:32Z</time>
      </trkpt>
      <trkpt lat="47.12696" lon="5.60165">
        <ele>236</ele>
        <time>2012-10-02T14:30:38Z</time>
      </trkpt>
      <trkpt lat="47.12701" lon="5.60189">
        <ele>236</ele>
        <time>2012-10-02T14:30:41Z</time>
      </trkpt>
      <trkpt lat="47.12707" lon="5.60229">
        <ele>236</ele>
        <time>2012-10-02T14:30:46Z</time>
      </trkpt>
      <trkpt lat="47.12706" lon="5.60288">
        <ele>237</ele>
        <time>2012-10-02T14:30:54Z</time>
      </trkpt>
      <trkpt lat="47.12736" lon="5.60308">
        <ele>237</ele>
        <time>2012-10-02T14:31:01Z</time>
      </trkpt>
      <trkpt lat="47.12748" lon="5.6031">
        <ele>236</ele>
        <time>2012-10-02T14:31:03Z</time>
      </trkpt>
      <trkpt lat="47.12813" lon="5.60351">
        <ele>237</ele>
        <time>2012-10-02T14:31:13Z</time>
      </trkpt>
      <trkpt lat="47.12869" lon="5.60425">
        <ele>238</ele>
        <time>2012-10-02T14:31:24Z</time>
      </trkpt>
      <trkpt lat="47.12927" lon="5.60536">
        <ele>236</ele>
        <time>2012-10-02T14:31:36Z</time>
      </trkpt>
      <trkpt lat="47.12982" lon="5.60653">
        <ele>238</ele>
        <time>2012-10-02T14:31:51Z</time>
      </trkpt>
      <trkpt lat="47.13025" lon="5.60746">
        <ele>239</ele>
        <time>2012-10-02T14:32:03Z</time>
      </trkpt>
      <trkpt lat="47.131" lon="5.60876">
        <ele>238</ele>
        <time>2012-10-02T14:32:20Z</time>
      </trkpt>
      <trkpt lat="47.13173" lon="5.61015">
        <ele>237</ele>
        <time>2012-10-02T14:32:35Z</time>
      </trkpt>
      <trkpt lat="47.13192" lon="5.61049">
        <ele>237</ele>
        <time>2012-10-02T14:32:39Z</time>
      </trkpt>
      <trkpt lat="47.13198" lon="5.61088">
        <ele>237</ele>
        <time>2012-10-02T14:32:43Z</time>
      </trkpt>
      <trkpt lat="47.132" lon="5.61111">
        <ele>237</ele>
        <time>2012-10-02T14:32:45Z</time>
      </trkpt>
      <trkpt lat="47.13213" lon="5.61142">
        <ele>237</ele>
        <time>2012-10-02T14:32:49Z</time>
      </trkpt>
      <trkpt lat="47.13229" lon="5.61187">
        <ele>237</ele>
        <time>2012-10-02T14:32:55Z</time>
      </trkpt>
      <trkpt lat="47.13253" lon="5.61238">
        <ele>237</ele>
        <time>2012-10-02T14:33:02Z</time>
      </trkpt>
      <trkpt lat="47.13264" lon="5.61254">
        <ele>237</ele>
        <time>2012-10-02T14:33:04Z</time>
      </trkpt>
      <trkpt lat="47.13324" lon="5.6139">
        <ele>238</ele>
        <time>2012-10-02T14:33:20Z</time>
      </trkpt>
      <trkpt lat="47.13328" lon="5.61406">
        <ele>238</ele>
        <time>2012-10-02T14:33:22Z</time>
      </trkpt>
      <trkpt lat="47.13346" lon="5.6145">
        <ele>238</ele>
        <time>2012-10-02T14:33:27Z</time>
      </trkpt>
      <trkpt lat="47.13353" lon="5.61474">
        <ele>238</ele>
        <time>2012-10-02T14:33:30Z</time>
      </trkpt>
      <trkpt lat="47.13387" lon="5.61647">
        <ele>238</ele>
        <time>2012-10-02T14:33:47Z</time>
      </trkpt>
      <trkpt lat="47.13406" lon="5.61698">
        <ele>237</ele>
        <time>2012-10-02T14:33:52Z</time>
      </trkpt>
      <trkpt lat="47.13416" lon="5.61727">
        <ele>237</ele>
        <time>2012-10-02T14:33:55Z</time>
      </trkpt>
      <trkpt lat="47.13442" lon="5.61798">
        <ele>238</ele>
        <time>2012-10-02T14:34:05Z</time>
      </trkpt>
      <trkpt lat="47.13445" lon="5.61804">
        <ele>238</ele>
        <time>2012-10-02T14:34:06Z</time>
      </trkpt>
      <trkpt lat="47.13496" lon="5.61907">
        <ele>238</ele>
        <time>2012-10-02T14:34:19Z</time>
      </trkpt>
      <trkpt lat="47.13541" lon="5.62078">
        <ele>238</ele>
        <time>2012-10-02T14:34:39Z</time>
      </trkpt>
      <trkpt lat="47.13563" lon="5.62251">
        <ele>238</ele>
        <time>2012-10-02T14:34:58Z</time>
      </trkpt>
      <trkpt lat="47.13559" lon="5.6227">
        <ele>238</ele>
        <time>2012-10-02T14:35:00Z</time>
      </trkpt>
      <trkpt lat="47.13563" lon="5.62336">
        <ele>238</ele>
        <time>2012-10-02T14:35:07Z</time>
      </trkpt>
      <trkpt lat="47.13561" lon="5.6238">
        <ele>238</ele>
        <time>2012-10-02T14:35:12Z</time>
      </trkpt>
      <trkpt lat="47.13559" lon="5.62406">
        <ele>238</ele>
        <time>2012-10-02T14:35:15Z</time>
      </trkpt>
      <trkpt lat="47.13559" lon="5.62467">
        <ele>238</ele>
        <time>2012-10-02T14:35:22Z</time>
      </trkpt>
      <trkpt lat="47.13557" lon="5.62644">
        <ele>238</ele>
        <time>2012-10-02T14:35:41Z</time>
      </trkpt>
      <trkpt lat="47.13546" lon="5.62706">
        <ele>239</ele>
        <time>2012-10-02T14:35:48Z</time>
      </trkpt>
      <trkpt lat="47.13529" lon="5.6284">
        <ele>240</ele>
        <time>2012-10-02T14:36:05Z</time>
      </trkpt>
      <trkpt lat="47.13517" lon="5.62942">
        <ele>240</ele>
        <time>2012-10-02T14:36:17Z</time>
      </trkpt>
      <trkpt lat="47.13508" lon="5.63033">
        <ele>240</ele>
        <time>2012-10-02T14:36:27Z</time>
      </trkpt>
      <trkpt lat="47.13477" lon="5.63194">
        <ele>240</ele>
        <time>2012-10-02T14:36:45Z</time>
      </trkpt>
      <trkpt lat="47.1347" lon="5.63222">
        <ele>240</ele>
        <time>2012-10-02T14:36:48Z</time>
      </trkpt>
      <trkpt lat="47.13456" lon="5.63307">
        <ele>240</ele>
        <time>2012-10-02T14:36:57Z</time>
      </trkpt>
      <trkpt lat="47.13445" lon="5.63393">
        <ele>240</ele>
        <time>2012-10-02T14:37:06Z</time>
      </trkpt>
      <trkpt lat="47.13421" lon="5.63436">
        <ele>240</ele>
        <time>2012-10-02T14:37:13Z</time>
      </trkpt>
      <trkpt lat="47.1342" lon="5.63497">
        <ele>240</ele>
        <time>2012-10-02T14:37:20Z</time>
      </trkpt>
      <trkpt lat="47.13439" lon="5.63545">
        <ele>240</ele>
        <time>2012-10-02T14:37:26Z</time>
      </trkpt>
      <trkpt lat="47.13446" lon="5.63616">
        <ele>240</ele>
        <time>2012-10-02T14:37:34Z</time>
      </trkpt>
      <trkpt lat="47.13441" lon="5.63648">
        <ele>240</ele>
        <time>2012-10-02T14:37:38Z</time>
      </trkpt>
      <trkpt lat="47.13429" lon="5.63728">
        <ele>240</ele>
        <time>2012-10-02T14:37:48Z</time>
      </trkpt>
      <trkpt lat="47.13417" lon="5.63762">
        <ele>240</ele>
        <time>2012-10-02T14:37:55Z</time>
      </trkpt>
      <trkpt lat="47.13409" lon="5.63767">
        <ele>240</ele>
        <time>2012-10-02T14:37:58Z</time>
      </trkpt>
      <trkpt lat="47.13395" lon="5.63787">
        <ele>240</ele>
        <time>2012-10-02T14:38:04Z</time>
      </trkpt>
      <trkpt lat="47.13331" lon="5.63811">
        <ele>240</ele>
        <time>2012-10-02T14:38:18Z</time>
      </trkpt>
      <trkpt lat="47.13261" lon="5.63874">
        <ele>242</ele>
        <time>2012-10-02T14:38:31Z</time>
      </trkpt>
      <trkpt lat="47.132" lon="5.6394">
        <ele>243</ele>
        <time>2012-10-02T14:38:40Z</time>
      </trkpt>
      <trkpt lat="47.1319" lon="5.64052">
        <ele>243</ele>
        <time>2012-10-02T14:38:47Z</time>
      </trkpt>
      <trkpt lat="47.13174" lon="5.64133">
        <ele>243</ele>
        <time>2012-10-02T14:38:54Z</time>
      </trkpt>
      <trkpt lat="47.13151" lon="5.64231">
        <ele>243</ele>
        <time>2012-10-02T14:39:02Z</time>
      </trkpt>
      <trkpt lat="47.13132" lon="5.64268">
        <ele>243</ele>
        <time>2012-10-02T14:39:06Z</time>
      </trkpt>
      <trkpt lat="47.13121" lon="5.64338">
        <ele>243</ele>
        <time>2012-10-02T14:39:13Z</time>
      </trkpt>
      <trkpt lat="47.13099" lon="5.6445">
        <ele>246</ele>
        <time>2012-10-02T14:39:26Z</time>
      </trkpt>
      <trkpt lat="47.13085" lon="5.64521">
        <ele>249</ele>
        <time>2012-10-02T14:39:38Z</time>
      </trkpt>
      <trkpt lat="47.13073" lon="5.64569">
        <ele>252</ele>
        <time>2012-10-02T14:39:46Z</time>
      </trkpt>
      <trkpt lat="47.13064" lon="5.64601">
        <ele>254</ele>
        <time>2012-10-02T14:39:52Z</time>
      </trkpt>
      <trkpt lat="47.13049" lon="5.64654">
        <ele>258</ele>
        <time>2012-10-02T14:40:01Z</time>
      </trkpt>
      <trkpt lat="47.13029" lon="5.64744">
        <ele>261</ele>
        <time>2012-10-02T14:40:16Z</time>
      </trkpt>
      <trkpt lat="47.13015" lon="5.64799">
        <ele>264</ele>
        <time>2012-10-02T14:40:27Z</time>
      </trkpt>
      <trkpt lat="47.12987" lon="5.64803">
        <ele>266</ele>
        <time>2012-10-02T14:40:37Z</time>
      </trkpt>
      <trkpt lat="47.12954" lon="5.64806">
        <ele>267</ele>
        <time>2012-10-02T14:40:48Z</time>
      </trkpt>
      <trkpt lat="47.12904" lon="5.64804">
        <ele>268</ele>
        <time>2012-10-02T14:40:57Z</time>
      </trkpt>
      <trkpt lat="47.12894" lon="5.64835">
        <ele>269</ele>
        <time>2012-10-02T14:41:02Z</time>
      </trkpt>
      <trkpt lat="47.12905" lon="5.64876">
        <ele>269</ele>
        <time>2012-10-02T14:41:09Z</time>
      </trkpt>
      <trkpt lat="47.12914" lon="5.64915">
        <ele>269</ele>
        <time>2012-10-02T14:41:14Z</time>
      </trkpt>
      <trkpt lat="47.12922" lon="5.6495">
        <ele>267</ele>
        <time>2012-10-02T14:41:18Z</time>
      </trkpt>
      <trkpt lat="47.12923" lon="5.64978">
        <ele>267</ele>
        <time>2012-10-02T14:41:21Z</time>
      </trkpt>
      <trkpt lat="47.12905" lon="5.65029">
        <ele>269</ele>
        <time>2012-10-02T14:41:28Z</time>
      </trkpt>
      <trkpt lat="47.1285" lon="5.65125">
        <ele>272</ele>
        <time>2012-10-02T14:41:43Z</time>
      </trkpt>
      <trkpt lat="47.12839" lon="5.65178">
        <ele>272</ele>
        <time>2012-10-02T14:41:49Z</time>
      </trkpt>
      <trkpt lat="47.12824" lon="5.65301">
        <ele>275</ele>
        <time>2012-10-02T14:42:02Z</time>
      </trkpt>
      <trkpt lat="47.12823" lon="5.65332">
        <ele>276</ele>
        <time>2012-10-02T14:42:05Z</time>
      </trkpt>
      <trkpt lat="47.128" lon="5.65427">
        <ele>279</ele>
        <time>2012-10-02T14:42:18Z</time>
      </trkpt>
      <trkpt lat="47.12789" lon="5.65499">
        <ele>281</ele>
        <time>2012-10-02T14:42:28Z</time>
      </trkpt>
      <trkpt lat="47.12778" lon="5.65549">
        <ele>282</ele>
        <time>2012-10-02T14:42:36Z</time>
      </trkpt>
      <trkpt lat="47.12771" lon="5.65573">
        <ele>283</ele>
        <time>2012-10-02T14:42:42Z</time>
      </trkpt>
      <trkpt lat="47.12734" lon="5.65549">
        <ele>284</ele>
        <time>2012-10-02T14:42:54Z</time>
      </trkpt>
      <trkpt lat="47.12725" lon="5.65545">
        <ele>284</ele>
        <time>2012-10-02T14:42:56Z</time>
      </trkpt>
      <trkpt lat="47.12687" lon="5.65575">
        <ele>284</ele>
        <time>2012-10-02T14:43:07Z</time>
      </trkpt>
      <trkpt lat="47.12662" lon="5.65576">
        <ele>283</ele>
        <time>2012-10-02T14:43:16Z</time>
      </trkpt>
      <trkpt lat="47.12635" lon="5.65594">
        <ele>282</ele>
        <time>2012-10-02T14:43:26Z</time>
      </trkpt>
      <trkpt lat="47.12596" lon="5.65638">
        <ele>279</ele>
        <time>2012-10-02T14:43:39Z</time>
      </trkpt>
      <trkpt lat="47.12587" lon="5.65677">
        <ele>277</ele>
        <time>2012-10-02T14:43:44Z</time>
      </trkpt>
      <trkpt lat="47.12568" lon="5.65697">
        <ele>276</ele>
        <time>2012-10-02T14:43:47Z</time>
      </trkpt>
      <trkpt lat="47.12543" lon="5.65709">
        <ele>276</ele>
        <time>2012-10-02T14:43:51Z</time>
      </trkpt>
      <trkpt lat="47.12523" lon="5.6573">
        <ele>277</ele>
        <time>2012-10-02T14:43:57Z</time>
      </trkpt>
      <trkpt lat="47.12518" lon="5.65779">
        <ele>276</ele>
        <time>2012-10-02T14:44:09Z</time>
      </trkpt>
      <trkpt lat="47.12519" lon="5.65811">
        <ele>275</ele>
        <time>2012-10-02T14:44:15Z</time>
      </trkpt>
      <trkpt lat="47.12525" lon="5.65828">
        <ele>273</ele>
        <time>2012-10-02T14:44:18Z</time>
      </trkpt>
      <trkpt lat="47.12531" lon="5.65839">
        <ele>272</ele>
        <time>2012-10-02T14:44:20Z</time>
      </trkpt>
      <trkpt lat="47.12574" lon="5.65878">
        <ele>269</ele>
        <time>2012-10-02T14:44:28Z</time>
      </trkpt>
      <trkpt lat="47.12656" lon="5.65931">
        <ele>266</ele>
        <time>2012-10-02T14:44:38Z</time>
      </trkpt>
      <trkpt lat="47.12738" lon="5.65957">
        <ele>262</ele>
        <time>2012-10-02T14:44:48Z</time>
      </trkpt>
      <trkpt lat="47.12761" lon="5.65965">
        <ele>261</ele>
        <time>2012-10-02T14:44:51Z</time>
      </trkpt>
      <trkpt lat="47.12784" lon="5.65975">
        <ele>260</ele>
        <time>2012-10-02T14:44:54Z</time>
      </trkpt>
      <trkpt lat="47.12792" lon="5.65978">
        <ele>259</ele>
        <time>2012-10-02T14:44:55Z</time>
      </trkpt>
      <trkpt lat="47.12807" lon="5.65983">
        <ele>258</ele>
        <time>2012-10-02T14:44:57Z</time>
      </trkpt>
      <trkpt lat="47.12851" lon="5.65994">
        <ele>255</ele>
        <time>2012-10-02T14:45:02Z</time>
      </trkpt>
      <trkpt lat="47.12884" lon="5.66005">
        <ele>254</ele>
        <time>2012-10-02T14:45:06Z</time>
      </trkpt>
      <trkpt lat="47.12916" lon="5.66048">
        <ele>252</ele>
        <time>2012-10-02T14:45:13Z</time>
      </trkpt>
      <trkpt lat="47.12921" lon="5.66079">
        <ele>252</ele>
        <time>2012-10-02T14:45:16Z</time>
      </trkpt>
      <trkpt lat="47.12906" lon="5.66212">
        <ele>251</ele>
        <time>2012-10-02T14:45:28Z</time>
      </trkpt>
      <trkpt lat="47.12905" lon="5.66221">
        <ele>251</ele>
        <time>2012-10-02T14:45:29Z</time>
      </trkpt>
      <trkpt lat="47.12883" lon="5.66279">
        <ele>250</ele>
        <time>2012-10-02T14:45:36Z</time>
      </trkpt>
      <trkpt lat="47.12854" lon="5.66376">
        <ele>253</ele>
        <time>2012-10-02T14:45:52Z</time>
      </trkpt>
      <trkpt lat="47.12834" lon="5.66434">
        <ele>253</ele>
        <time>2012-10-02T14:46:02Z</time>
      </trkpt>
      <trkpt lat="47.1282" lon="5.66471">
        <ele>253</ele>
        <time>2012-10-02T14:46:08Z</time>
      </trkpt>
      <trkpt lat="47.12816" lon="5.66503">
        <ele>252</ele>
        <time>2012-10-02T14:46:12Z</time>
      </trkpt>
      <trkpt lat="47.12816" lon="5.66522">
        <ele>252</ele>
        <time>2012-10-02T14:46:14Z</time>
      </trkpt>
      <trkpt lat="47.12818" lon="5.66549">
        <ele>252</ele>
        <time>2012-10-02T14:46:17Z</time>
      </trkpt>
      <trkpt lat="47.12792" lon="5.66609">
        <ele>253</ele>
        <time>2012-10-02T14:46:26Z</time>
      </trkpt>
      <trkpt lat="47.12783" lon="5.66616">
        <ele>253</ele>
        <time>2012-10-02T14:46:28Z</time>
      </trkpt>
      <trkpt lat="47.12732" lon="5.66642">
        <ele>256</ele>
        <time>2012-10-02T14:46:40Z</time>
      </trkpt>
      <trkpt lat="47.12729" lon="5.66643">
        <ele>256</ele>
        <time>2012-10-02T14:46:41Z</time>
      </trkpt>
      <trkpt lat="47.12706" lon="5.66687">
        <ele>260</ele>
        <time>2012-10-02T14:46:54Z</time>
      </trkpt>
      <trkpt lat="47.12691" lon="5.66719">
        <ele>262</ele>
        <time>2012-10-02T14:47:02Z</time>
      </trkpt>
      <trkpt lat="47.12692" lon="5.66755">
        <ele>264</ele>
        <time>2012-10-02T14:47:10Z</time>
      </trkpt>
      <trkpt lat="47.12698" lon="5.66757">
        <ele>266</ele>
        <time>2012-10-02T14:47:16Z</time>
      </trkpt>
      <trkpt lat="47.12717" lon="5.66746">
        <ele>268</ele>
        <time>2012-10-02T14:47:24Z</time>
      </trkpt>
      <trkpt lat="47.12736" lon="5.66762">
        <ele>271</ele>
        <time>2012-10-02T14:47:31Z</time>
      </trkpt>
      <trkpt lat="47.12749" lon="5.66754">
        <ele>272</ele>
        <time>2012-10-02T14:47:34Z</time>
      </trkpt>
      <trkpt lat="47.12768" lon="5.6676">
        <ele>273</ele>
        <time>2012-10-02T14:47:39Z</time>
      </trkpt>
      <trkpt lat="47.12778" lon="5.66742">
        <ele>274</ele>
        <time>2012-10-02T14:47:44Z</time>
      </trkpt>
      <trkpt lat="47.1281" lon="5.66736">
        <ele>276</ele>
        <time>2012-10-02T14:47:52Z</time>
      </trkpt>
      <trkpt lat="47.12817" lon="5.6674">
        <ele>276</ele>
        <time>2012-10-02T14:47:54Z</time>
      </trkpt>
      <trkpt lat="47.12824" lon="5.66752">
        <ele>278</ele>
        <time>2012-10-02T14:47:58Z</time>
      </trkpt>
      <trkpt lat="47.12822" lon="5.66761">
        <ele>279</ele>
        <time>2012-10-02T14:48:01Z</time>
      </trkpt>
      <trkpt lat="47.12825" lon="5.66801">
        <ele>281</ele>
        <time>2012-10-02T14:48:11Z</time>
      </trkpt>
      <trkpt lat="47.12821" lon="5.66811">
        <ele>282</ele>
        <time>2012-10-02T14:48:15Z</time>
      </trkpt>
      <trkpt lat="47.12805" lon="5.66888">
        <ele>285</ele>
        <time>2012-10-02T14:48:31Z</time>
      </trkpt>
      <trkpt lat="47.12804" lon="5.66904">
        <ele>285</ele>
        <time>2012-10-02T14:48:34Z</time>
      </trkpt>
      <trkpt lat="47.12821" lon="5.66933">
        <ele>286</ele>
        <time>2012-10-02T14:48:38Z</time>
      </trkpt>
      <trkpt lat="47.12816" lon="5.66947">
        <ele>286</ele>
        <time>2012-10-02T14:48:42Z</time>
      </trkpt>
      <trkpt lat="47.12803" lon="5.67074">
        <ele>284</ele>
        <time>2012-10-02T14:48:57Z</time>
      </trkpt>
      <trkpt lat="47.12813" lon="5.67192">
        <ele>281</ele>
        <time>2012-10-02T14:49:07Z</time>
      </trkpt>
      <trkpt lat="47.12817" lon="5.67255">
        <ele>279</ele>
        <time>2012-10-02T14:49:11Z</time>
      </trkpt>
      <trkpt lat="47.12816" lon="5.67383">
        <ele>279</ele>
        <time>2012-10-02T14:49:21Z</time>
      </trkpt>
      <trkpt lat="47.12813" lon="5.67493">
        <ele>281</ele>
        <time>2012-10-02T14:49:37Z</time>
      </trkpt>
      <trkpt lat="47.12813" lon="5.67504">
        <ele>281</ele>
        <time>2012-10-02T14:49:39Z</time>
      </trkpt>
      <trkpt lat="47.12835" lon="5.67538">
        <ele>279</ele>
        <time>2012-10-02T14:49:47Z</time>
      </trkpt>
      <trkpt lat="47.12843" lon="5.67537">
        <ele>279</ele>
        <time>2012-10-02T14:49:49Z</time>
      </trkpt>
      <trkpt lat="47.12924" lon="5.67534">
        <ele>277</ele>
        <time>2012-10-02T14:50:06Z</time>
      </trkpt>
      <trkpt lat="47.12968" lon="5.67527">
        <ele>273</ele>
        <time>2012-10-02T14:50:14Z</time>
      </trkpt>
      <trkpt lat="47.12987" lon="5.67523">
        <ele>273</ele>
        <time>2012-10-02T14:50:17Z</time>
      </trkpt>
      <trkpt lat="47.13001" lon="5.67523">
        <ele>271</ele>
        <time>2012-10-02T14:50:19Z</time>
      </trkpt>
      <trkpt lat="47.1302" lon="5.67518">
        <ele>269</ele>
        <time>2012-10-02T14:50:22Z</time>
      </trkpt>
      <trkpt lat="47.13035" lon="5.67517">
        <ele>267</ele>
        <time>2012-10-02T14:50:24Z</time>
      </trkpt>
      <trkpt lat="47.13114" lon="5.67557">
        <ele>264</ele>
        <time>2012-10-02T14:50:32Z</time>
      </trkpt>
      <trkpt lat="47.13123" lon="5.67564">
        <ele>263</ele>
        <time>2012-10-02T14:50:33Z</time>
      </trkpt>
      <trkpt lat="47.13159" lon="5.67595">
        <ele>262</ele>
        <time>2012-10-02T14:50:37Z</time>
      </trkpt>
      <trkpt lat="47.13203" lon="5.67613">
        <ele>258</ele>
        <time>2012-10-02T14:50:46Z</time>
      </trkpt>
      <trkpt lat="47.13212" lon="5.67625">
        <ele>258</ele>
        <time>2012-10-02T14:50:50Z</time>
      </trkpt>
      <trkpt lat="47.13225" lon="5.67607">
        <ele>258</ele>
        <time>2012-10-02T14:50:57Z</time>
      </trkpt>
      <trkpt lat="47.13229" lon="5.67604">
        <ele>258</ele>
        <time>2012-10-02T14:50:58Z</time>
      </trkpt>
      <trkpt lat="47.13238" lon="5.67592">
        <ele>257</ele>
        <time>2012-10-02T14:51:01Z</time>
      </trkpt>
      <trkpt lat="47.13268" lon="5.67568">
        <ele>256</ele>
        <time>2012-10-02T14:51:09Z</time>
      </trkpt>
      <trkpt lat="47.1331" lon="5.67491">
        <ele>253</ele>
        <time>2012-10-02T14:51:22Z</time>
      </trkpt>
      <trkpt lat="47.13316" lon="5.67476">
        <ele>253</ele>
        <time>2012-10-02T14:51:25Z</time>
      </trkpt>
      <trkpt lat="47.13336" lon="5.67452">
        <ele>252</ele>
        <time>2012-10-02T14:51:31Z</time>
      </trkpt>
      <trkpt lat="47.13366" lon="5.67441">
        <ele>249</ele>
        <time>2012-10-02T14:51:37Z</time>
      </trkpt>
      <trkpt lat="47.13381" lon="5.67434">
        <ele>248</ele>
        <time>2012-10-02T14:51:40Z</time>
      </trkpt>
      <trkpt lat="47.1339" lon="5.67426">
        <ele>247</ele>
        <time>2012-10-02T14:51:42Z</time>
      </trkpt>
      <trkpt lat="47.13395" lon="5.67422">
        <ele>247</ele>
        <time>2012-10-02T14:51:43Z</time>
      </trkpt>
      <trkpt lat="47.13413" lon="5.6741">
        <ele>245</ele>
        <time>2012-10-02T14:51:47Z</time>
      </trkpt>
      <trkpt lat="47.13444" lon="5.67396">
        <ele>242</ele>
        <time>2012-10-02T14:51:55Z</time>
      </trkpt>
      <trkpt lat="47.13453" lon="5.67388">
        <ele>242</ele>
        <time>2012-10-02T14:51:57Z</time>
      </trkpt>
      <trkpt lat="47.13468" lon="5.67362">
        <ele>241</ele>
        <time>2012-10-02T14:52:01Z</time>
      </trkpt>
      <trkpt lat="47.13516" lon="5.6722">
        <ele>240</ele>
        <time>2012-10-02T14:52:17Z</time>
      </trkpt>
      <trkpt lat="47.13556" lon="5.67073">
        <ele>239</ele>
        <time>2012-10-02T14:52:32Z</time>
      </trkpt>
      <trkpt lat="47.13616" lon="5.66854">
        <ele>239</ele>
        <time>2012-10-02T14:52:54Z</time>
      </trkpt>
      <trkpt lat="47.13667" lon="5.66662">
        <ele>239</ele>
        <time>2012-10-02T14:53:14Z</time>
      </trkpt>
      <trkpt lat="47.13704" lon="5.66497">
        <ele>239</ele>
        <time>2012-10-02T14:53:32Z</time>
      </trkpt>
      <trkpt lat="47.13718" lon="5.66338">
        <ele>239</ele>
        <time>2012-10-02T14:53:47Z</time>
      </trkpt>
      <trkpt lat="47.13724" lon="5.66256">
        <ele>238</ele>
        <time>2012-10-02T14:53:56Z</time>
      </trkpt>
      <trkpt lat="47.13742" lon="5.66092">
        <ele>238</ele>
        <time>2012-10-02T14:54:15Z</time>
      </trkpt>
      <trkpt lat="47.1376" lon="5.65951">
        <ele>237</ele>
        <time>2012-10-02T14:54:31Z</time>
      </trkpt>
      <trkpt lat="47.13772" lon="5.6584">
        <ele>237</ele>
        <time>2012-10-02T14:54:43Z</time>
      </trkpt>
      <trkpt lat="47.13761" lon="5.65763">
        <ele>237</ele>
        <time>2012-10-02T14:54:51Z</time>
      </trkpt>
      <trkpt lat="47.13771" lon="5.65711">
        <ele>238</ele>
        <time>2012-10-02T14:54:57Z</time>
      </trkpt>
      <trkpt lat="47.13855" lon="5.65595">
        <ele>237</ele>
        <time>2012-10-02T14:55:15Z</time>
      </trkpt>
      <trkpt lat="47.13908" lon="5.65531">
        <ele>237</ele>
        <time>2012-10-02T14:55:26Z</time>
      </trkpt>
      <trkpt lat="47.13973" lon="5.65516">
        <ele>237</ele>
        <time>2012-10-02T14:55:36Z</time>
      </trkpt>
      <trkpt lat="47.14092" lon="5.65529">
        <ele>238</ele>
        <time>2012-10-02T14:55:54Z</time>
      </trkpt>
      <trkpt lat="47.142" lon="5.65561">
        <ele>237</ele>
        <time>2012-10-02T14:56:10Z</time>
      </trkpt>
      <trkpt lat="47.14308" lon="5.65588">
        <ele>238</ele>
        <time>2012-10-02T14:56:25Z</time>
      </trkpt>
      <trkpt lat="47.14349" lon="5.65593">
        <ele>238</ele>
        <time>2012-10-02T14:56:31Z</time>
      </trkpt>
      <trkpt lat="47.14367" lon="5.65598">
        <ele>238</ele>
        <time>2012-10-02T14:56:34Z</time>
      </trkpt>
      <trkpt lat="47.14379" lon="5.656">
        <ele>239</ele>
        <time>2012-10-02T14:56:37Z</time>
      </trkpt>
      <trkpt lat="47.14391" lon="5.65607">
        <ele>239</ele>
        <time>2012-10-02T14:56:41Z</time>
      </trkpt>
      <trkpt lat="47.14399" lon="5.65611">
        <ele>240</ele>
        <time>2012-10-02T14:56:43Z</time>
      </trkpt>
      <trkpt lat="47.14415" lon="5.65609">
        <ele>240</ele>
        <time>2012-10-02T14:56:47Z</time>
      </trkpt>
      <trkpt lat="47.14428" lon="5.65614">
        <ele>240</ele>
        <time>2012-10-02T14:56:50Z</time>
      </trkpt>
      <trkpt lat="47.1445" lon="5.65603">
        <ele>240</ele>
        <time>2012-10-02T14:56:54Z</time>
      </trkpt>
      <trkpt lat="47.14489" lon="5.656">
        <ele>241</ele>
        <time>2012-10-02T14:57:00Z</time>
      </trkpt>
      <trkpt lat="47.14525" lon="5.65612">
        <ele>241</ele>
        <time>2012-10-02T14:57:05Z</time>
      </trkpt>
      <trkpt lat="47.14554" lon="5.65618">
        <ele>241</ele>
        <time>2012-10-02T14:57:10Z</time>
      </trkpt>
      <trkpt lat="47.14592" lon="5.65622">
        <ele>240</ele>
        <time>2012-10-02T14:57:17Z</time>
      </trkpt>
      <trkpt lat="47.14614" lon="5.65626">
        <ele>240</ele>
        <time>2012-10-02T14:57:21Z</time>
      </trkpt>
      <trkpt lat="47.14634" lon="5.65646">
        <ele>241</ele>
        <time>2012-10-02T14:57:26Z</time>
      </trkpt>
      <trkpt lat="47.14647" lon="5.65676">
        <ele>241</ele>
        <time>2012-10-02T14:57:30Z</time>
      </trkpt>
      <trkpt lat="47.14652" lon="5.65704">
        <ele>242</ele>
        <time>2012-10-02T14:57:33Z</time>
      </trkpt>
      <trkpt lat="47.14655" lon="5.65729">
        <ele>243</ele>
        <time>2012-10-02T14:57:36Z</time>
      </trkpt>
      <trkpt lat="47.14657" lon="5.65762">
        <ele>243</ele>
        <time>2012-10-02T14:57:40Z</time>
      </trkpt>
      <trkpt lat="47.14662" lon="5.65818">
        <ele>245</ele>
        <time>2012-10-02T14:57:48Z</time>
      </trkpt>
      <trkpt lat="47.14663" lon="5.65841">
        <ele>245</ele>
        <time>2012-10-02T14:57:52Z</time>
      </trkpt>
      <trkpt lat="47.14662" lon="5.65874">
        <ele>246</ele>
        <time>2012-10-02T14:57:57Z</time>
      </trkpt>
      <trkpt lat="47.14671" lon="5.65888">
        <ele>247</ele>
        <time>2012-10-02T14:58:02Z</time>
      </trkpt>
      <trkpt lat="47.14682" lon="5.65893">
        <ele>247</ele>
        <time>2012-10-02T14:58:05Z</time>
      </trkpt>
      <trkpt lat="47.14706" lon="5.65901">
        <ele>249</ele>
        <time>2012-10-02T14:58:14Z</time>
      </trkpt>
      <trkpt lat="47.14718" lon="5.65882">
        <ele>251</ele>
        <time>2012-10-02T14:58:21Z</time>
      </trkpt>
      <trkpt lat="47.14727" lon="5.65881">
        <ele>252</ele>
        <time>2012-10-02T14:58:24Z</time>
      </trkpt>
      <trkpt lat="47.14772" lon="5.65887">
        <ele>255</ele>
        <time>2012-10-02T14:58:37Z</time>
      </trkpt>
      <trkpt lat="47.1479" lon="5.65867">
        <ele>256</ele>
        <time>2012-10-02T14:58:50Z</time>
      </trkpt>
      <trkpt lat="47.14812" lon="5.65892">
        <ele>257</ele>
        <time>2012-10-02T14:59:10Z</time>
      </trkpt>
      <trkpt lat="47.14813" lon="5.65891">
        <ele>257</ele>
        <time>2012-10-02T14:59:13Z</time>
      </trkpt>
      <trkpt lat="47.1482" lon="5.65881">
        <ele>257</ele>
        <time>2012-10-02T14:59:18Z</time>
      </trkpt>
      <trkpt lat="47.14837" lon="5.6589">
        <ele>258</ele>
        <time>2012-10-02T14:59:25Z</time>
      </trkpt>
      <trkpt lat="47.14886" lon="5.65908">
        <ele>261</ele>
        <time>2012-10-02T14:59:40Z</time>
      </trkpt>
      <trkpt lat="47.14889" lon="5.65898">
        <ele>261</ele>
        <time>2012-10-02T14:59:41Z</time>
      </trkpt>
      <trkpt lat="47.14931" lon="5.65897">
        <ele>263</ele>
        <time>2012-10-02T14:59:53Z</time>
      </trkpt>
      <trkpt lat="47.14935" lon="5.65899">
        <ele>263</ele>
        <time>2012-10-02T14:59:54Z</time>
      </trkpt>
      <trkpt lat="47.14967" lon="5.65947">
        <ele>264</ele>
        <time>2012-10-02T15:00:04Z</time>
      </trkpt>
      <trkpt lat="47.15013" lon="5.66027">
        <ele>266</ele>
        <time>2012-10-02T15:00:18Z</time>
      </trkpt>
      <trkpt lat="47.15037" lon="5.66099">
        <ele>269</ele>
        <time>2012-10-02T15:00:33Z</time>
      </trkpt>
      <trkpt lat="47.15042" lon="5.66111">
        <ele>269</ele>
        <time>2012-10-02T15:00:36Z</time>
      </trkpt>
      <trkpt lat="47.15057" lon="5.66118">
        <ele>270</ele>
        <time>2012-10-02T15:00:45Z</time>
      </trkpt>
      <trkpt lat="47.15081" lon="5.66123">
        <ele>272</ele>
        <time>2012-10-02T15:00:53Z</time>
      </trkpt>
      <trkpt lat="47.15114" lon="5.66127">
        <ele>274</ele>
        <time>2012-10-02T15:01:04Z</time>
      </trkpt>
      <trkpt lat="47.15146" lon="5.66149">
        <ele>277</ele>
        <time>2012-10-02T15:01:15Z</time>
      </trkpt>
      <trkpt lat="47.1518" lon="5.66164">
        <ele>278</ele>
        <time>2012-10-02T15:01:25Z</time>
      </trkpt>
      <trkpt lat="47.15235" lon="5.66178">
        <ele>281</ele>
        <time>2012-10-02T15:01:38Z</time>
      </trkpt>
      <trkpt lat="47.15292" lon="5.66199">
        <ele>284</ele>
        <time>2012-10-02T15:01:50Z</time>
      </trkpt>
      <trkpt lat="47.15355" lon="5.66238">
        <ele>285</ele>
        <time>2012-10-02T15:02:05Z</time>
      </trkpt>
      <trkpt lat="47.15401" lon="5.66266">
        <ele>285</ele>
        <time>2012-10-02T15:02:18Z</time>
      </trkpt>
      <trkpt lat="47.15442" lon="5.66273">
        <ele>284</ele>
        <time>2012-10-02T15:02:36Z</time>
      </trkpt>
      <trkpt lat="47.15481" lon="5.66283">
        <ele>283</ele>
        <time>2012-10-02T15:02:51Z</time>
      </trkpt>
      <trkpt lat="47.15539" lon="5.66299">
        <ele>281</ele>
        <time>2012-10-02T15:03:05Z</time>
      </trkpt>
      <trkpt lat="47.15627" lon="5.66307">
        <ele>279</ele>
        <time>2012-10-02T15:03:19Z</time>
      </trkpt>
      <trkpt lat="47.15765" lon="5.66326">
        <ele>276</ele>
        <time>2012-10-02T15:03:38Z</time>
      </trkpt>
      <trkpt lat="47.15903" lon="5.66344">
        <ele>272</ele>
        <time>2012-10-02T15:03:54Z</time>
      </trkpt>
      <trkpt lat="47.15997" lon="5.66347">
        <ele>270</ele>
        <time>2012-10-02T15:04:05Z</time>
      </trkpt>
      <trkpt lat="47.16053" lon="5.66337">
        <ele>267</ele>
        <time>2012-10-02T15:04:11Z</time>
      </trkpt>
      <trkpt lat="47.16136" lon="5.66328">
        <ele>264</ele>
        <time>2012-10-02T15:04:19Z</time>
      </trkpt>
      <trkpt lat="47.16225" lon="5.66326">
        <ele>260</ele>
        <time>2012-10-02T15:04:27Z</time>
      </trkpt>
      <trkpt lat="47.16375" lon="5.66317">
        <ele>258</ele>
        <time>2012-10-02T15:04:43Z</time>
      </trkpt>
      <trkpt lat="47.16416" lon="5.66313">
        <ele>257</ele>
        <time>2012-10-02T15:04:48Z</time>
      </trkpt>
      <trkpt lat="47.16535" lon="5.66244">
        <ele>257</ele>
        <time>2012-10-02T15:05:03Z</time>
      </trkpt>
      <trkpt lat="47.16654" lon="5.66201">
        <ele>255</ele>
        <time>2012-10-02T15:05:17Z</time>
      </trkpt>
      <trkpt lat="47.16745" lon="5.66191">
        <ele>255</ele>
        <time>2012-10-02T15:05:27Z</time>
      </trkpt>
      <trkpt lat="47.16761" lon="5.66187">
        <ele>255</ele>
        <time>2012-10-02T15:05:29Z</time>
      </trkpt>
      <trkpt lat="47.16848" lon="5.66102">
        <ele>253</ele>
        <time>2012-10-02T15:05:42Z</time>
      </trkpt>
      <trkpt lat="47.16966" lon="5.65962">
        <ele>252</ele>
        <time>2012-10-02T15:06:02Z</time>
      </trkpt>
      <trkpt lat="47.17058" lon="5.6585">
        <ele>251</ele>
        <time>2012-10-02T15:06:19Z</time>
      </trkpt>
      <trkpt lat="47.1709" lon="5.65812">
        <ele>251</ele>
        <time>2012-10-02T15:06:25Z</time>
      </trkpt>
      <trkpt lat="47.17104" lon="5.65789">
        <ele>251</ele>
        <time>2012-10-02T15:06:28Z</time>
      </trkpt>
      <trkpt lat="47.17118" lon="5.658">
        <ele>251</ele>
        <time>2012-10-02T15:06:31Z</time>
      </trkpt>
      <trkpt lat="47.17137" lon="5.65785">
        <ele>252</ele>
        <time>2012-10-02T15:06:35Z</time>
      </trkpt>
      <trkpt lat="47.17163" lon="5.65756">
        <ele>250</ele>
        <time>2012-10-02T15:06:39Z</time>
      </trkpt>
      <trkpt lat="47.17267" lon="5.65685">
        <ele>249</ele>
        <time>2012-10-02T15:06:52Z</time>
      </trkpt>
      <trkpt lat="47.17286" lon="5.65675">
        <ele>250</ele>
        <time>2012-10-02T15:06:55Z</time>
      </trkpt>
      <trkpt lat="47.17348" lon="5.65597">
        <ele>252</ele>
        <time>2012-10-02T15:07:09Z</time>
      </trkpt>
      <trkpt lat="47.17352" lon="5.65592">
        <ele>253</ele>
        <time>2012-10-02T15:07:10Z</time>
      </trkpt>
      <trkpt lat="47.17363" lon="5.65575">
        <ele>253</ele>
        <time>2012-10-02T15:07:13Z</time>
      </trkpt>
      <trkpt lat="47.17405" lon="5.65518">
        <ele>257</ele>
        <time>2012-10-02T15:07:26Z</time>
      </trkpt>
      <trkpt lat="47.17416" lon="5.655">
        <ele>258</ele>
        <time>2012-10-02T15:07:29Z</time>
      </trkpt>
      <trkpt lat="47.17476" lon="5.6543">
        <ele>261</ele>
        <time>2012-10-02T15:07:45Z</time>
      </trkpt>
      <trkpt lat="47.1752" lon="5.65404">
        <ele>264</ele>
        <time>2012-10-02T15:07:58Z</time>
      </trkpt>
      <trkpt lat="47.17582" lon="5.65377">
        <ele>267</ele>
        <time>2012-10-02T15:08:14Z</time>
      </trkpt>
      <trkpt lat="47.17629" lon="5.65354">
        <ele>268</ele>
        <time>2012-10-02T15:08:28Z</time>
      </trkpt>
      <trkpt lat="47.17632" lon="5.65342">
        <ele>268</ele>
        <time>2012-10-02T15:08:30Z</time>
      </trkpt>
      <trkpt lat="47.17633" lon="5.65315">
        <ele>268</ele>
        <time>2012-10-02T15:08:34Z</time>
      </trkpt>
      <trkpt lat="47.17628" lon="5.65283">
        <ele>267</ele>
        <time>2012-10-02T15:08:38Z</time>
      </trkpt>
      <trkpt lat="47.17619" lon="5.65257">
        <ele>266</ele>
        <time>2012-10-02T15:08:41Z</time>
      </trkpt>
      <trkpt lat="47.17564" lon="5.65183">
        <ele>263</ele>
        <time>2012-10-02T15:08:52Z</time>
      </trkpt>
      <trkpt lat="47.17551" lon="5.65162">
        <ele>261</ele>
        <time>2012-10-02T15:08:55Z</time>
      </trkpt>
      <trkpt lat="47.17529" lon="5.65114">
        <ele>258</ele>
        <time>2012-10-02T15:09:04Z</time>
      </trkpt>
      <trkpt lat="47.17525" lon="5.65106">
        <ele>257</ele>
        <time>2012-10-02T15:09:06Z</time>
      </trkpt>
      <trkpt lat="47.17532" lon="5.65089">
        <ele>256</ele>
        <time>2012-10-02T15:09:10Z</time>
      </trkpt>
      <trkpt lat="47.17548" lon="5.65062">
        <ele>256</ele>
        <time>2012-10-02T15:09:20Z</time>
      </trkpt>
      <trkpt lat="47.17566" lon="5.6502">
        <ele>259</ele>
        <time>2012-10-02T15:09:29Z</time>
      </trkpt>
      <trkpt lat="47.17567" lon="5.65016">
        <ele>259</ele>
        <time>2012-10-02T15:09:30Z</time>
      </trkpt>
      <trkpt lat="47.17585" lon="5.64959">
        <ele>262</ele>
        <time>2012-10-02T15:09:40Z</time>
      </trkpt>
      <trkpt lat="47.17587" lon="5.64952">
        <ele>263</ele>
        <time>2012-10-02T15:09:41Z</time>
      </trkpt>
      <trkpt lat="47.17585" lon="5.64897">
        <ele>265</ele>
        <time>2012-10-02T15:09:52Z</time>
      </trkpt>
      <trkpt lat="47.17587" lon="5.64869">
        <ele>267</ele>
        <time>2012-10-02T15:09:57Z</time>
      </trkpt>
      <trkpt lat="47.17583" lon="5.64838">
        <ele>268</ele>
        <time>2012-10-02T15:10:02Z</time>
      </trkpt>
      <trkpt lat="47.17599" lon="5.64699">
        <ele>267</ele>
        <time>2012-10-02T15:10:18Z</time>
      </trkpt>
      <trkpt lat="47.176" lon="5.64576">
        <ele>264</ele>
        <time>2012-10-02T15:10:29Z</time>
      </trkpt>
      <trkpt lat="47.17614" lon="5.64425">
        <ele>263</ele>
        <time>2012-10-02T15:10:44Z</time>
      </trkpt>
      <trkpt lat="47.17646" lon="5.64309">
        <ele>263</ele>
        <time>2012-10-02T15:10:58Z</time>
      </trkpt>
      <trkpt lat="47.17666" lon="5.64195">
        <ele>264</ele>
        <time>2012-10-02T15:11:11Z</time>
      </trkpt>
      <trkpt lat="47.17659" lon="5.64096">
        <ele>265</ele>
        <time>2012-10-02T15:11:23Z</time>
      </trkpt>
      <trkpt lat="47.17614" lon="5.63959">
        <ele>264</ele>
        <time>2012-10-02T15:11:39Z</time>
      </trkpt>
      <trkpt lat="47.176" lon="5.63917">
        <ele>264</ele>
        <time>2012-10-02T15:11:44Z</time>
      </trkpt>
      <trkpt lat="47.17588" lon="5.63805">
        <ele>266</ele>
        <time>2012-10-02T15:11:58Z</time>
      </trkpt>
      <trkpt lat="47.17579" lon="5.63667">
        <ele>269</ele>
        <time>2012-10-02T15:12:15Z</time>
      </trkpt>
      <trkpt lat="47.17581" lon="5.63545">
        <ele>270</ele>
        <time>2012-10-02T15:12:30Z</time>
      </trkpt>
      <trkpt lat="47.17613" lon="5.63462">
        <ele>271</ele>
        <time>2012-10-02T15:12:43Z</time>
      </trkpt>
      <trkpt lat="47.17618" lon="5.63452">
        <ele>271</ele>
        <time>2012-10-02T15:12:45Z</time>
      </trkpt>
      <trkpt lat="47.17635" lon="5.63349">
        <ele>269</ele>
        <time>2012-10-02T15:12:59Z</time>
      </trkpt>
      <trkpt lat="47.17633" lon="5.63212">
        <ele>266</ele>
        <time>2012-10-02T15:13:12Z</time>
      </trkpt>
      <trkpt lat="47.1763" lon="5.63113">
        <ele>263</ele>
        <time>2012-10-02T15:13:20Z</time>
      </trkpt>
      <trkpt lat="47.17629" lon="5.63064">
        <ele>261</ele>
        <time>2012-10-02T15:13:24Z</time>
      </trkpt>
      <trkpt lat="47.17623" lon="5.6297">
        <ele>261</ele>
        <time>2012-10-02T15:13:34Z</time>
      </trkpt>
      <trkpt lat="47.17616" lon="5.62944">
        <ele>261</ele>
        <time>2012-10-02T15:13:38Z</time>
      </trkpt>
      <trkpt lat="47.17588" lon="5.62862">
        <ele>263</ele>
        <time>2012-10-02T15:13:51Z</time>
      </trkpt>
      <trkpt lat="47.1758" lon="5.62828">
        <ele>263</ele>
        <time>2012-10-02T15:13:56Z</time>
      </trkpt>
      <trkpt lat="47.17581" lon="5.62801">
        <ele>263</ele>
        <time>2012-10-02T15:14:00Z</time>
      </trkpt>
      <trkpt lat="47.17592" lon="5.62737">
        <ele>261</ele>
        <time>2012-10-02T15:14:09Z</time>
      </trkpt>
      <trkpt lat="47.17596" lon="5.62718">
        <ele>261</ele>
        <time>2012-10-02T15:14:12Z</time>
      </trkpt>
      <trkpt lat="47.17602" lon="5.62704">
        <ele>259</ele>
        <time>2012-10-02T15:14:14Z</time>
      </trkpt>
      <trkpt lat="47.1762" lon="5.62679">
        <ele>257</ele>
        <time>2012-10-02T15:14:18Z</time>
      </trkpt>
      <trkpt lat="47.17648" lon="5.62656">
        <ele>256</ele>
        <time>2012-10-02T15:14:22Z</time>
      </trkpt>
      <trkpt lat="47.17674" lon="5.62622">
        <ele>255</ele>
        <time>2012-10-02T15:14:26Z</time>
      </trkpt>
      <trkpt lat="47.17714" lon="5.6259">
        <ele>256</ele>
        <time>2012-10-02T15:14:33Z</time>
      </trkpt>
      <trkpt lat="47.1773" lon="5.62594">
        <ele>258</ele>
        <time>2012-10-02T15:14:44Z</time>
      </trkpt>
      <trkpt lat="47.1775" lon="5.62596">
        <ele>261</ele>
        <time>2012-10-02T15:14:54Z</time>
      </trkpt>
      <trkpt lat="47.17757" lon="5.62592">
        <ele>261</ele>
        <time>2012-10-02T15:15:06Z</time>
      </trkpt>
      <trkpt lat="47.17767" lon="5.62597">
        <ele>261</ele>
        <time>2012-10-02T15:15:45Z</time>
      </trkpt>
      <trkpt lat="47.17766" lon="5.62586">
        <ele>261</ele>
        <time>2012-10-02T15:15:49Z</time>
      </trkpt>
      <trkpt lat="47.17755" lon="5.62518">
        <ele>259</ele>
        <time>2012-10-02T15:16:03Z</time>
      </trkpt>
      <trkpt lat="47.1775" lon="5.62483">
        <ele>259</ele>
        <time>2012-10-02T15:16:07Z</time>
      </trkpt>
      <trkpt lat="47.17734" lon="5.62448">
        <ele>257</ele>
        <time>2012-10-02T15:16:11Z</time>
      </trkpt>
      <trkpt lat="47.17717" lon="5.62422">
        <ele>255</ele>
        <time>2012-10-02T15:16:14Z</time>
      </trkpt>
      <trkpt lat="47.17706" lon="5.62404">
        <ele>254</ele>
        <time>2012-10-02T15:16:16Z</time>
      </trkpt>
      <trkpt lat="47.17696" lon="5.62382">
        <ele>252</ele>
        <time>2012-10-02T15:16:18Z</time>
      </trkpt>
      <trkpt lat="47.17681" lon="5.6233">
        <ele>250</ele>
        <time>2012-10-02T15:16:22Z</time>
      </trkpt>
      <trkpt lat="47.1767" lon="5.62252">
        <ele>249</ele>
        <time>2012-10-02T15:16:28Z</time>
      </trkpt>
      <trkpt lat="47.17682" lon="5.62213">
        <ele>249</ele>
        <time>2012-10-02T15:16:32Z</time>
      </trkpt>
      <trkpt lat="47.17707" lon="5.62152">
        <ele>251</ele>
        <time>2012-10-02T15:16:41Z</time>
      </trkpt>
      <trkpt lat="47.17703" lon="5.62052">
        <ele>252</ele>
        <time>2012-10-02T15:16:55Z</time>
      </trkpt>
      <trkpt lat="47.17705" lon="5.61948">
        <ele>253</ele>
        <time>2012-10-02T15:17:09Z</time>
      </trkpt>
      <trkpt lat="47.17723" lon="5.61879">
        <ele>256</ele>
        <time>2012-10-02T15:17:21Z</time>
      </trkpt>
      <trkpt lat="47.17725" lon="5.61827">
        <ele>259</ele>
        <time>2012-10-02T15:17:31Z</time>
      </trkpt>
      <trkpt lat="47.17707" lon="5.61786">
        <ele>262</ele>
        <time>2012-10-02T15:17:41Z</time>
      </trkpt>
      <trkpt lat="47.17681" lon="5.61752">
        <ele>265</ele>
        <time>2012-10-02T15:17:51Z</time>
      </trkpt>
      <trkpt lat="47.17655" lon="5.61724">
        <ele>268</ele>
        <time>2012-10-02T15:18:01Z</time>
      </trkpt>
      <trkpt lat="47.1764" lon="5.61703">
        <ele>269</ele>
        <time>2012-10-02T15:18:08Z</time>
      </trkpt>
      <trkpt lat="47.17613" lon="5.6162">
        <ele>272</ele>
        <time>2012-10-02T15:18:24Z</time>
      </trkpt>
      <trkpt lat="47.17599" lon="5.61585">
        <ele>272</ele>
        <time>2012-10-02T15:18:33Z</time>
      </trkpt>
      <trkpt lat="47.17589" lon="5.61559">
        <ele>272</ele>
        <time>2012-10-02T15:18:43Z</time>
      </trkpt>
      <trkpt lat="47.1759" lon="5.61531">
        <ele>272</ele>
        <time>2012-10-02T15:18:55Z</time>
      </trkpt>
      <trkpt lat="47.17595" lon="5.6151">
        <ele>273</ele>
        <time>2012-10-02T15:19:02Z</time>
      </trkpt>
      <trkpt lat="47.17611" lon="5.6148">
        <ele>274</ele>
        <time>2012-10-02T15:19:10Z</time>
      </trkpt>
      <trkpt lat="47.1763" lon="5.61433">
        <ele>274</ele>
        <time>2012-10-02T15:19:20Z</time>
      </trkpt>
      <trkpt lat="47.17665" lon="5.61347">
        <ele>274</ele>
        <time>2012-10-02T15:19:35Z</time>
      </trkpt>
      <trkpt lat="47.17702" lon="5.61276">
        <ele>275</ele>
        <time>2012-10-02T15:19:46Z</time>
      </trkpt>
      <trkpt lat="47.1773" lon="5.61225">
        <ele>276</ele>
        <time>2012-10-02T15:19:56Z</time>
      </trkpt>
      <trkpt lat="47.17718" lon="5.61151">
        <ele>276</ele>
        <time>2012-10-02T15:20:07Z</time>
      </trkpt>
      <trkpt lat="47.17713" lon="5.61143">
        <ele>275</ele>
        <time>2012-10-02T15:20:09Z</time>
      </trkpt>
      <trkpt lat="47.17701" lon="5.61031">
        <ele>276</ele>
        <time>2012-10-02T15:20:25Z</time>
      </trkpt>
      <trkpt lat="47.17695" lon="5.60955">
        <ele>278</ele>
        <time>2012-10-02T15:20:39Z</time>
      </trkpt>
      <trkpt lat="47.17694" lon="5.60951">
        <ele>277</ele>
        <time>2012-10-02T15:20:40Z</time>
      </trkpt>
      <trkpt lat="47.17693" lon="5.60911">
        <ele>277</ele>
        <time>2012-10-02T15:20:46Z</time>
      </trkpt>
      <trkpt lat="47.17694" lon="5.60804">
        <ele>276</ele>
        <time>2012-10-02T15:20:59Z</time>
      </trkpt>
      <trkpt lat="47.17708" lon="5.60626">
        <ele>276</ele>
        <time>2012-10-02T15:21:18Z</time>
      </trkpt>
      <trkpt lat="47.17699" lon="5.60509">
        <ele>279</ele>
        <time>2012-10-02T15:21:34Z</time>
      </trkpt>
      <trkpt lat="47.17686" lon="5.60406">
        <ele>281</ele>
        <time>2012-10-02T15:21:51Z</time>
      </trkpt>
      <trkpt lat="47.17671" lon="5.60291">
        <ele>280</ele>
        <time>2012-10-02T15:22:07Z</time>
      </trkpt>
      <trkpt lat="47.17667" lon="5.60276">
        <ele>280</ele>
        <time>2012-10-02T15:22:09Z</time>
      </trkpt>
      <trkpt lat="47.17606" lon="5.60196">
        <ele>277</ele>
        <time>2012-10-02T15:22:22Z</time>
      </trkpt>
      <trkpt lat="47.17551" lon="5.60125">
        <ele>274</ele>
        <time>2012-10-02T15:22:32Z</time>
      </trkpt>
      <trkpt lat="47.17539" lon="5.6011">
        <ele>274</ele>
        <time>2012-10-02T15:22:34Z</time>
      </trkpt>
      <trkpt lat="47.17524" lon="5.60083">
        <ele>273</ele>
        <time>2012-10-02T15:22:37Z</time>
      </trkpt>
      <trkpt lat="47.17505" lon="5.60018">
        <ele>271</ele>
        <time>2012-10-02T15:22:43Z</time>
      </trkpt>
      <trkpt lat="47.17507" lon="5.59937">
        <ele>268</ele>
        <time>2012-10-02T15:22:50Z</time>
      </trkpt>
      <trkpt lat="47.1751" lon="5.59926">
        <ele>267</ele>
        <time>2012-10-02T15:22:51Z</time>
      </trkpt>
      <trkpt lat="47.17514" lon="5.59915">
        <ele>267</ele>
        <time>2012-10-02T15:22:52Z</time>
      </trkpt>
      <trkpt lat="47.17569" lon="5.59773">
        <ele>264</ele>
        <time>2012-10-02T15:23:04Z</time>
      </trkpt>
      <trkpt lat="47.17625" lon="5.59624">
        <ele>261</ele>
        <time>2012-10-02T15:23:17Z</time>
      </trkpt>
      <trkpt lat="47.17626" lon="5.59606">
        <ele>262</ele>
        <time>2012-10-02T15:23:24Z</time>
      </trkpt>
      <trkpt lat="47.17636" lon="5.59554">
        <ele>262</ele>
        <time>2012-10-02T15:23:33Z</time>
      </trkpt>
      <trkpt lat="47.17692" lon="5.5943">
        <ele>264</ele>
        <time>2012-10-02T15:23:46Z</time>
      </trkpt>
      <trkpt lat="47.1775" lon="5.59358">
        <ele>267</ele>
        <time>2012-10-02T15:23:59Z</time>
      </trkpt>
      <trkpt lat="47.17821" lon="5.59272">
        <ele>270</ele>
        <time>2012-10-02T15:24:17Z</time>
      </trkpt>
      <trkpt lat="47.17878" lon="5.59175">
        <ele>273</ele>
        <time>2012-10-02T15:24:34Z</time>
      </trkpt>
      <trkpt lat="47.17921" lon="5.59076">
        <ele>277</ele>
        <time>2012-10-02T15:24:51Z</time>
      </trkpt>
      <trkpt lat="47.17951" lon="5.58983">
        <ele>279</ele>
        <time>2012-10-02T15:25:06Z</time>
      </trkpt>
      <trkpt lat="47.17988" lon="5.589">
        <ele>282</ele>
        <time>2012-10-02T15:25:22Z</time>
      </trkpt>
      <trkpt lat="47.18052" lon="5.58804">
        <ele>280</ele>
        <time>2012-10-02T15:25:41Z</time>
      </trkpt>
      <trkpt lat="47.18063" lon="5.58785">
        <ele>280</ele>
        <time>2012-10-02T15:25:44Z</time>
      </trkpt>
      <trkpt lat="47.18065" lon="5.58733">
        <ele>279</ele>
        <time>2012-10-02T15:25:51Z</time>
      </trkpt>
      <trkpt lat="47.18056" lon="5.58712">
        <ele>278</ele>
        <time>2012-10-02T15:25:54Z</time>
      </trkpt>
      <trkpt lat="47.18049" lon="5.587">
        <ele>277</ele>
        <time>2012-10-02T15:25:56Z</time>
      </trkpt>
      <trkpt lat="47.18046" lon="5.58695">
        <ele>276</ele>
        <time>2012-10-02T15:25:57Z</time>
      </trkpt>
      <trkpt lat="47.1803" lon="5.58658">
        <ele>272</ele>
        <time>2012-10-02T15:26:04Z</time>
      </trkpt>
      <trkpt lat="47.18024" lon="5.58594">
        <ele>271</ele>
        <time>2012-10-02T15:26:10Z</time>
      </trkpt>
      <trkpt lat="47.18028" lon="5.5855">
        <ele>269</ele>
        <time>2012-10-02T15:26:13Z</time>
      </trkpt>
      <trkpt lat="47.18064" lon="5.58436">
        <ele>267</ele>
        <time>2012-10-02T15:26:24Z</time>
      </trkpt>
      <trkpt lat="47.18093" lon="5.58355">
        <ele>269</ele>
        <time>2012-10-02T15:26:36Z</time>
      </trkpt>
      <trkpt lat="47.18085" lon="5.58301">
        <ele>269</ele>
        <time>2012-10-02T15:26:47Z</time>
      </trkpt>
      <trkpt lat="47.18058" lon="5.58265">
        <ele>270</ele>
        <time>2012-10-02T15:26:58Z</time>
      </trkpt>
      <trkpt lat="47.18034" lon="5.58216">
        <ele>270</ele>
        <time>2012-10-02T15:27:07Z</time>
      </trkpt>
      <trkpt lat="47.18025" lon="5.58211">
        <ele>269</ele>
        <time>2012-10-02T15:27:09Z</time>
      </trkpt>
      <trkpt lat="47.18003" lon="5.58186">
        <ele>268</ele>
        <time>2012-10-02T15:27:13Z</time>
      </trkpt>
      <trkpt lat="47.17991" lon="5.58152">
        <ele>267</ele>
        <time>2012-10-02T15:27:17Z</time>
      </trkpt>
      <trkpt lat="47.17976" lon="5.58124">
        <ele>266</ele>
        <time>2012-10-02T15:27:21Z</time>
      </trkpt>
      <trkpt lat="47.17967" lon="5.58111">
        <ele>265</ele>
        <time>2012-10-02T15:27:23Z</time>
      </trkpt>
      <trkpt lat="47.17963" lon="5.58107">
        <ele>264</ele>
        <time>2012-10-02T15:27:24Z</time>
      </trkpt>
      <trkpt lat="47.17932" lon="5.58067">
        <ele>263</ele>
        <time>2012-10-02T15:27:31Z</time>
      </trkpt>
      <trkpt lat="47.17924" lon="5.58046">
        <ele>263</ele>
        <time>2012-10-02T15:27:34Z</time>
      </trkpt>
      <trkpt lat="47.17899" lon="5.58033">
        <ele>263</ele>
        <time>2012-10-02T15:27:39Z</time>
      </trkpt>
      <trkpt lat="47.17867" lon="5.58051">
        <ele>264</ele>
        <time>2012-10-02T15:27:46Z</time>
      </trkpt>
      <trkpt lat="47.17821" lon="5.58058">
        <ele>267</ele>
        <time>2012-10-02T15:27:58Z</time>
      </trkpt>
      <trkpt lat="47.1779" lon="5.58055">
        <ele>270</ele>
        <time>2012-10-02T15:28:08Z</time>
      </trkpt>
      <trkpt lat="47.17746" lon="5.58044">
        <ele>273</ele>
        <time>2012-10-02T15:28:22Z</time>
      </trkpt>
      <trkpt lat="47.17694" lon="5.58008">
        <ele>276</ele>
        <time>2012-10-02T15:28:33Z</time>
      </trkpt>
      <trkpt lat="47.17659" lon="5.57948">
        <ele>276</ele>
        <time>2012-10-02T15:28:42Z</time>
      </trkpt>
      <trkpt lat="47.17603" lon="5.57802">
        <ele>276</ele>
        <time>2012-10-02T15:29:02Z</time>
      </trkpt>
      <trkpt lat="47.17571" lon="5.57722">
        <ele>278</ele>
        <time>2012-10-02T15:29:16Z</time>
      </trkpt>
      <trkpt lat="47.17544" lon="5.57651">
        <ele>282</ele>
        <time>2012-10-02T15:29:31Z</time>
      </trkpt>
      <trkpt lat="47.17516" lon="5.57576">
        <ele>285</ele>
        <time>2012-10-02T15:29:47Z</time>
      </trkpt>
      <trkpt lat="47.17488" lon="5.57496">
        <ele>289</ele>
        <time>2012-10-02T15:30:03Z</time>
      </trkpt>
      <trkpt lat="47.17437" lon="5.57384">
        <ele>285</ele>
        <time>2012-10-02T15:30:23Z</time>
      </trkpt>
      <trkpt lat="47.17376" lon="5.57285">
        <ele>282</ele>
        <time>2012-10-02T15:30:39Z</time>
      </trkpt>
      <trkpt lat="47.17322" lon="5.57239">
        <ele>280</ele>
        <time>2012-10-02T15:30:51Z</time>
      </trkpt>
      <trkpt lat="47.17304" lon="5.5723">
        <ele>280</ele>
        <time>2012-10-02T15:30:55Z</time>
      </trkpt>
      <trkpt lat="47.17291" lon="5.57223">
        <ele>279</ele>
        <time>2012-10-02T15:30:58Z</time>
      </trkpt>
      <trkpt lat="47.17262" lon="5.57209">
        <ele>279</ele>
        <time>2012-10-02T15:31:06Z</time>
      </trkpt>
      <trkpt lat="47.17241" lon="5.57194">
        <ele>278</ele>
        <time>2012-10-02T15:31:10Z</time>
      </trkpt>
      <trkpt lat="47.1722" lon="5.5717">
        <ele>277</ele>
        <time>2012-10-02T15:31:14Z</time>
      </trkpt>
      <trkpt lat="47.17186" lon="5.57032">
        <ele>273</ele>
        <time>2012-10-02T15:31:27Z</time>
      </trkpt>
      <trkpt lat="47.17141" lon="5.56923">
        <ele>272</ele>
        <time>2012-10-02T15:31:40Z</time>
      </trkpt>
      <trkpt lat="47.17071" lon="5.5684">
        <ele>269</ele>
        <time>2012-10-02T15:31:53Z</time>
      </trkpt>
      <trkpt lat="47.17029" lon="5.56808">
        <ele>265</ele>
        <time>2012-10-02T15:31:59Z</time>
      </trkpt>
      <trkpt lat="47.16969" lon="5.56772">
        <ele>263</ele>
        <time>2012-10-02T15:32:07Z</time>
      </trkpt>
      <trkpt lat="47.16961" lon="5.56768">
        <ele>263</ele>
        <time>2012-10-02T15:32:08Z</time>
      </trkpt>
      <trkpt lat="47.16909" lon="5.56731">
        <ele>263</ele>
        <time>2012-10-02T15:32:17Z</time>
      </trkpt>
      <trkpt lat="47.16885" lon="5.56704">
        <ele>264</ele>
        <time>2012-10-02T15:32:23Z</time>
      </trkpt>
      <trkpt lat="47.1686" lon="5.56682">
        <ele>264</ele>
        <time>2012-10-02T15:32:29Z</time>
      </trkpt>
      <trkpt lat="47.16838" lon="5.56655">
        <ele>264</ele>
        <time>2012-10-02T15:32:35Z</time>
      </trkpt>
      <trkpt lat="47.1677" lon="5.56598">
        <ele>262</ele>
        <time>2012-10-02T15:32:49Z</time>
      </trkpt>
      <trkpt lat="47.16678" lon="5.56537">
        <ele>258</ele>
        <time>2012-10-02T15:33:04Z</time>
      </trkpt>
      <trkpt lat="47.16654" lon="5.56519">
        <ele>256</ele>
        <time>2012-10-02T15:33:14Z</time>
      </trkpt>
      <trkpt lat="47.16651" lon="5.56513">
        <ele>256</ele>
        <time>2012-10-02T15:33:22Z</time>
      </trkpt>
      <trkpt lat="47.16638" lon="5.56514">
        <ele>256</ele>
        <time>2012-10-02T15:33:26Z</time>
      </trkpt>
      <trkpt lat="47.16615" lon="5.56516">
        <ele>255</ele>
        <time>2012-10-02T15:33:31Z</time>
      </trkpt>
      <trkpt lat="47.16587" lon="5.56511">
        <ele>254</ele>
        <time>2012-10-02T15:33:37Z</time>
      </trkpt>
      <trkpt lat="47.16517" lon="5.56484">
        <ele>252</ele>
        <time>2012-10-02T15:33:49Z</time>
      </trkpt>
      <trkpt lat="47.16511" lon="5.56482">
        <ele>252</ele>
        <time>2012-10-02T15:33:50Z</time>
      </trkpt>
      <trkpt lat="47.16478" lon="5.56473">
        <ele>251</ele>
        <time>2012-10-02T15:33:56Z</time>
      </trkpt>
      <trkpt lat="47.16458" lon="5.56451">
        <ele>250</ele>
        <time>2012-10-02T15:34:01Z</time>
      </trkpt>
      <trkpt lat="47.16449" lon="5.56441">
        <ele>248</ele>
        <time>2012-10-02T15:34:04Z</time>
      </trkpt>
      <trkpt lat="47.16478" lon="5.56366">
        <ele>247</ele>
        <time>2012-10-02T15:34:14Z</time>
      </trkpt>
      <trkpt lat="47.16484" lon="5.56349">
        <ele>247</ele>
        <time>2012-10-02T15:34:16Z</time>
      </trkpt>
      <trkpt lat="47.16496" lon="5.56309">
        <ele>247</ele>
        <time>2012-10-02T15:34:21Z</time>
      </trkpt>
      <trkpt lat="47.1649" lon="5.56266">
        <ele>248</ele>
        <time>2012-10-02T15:34:28Z</time>
      </trkpt>
      <trkpt lat="47.16461" lon="5.56216">
        <ele>249</ele>
        <time>2012-10-02T15:34:38Z</time>
      </trkpt>
      <trkpt lat="47.16432" lon="5.56179">
        <ele>249</ele>
        <time>2012-10-02T15:34:45Z</time>
      </trkpt>
      <trkpt lat="47.16404" lon="5.56135">
        <ele>248</ele>
        <time>2012-10-02T15:34:52Z</time>
      </trkpt>
      <trkpt lat="47.16319" lon="5.56019">
        <ele>246</ele>
        <time>2012-10-02T15:35:09Z</time>
      </trkpt>
      <trkpt lat="47.16243" lon="5.55908">
        <ele>245</ele>
        <time>2012-10-02T15:35:25Z</time>
      </trkpt>
      <trkpt lat="47.16238" lon="5.55901">
        <ele>245</ele>
        <time>2012-10-02T15:35:26Z</time>
      </trkpt>
      <trkpt lat="47.16167" lon="5.55868">
        <ele>244</ele>
        <time>2012-10-02T15:35:37Z</time>
      </trkpt>
      <trkpt lat="47.16082" lon="5.55868">
        <ele>245</ele>
        <time>2012-10-02T15:35:51Z</time>
      </trkpt>
      <trkpt lat="47.15979" lon="5.55836">
        <ele>245</ele>
        <time>2012-10-02T15:36:07Z</time>
      </trkpt>
      <trkpt lat="47.15918" lon="5.55808">
        <ele>244</ele>
        <time>2012-10-02T15:36:18Z</time>
      </trkpt>
      <trkpt lat="47.15842" lon="5.55757">
        <ele>245</ele>
        <time>2012-10-02T15:36:34Z</time>
      </trkpt>
      <trkpt lat="47.15765" lon="5.55677">
        <ele>246</ele>
        <time>2012-10-02T15:36:53Z</time>
      </trkpt>
      <trkpt lat="47.15709" lon="5.55624">
        <ele>250</ele>
        <time>2012-10-02T15:37:10Z</time>
      </trkpt>
      <trkpt lat="47.15678" lon="5.55601">
        <ele>252</ele>
        <time>2012-10-02T15:37:20Z</time>
      </trkpt>
      <trkpt lat="47.15632" lon="5.55575">
        <ele>253</ele>
        <time>2012-10-02T15:37:33Z</time>
      </trkpt>
      <trkpt lat="47.15562" lon="5.55514">
        <ele>254</ele>
        <time>2012-10-02T15:37:51Z</time>
      </trkpt>
      <trkpt lat="47.15483" lon="5.5543">
        <ele>253</ele>
        <time>2012-10-02T15:38:09Z</time>
      </trkpt>
      <trkpt lat="47.15394" lon="5.55338">
        <ele>256</ele>
        <time>2012-10-02T15:38:31Z</time>
      </trkpt>
      <trkpt lat="47.15304" lon="5.55269">
        <ele>255</ele>
        <time>2012-10-02T15:38:52Z</time>
      </trkpt>
      <trkpt lat="47.15233" lon="5.55215">
        <ele>253</ele>
        <time>2012-10-02T15:39:06Z</time>
      </trkpt>
      <trkpt lat="47.15148" lon="5.55146">
        <ele>252</ele>
        <time>2012-10-02T15:39:23Z</time>
      </trkpt>
      <trkpt lat="47.1504" lon="5.55076">
        <ele>249</ele>
        <time>2012-10-02T15:39:43Z</time>
      </trkpt>
      <trkpt lat="47.14981" lon="5.5504">
        <ele>247</ele>
        <time>2012-10-02T15:39:56Z</time>
      </trkpt>
      <trkpt lat="47.14958" lon="5.55039">
        <ele>246</ele>
        <time>2012-10-02T15:40:06Z</time>
      </trkpt>
      <trkpt lat="47.14917" lon="5.55105">
        <ele>245</ele>
        <time>2012-10-02T15:40:21Z</time>
      </trkpt>
      <trkpt lat="47.14915" lon="5.55111">
        <ele>245</ele>
        <time>2012-10-02T15:40:22Z</time>
      </trkpt>
      <trkpt lat="47.1489" lon="5.55154">
        <ele>245</ele>
        <time>2012-10-02T15:40:31Z</time>
      </trkpt>
      <trkpt lat="47.14842" lon="5.5517">
        <ele>243</ele>
        <time>2012-10-02T15:40:43Z</time>
      </trkpt>
      <trkpt lat="47.1483" lon="5.55184">
        <ele>243</ele>
        <time>2012-10-02T15:40:46Z</time>
      </trkpt>
      <trkpt lat="47.1479" lon="5.5524">
        <ele>240</ele>
        <time>2012-10-02T15:40:55Z</time>
      </trkpt>
      <trkpt lat="47.1473" lon="5.55245">
        <ele>238</ele>
        <time>2012-10-02T15:41:03Z</time>
      </trkpt>
      <trkpt lat="47.14695" lon="5.55238">
        <ele>236</ele>
        <time>2012-10-02T15:41:11Z</time>
      </trkpt>
      <trkpt lat="47.1467" lon="5.55227">
        <ele>236</ele>
        <time>2012-10-02T15:41:25Z</time>
      </trkpt>
      <trkpt lat="47.14628" lon="5.55192">
        <ele>236</ele>
        <time>2012-10-02T15:41:36Z</time>
      </trkpt>
      <trkpt lat="47.14568" lon="5.55116">
        <ele>238</ele>
        <time>2012-10-02T15:41:52Z</time>
      </trkpt>
      <trkpt lat="47.14529" lon="5.5506">
        <ele>240</ele>
        <time>2012-10-02T15:42:05Z</time>
      </trkpt>
      <trkpt lat="47.14499" lon="5.55004">
        <ele>241</ele>
        <time>2012-10-02T15:42:19Z</time>
      </trkpt>
      <trkpt lat="47.145" lon="5.54996">
        <ele>241</ele>
        <time>2012-10-02T15:42:20Z</time>
      </trkpt>
      <trkpt lat="47.14533" lon="5.54888">
        <ele>240</ele>
        <time>2012-10-02T15:42:33Z</time>
      </trkpt>
      <trkpt lat="47.14544" lon="5.54856">
        <ele>241</ele>
        <time>2012-10-02T15:42:37Z</time>
      </trkpt>
      <trkpt lat="47.14545" lon="5.54831">
        <ele>241</ele>
        <time>2012-10-02T15:42:40Z</time>
      </trkpt>
      <trkpt lat="47.14545" lon="5.54813">
        <ele>241</ele>
        <time>2012-10-02T15:42:42Z</time>
      </trkpt>
      <trkpt lat="47.14523" lon="5.54721">
        <ele>245</ele>
        <time>2012-10-02T15:42:56Z</time>
      </trkpt>
      <trkpt lat="47.14497" lon="5.54648">
        <ele>247</ele>
        <time>2012-10-02T15:43:12Z</time>
      </trkpt>
      <trkpt lat="47.14476" lon="5.5458">
        <ele>251</ele>
        <time>2012-10-02T15:43:25Z</time>
      </trkpt>
      <trkpt lat="47.14459" lon="5.54498">
        <ele>252</ele>
        <time>2012-10-02T15:43:40Z</time>
      </trkpt>
      <trkpt lat="47.14454" lon="5.54485">
        <ele>252</ele>
        <time>2012-10-02T15:43:43Z</time>
      </trkpt>
      <trkpt lat="47.14429" lon="5.54362">
        <ele>250</ele>
        <time>2012-10-02T15:43:58Z</time>
      </trkpt>
      <trkpt lat="47.14403" lon="5.54215">
        <ele>250</ele>
        <time>2012-10-02T15:44:17Z</time>
      </trkpt>
      <trkpt lat="47.144" lon="5.54202">
        <ele>250</ele>
        <time>2012-10-02T15:44:19Z</time>
      </trkpt>
      <trkpt lat="47.14371" lon="5.54067">
        <ele>253</ele>
        <time>2012-10-02T15:44:40Z</time>
      </trkpt>
      <trkpt lat="47.14361" lon="5.53962">
        <ele>256</ele>
        <time>2012-10-02T15:44:56Z</time>
      </trkpt>
      <trkpt lat="47.14355" lon="5.53869">
        <ele>258</ele>
        <time>2012-10-02T15:45:10Z</time>
      </trkpt>
      <trkpt lat="47.14355" lon="5.53755">
        <ele>261</ele>
        <time>2012-10-02T15:45:27Z</time>
      </trkpt>
      <trkpt lat="47.14361" lon="5.53648">
        <ele>262</ele>
        <time>2012-10-02T15:45:42Z</time>
      </trkpt>
      <trkpt lat="47.14382" lon="5.53521">
        <ele>264</ele>
        <time>2012-10-02T15:46:00Z</time>
      </trkpt>
      <trkpt lat="47.14409" lon="5.53402">
        <ele>266</ele>
        <time>2012-10-02T15:46:18Z</time>
      </trkpt>
      <trkpt lat="47.1442" lon="5.53346">
        <ele>268</ele>
        <time>2012-10-02T15:46:27Z</time>
      </trkpt>
      <trkpt lat="47.14434" lon="5.53233">
        <ele>270</ele>
        <time>2012-10-02T15:46:43Z</time>
      </trkpt>
      <trkpt lat="47.14437" lon="5.53115">
        <ele>270</ele>
        <time>2012-10-02T15:46:59Z</time>
      </trkpt>
      <trkpt lat="47.14473" lon="5.53006">
        <ele>270</ele>
        <time>2012-10-02T15:47:15Z</time>
      </trkpt>
      <trkpt lat="47.14499" lon="5.52901">
        <ele>270</ele>
        <time>2012-10-02T15:47:29Z</time>
      </trkpt>
      <trkpt lat="47.14509" lon="5.52755">
        <ele>272</ele>
        <time>2012-10-02T15:47:48Z</time>
      </trkpt>
      <trkpt lat="47.14514" lon="5.52619">
        <ele>272</ele>
        <time>2012-10-02T15:48:03Z</time>
      </trkpt>
      <trkpt lat="47.14521" lon="5.52491">
        <ele>272</ele>
        <time>2012-10-02T15:48:18Z</time>
      </trkpt>
      <trkpt lat="47.14533" lon="5.52353">
        <ele>273</ele>
        <time>2012-10-02T15:48:34Z</time>
      </trkpt>
      <trkpt lat="47.14543" lon="5.52253">
        <ele>275</ele>
        <time>2012-10-02T15:48:48Z</time>
      </trkpt>
      <trkpt lat="47.14557" lon="5.52147">
        <ele>276</ele>
        <time>2012-10-02T15:49:03Z</time>
      </trkpt>
      <trkpt lat="47.14557" lon="5.52007">
        <ele>275</ele>
        <time>2012-10-02T15:49:20Z</time>
      </trkpt>
      <trkpt lat="47.14556" lon="5.51971">
        <ele>275</ele>
        <time>2012-10-02T15:49:24Z</time>
      </trkpt>
      <trkpt lat="47.14549" lon="5.5182">
        <ele>277</ele>
        <time>2012-10-02T15:49:43Z</time>
      </trkpt>
      <trkpt lat="47.14548" lon="5.51788">
        <ele>277</ele>
        <time>2012-10-02T15:49:47Z</time>
      </trkpt>
      <trkpt lat="47.14553" lon="5.51655">
        <ele>277</ele>
        <time>2012-10-02T15:50:05Z</time>
      </trkpt>
      <trkpt lat="47.14562" lon="5.5162">
        <ele>277</ele>
        <time>2012-10-02T15:50:10Z</time>
      </trkpt>
      <trkpt lat="47.14599" lon="5.51523">
        <ele>281</ele>
        <time>2012-10-02T15:50:25Z</time>
      </trkpt>
      <trkpt lat="47.14632" lon="5.51449">
        <ele>283</ele>
        <time>2012-10-02T15:50:39Z</time>
      </trkpt>
      <trkpt lat="47.14637" lon="5.51436">
        <ele>283</ele>
        <time>2012-10-02T15:50:43Z</time>
      </trkpt>
      <trkpt lat="47.14629" lon="5.51423">
        <ele>284</ele>
        <time>2012-10-02T15:50:50Z</time>
      </trkpt>
      <trkpt lat="47.14614" lon="5.51416">
        <ele>284</ele>
        <time>2012-10-02T15:50:54Z</time>
      </trkpt>
      <trkpt lat="47.1458" lon="5.51422">
        <ele>284</ele>
        <time>2012-10-02T15:51:02Z</time>
      </trkpt>
      <trkpt lat="47.14564" lon="5.51431">
        <ele>285</ele>
        <time>2012-10-02T15:51:06Z</time>
      </trkpt>
      <trkpt lat="47.14532" lon="5.51452">
        <ele>284</ele>
        <time>2012-10-02T15:51:13Z</time>
      </trkpt>
      <trkpt lat="47.1449" lon="5.51443">
        <ele>285</ele>
        <time>2012-10-02T15:51:20Z</time>
      </trkpt>
      <trkpt lat="47.14418" lon="5.51429">
        <ele>287</ele>
        <time>2012-10-02T15:51:34Z</time>
      </trkpt>
      <trkpt lat="47.14406" lon="5.51422">
        <ele>288</ele>
        <time>2012-10-02T15:51:37Z</time>
      </trkpt>
      <trkpt lat="47.14348" lon="5.51374">
        <ele>289</ele>
        <time>2012-10-02T15:51:49Z</time>
      </trkpt>
      <trkpt lat="47.14299" lon="5.51351">
        <ele>291</ele>
        <time>2012-10-02T15:52:00Z</time>
      </trkpt>
      <trkpt lat="47.14276" lon="5.51333">
        <ele>292</ele>
        <time>2012-10-02T15:52:06Z</time>
      </trkpt>
      <trkpt lat="47.14255" lon="5.51317">
        <ele>292</ele>
        <time>2012-10-02T15:52:11Z</time>
      </trkpt>
      <trkpt lat="47.1422" lon="5.51273">
        <ele>293</ele>
        <time>2012-10-02T15:52:21Z</time>
      </trkpt>
      <trkpt lat="47.1415" lon="5.51175">
        <ele>292</ele>
        <time>2012-10-02T15:52:36Z</time>
      </trkpt>
      <trkpt lat="47.14066" lon="5.51048">
        <ele>291</ele>
        <time>2012-10-02T15:52:55Z</time>
      </trkpt>
      <trkpt lat="47.14041" lon="5.50997">
        <ele>289</ele>
        <time>2012-10-02T15:53:01Z</time>
      </trkpt>
      <trkpt lat="47.1402" lon="5.50952">
        <ele>287</ele>
        <time>2012-10-02T15:53:06Z</time>
      </trkpt>
      <trkpt lat="47.14009" lon="5.50933">
        <ele>286</ele>
        <time>2012-10-02T15:53:08Z</time>
      </trkpt>
      <trkpt lat="47.13994" lon="5.50898">
        <ele>284</ele>
        <time>2012-10-02T15:53:11Z</time>
      </trkpt>
      <trkpt lat="47.13981" lon="5.50856">
        <ele>282</ele>
        <time>2012-10-02T15:53:14Z</time>
      </trkpt>
      <trkpt lat="47.13982" lon="5.50772">
        <ele>280</ele>
        <time>2012-10-02T15:53:20Z</time>
      </trkpt>
      <trkpt lat="47.13985" lon="5.50722">
        <ele>279</ele>
        <time>2012-10-02T15:53:24Z</time>
      </trkpt>
      <trkpt lat="47.13993" lon="5.50647">
        <ele>277</ele>
        <time>2012-10-02T15:53:30Z</time>
      </trkpt>
      <trkpt lat="47.13999" lon="5.50624">
        <ele>277</ele>
        <time>2012-10-02T15:53:32Z</time>
      </trkpt>
      <trkpt lat="47.14057" lon="5.50517">
        <ele>275</ele>
        <time>2012-10-02T15:53:43Z</time>
      </trkpt>
      <trkpt lat="47.14102" lon="5.50402">
        <ele>275</ele>
        <time>2012-10-02T15:53:55Z</time>
      </trkpt>
      <trkpt lat="47.14153" lon="5.50223">
        <ele>273</ele>
        <time>2012-10-02T15:54:12Z</time>
      </trkpt>
      <trkpt lat="47.14162" lon="5.50167">
        <ele>271</ele>
        <time>2012-10-02T15:54:17Z</time>
      </trkpt>
      <trkpt lat="47.14163" lon="5.50155">
        <ele>271</ele>
        <time>2012-10-02T15:54:18Z</time>
      </trkpt>
      <trkpt lat="47.14145" lon="5.50038">
        <ele>267</ele>
        <time>2012-10-02T15:54:27Z</time>
      </trkpt>
      <trkpt lat="47.14138" lon="5.49997">
        <ele>264</ele>
        <time>2012-10-02T15:54:31Z</time>
      </trkpt>
      <trkpt lat="47.14136" lon="5.49977">
        <ele>263</ele>
        <time>2012-10-02T15:54:34Z</time>
      </trkpt>
      <trkpt lat="47.14135" lon="5.49939">
        <ele>262</ele>
        <time>2012-10-02T15:54:45Z</time>
      </trkpt>
      <trkpt lat="47.14135" lon="5.49924">
        <ele>261</ele>
        <time>2012-10-02T15:54:56Z</time>
      </trkpt>
      <trkpt lat="47.14136" lon="5.49926">
        <ele>260</ele>
        <time>2012-10-02T15:56:25Z</time>
      </trkpt>
      <trkpt lat="47.14122" lon="5.49877">
        <ele>259</ele>
        <time>2012-10-02T15:56:35Z</time>
      </trkpt>
      <trkpt lat="47.14121" lon="5.49868">
        <ele>259</ele>
        <time>2012-10-02T15:56:36Z</time>
      </trkpt>
      <trkpt lat="47.1412" lon="5.49818">
        <ele>256</ele>
        <time>2012-10-02T15:56:41Z</time>
      </trkpt>
      <trkpt lat="47.14122" lon="5.49765">
        <ele>257</ele>
        <time>2012-10-02T15:56:46Z</time>
      </trkpt>
      <trkpt lat="47.14112" lon="5.49716">
        <ele>257</ele>
        <time>2012-10-02T15:56:51Z</time>
      </trkpt>
      <trkpt lat="47.14104" lon="5.49664">
        <ele>256</ele>
        <time>2012-10-02T15:56:56Z</time>
      </trkpt>
      <trkpt lat="47.14118" lon="5.49545">
        <ele>256</ele>
        <time>2012-10-02T15:57:09Z</time>
      </trkpt>
      <trkpt lat="47.14114" lon="5.49419">
        <ele>253</ele>
        <time>2012-10-02T15:57:20Z</time>
      </trkpt>
      <trkpt lat="47.14073" lon="5.4928">
        <ele>251</ele>
        <time>2012-10-02T15:57:33Z</time>
      </trkpt>
      <trkpt lat="47.14064" lon="5.49247">
        <ele>249</ele>
        <time>2012-10-02T15:57:36Z</time>
      </trkpt>
      <trkpt lat="47.14054" lon="5.49218">
        <ele>249</ele>
        <time>2012-10-02T15:57:39Z</time>
      </trkpt>
      <trkpt lat="47.14043" lon="5.4917">
        <ele>248</ele>
        <time>2012-10-02T15:57:45Z</time>
      </trkpt>
      <trkpt lat="47.14036" lon="5.49146">
        <ele>248</ele>
        <time>2012-10-02T15:57:48Z</time>
      </trkpt>
      <trkpt lat="47.14025" lon="5.49101">
        <ele>248</ele>
        <time>2012-10-02T15:57:53Z</time>
      </trkpt>
      <trkpt lat="47.14029" lon="5.49066">
        <ele>249</ele>
        <time>2012-10-02T15:57:58Z</time>
      </trkpt>
      <trkpt lat="47.14051" lon="5.49">
        <ele>249</ele>
        <time>2012-10-02T15:58:07Z</time>
      </trkpt>
      <trkpt lat="47.14056" lon="5.48977">
        <ele>249</ele>
        <time>2012-10-02T15:58:10Z</time>
      </trkpt>
      <trkpt lat="47.14065" lon="5.48946">
        <ele>250</ele>
        <time>2012-10-02T15:58:15Z</time>
      </trkpt>
      <trkpt lat="47.1407" lon="5.48921">
        <ele>252</ele>
        <time>2012-10-02T15:58:21Z</time>
      </trkpt>
      <trkpt lat="47.14085" lon="5.4886">
        <ele>254</ele>
        <time>2012-10-02T15:58:31Z</time>
      </trkpt>
      <trkpt lat="47.1409" lon="5.48809">
        <ele>258</ele>
        <time>2012-10-02T15:58:40Z</time>
      </trkpt>
      <trkpt lat="47.14092" lon="5.48736">
        <ele>261</ele>
        <time>2012-10-02T15:58:52Z</time>
      </trkpt>
      <trkpt lat="47.14095" lon="5.48652">
        <ele>262</ele>
        <time>2012-10-02T15:59:04Z</time>
      </trkpt>
      <trkpt lat="47.14102" lon="5.48571">
        <ele>260</ele>
        <time>2012-10-02T15:59:17Z</time>
      </trkpt>
      <trkpt lat="47.141" lon="5.48556">
        <ele>260</ele>
        <time>2012-10-02T15:59:29Z</time>
      </trkpt>
      <trkpt lat="47.14094" lon="5.48559">
        <ele>258</ele>
        <time>2012-10-02T16:07:16Z</time>
      </trkpt>
      <trkpt lat="47.14098" lon="5.48549">
        <ele>257</ele>
        <time>2012-10-02T16:07:26Z</time>
      </trkpt>
      <trkpt lat="47.14097" lon="5.48548">
        <ele>257</ele>
        <time>2012-10-02T16:07:27Z</time>
      </trkpt>
      <trkpt lat="47.14087" lon="5.48543">
        <ele>257</ele>
        <time>2012-10-02T16:07:33Z</time>
      </trkpt>
      <trkpt lat="47.14077" lon="5.48525">
        <ele>256</ele>
        <time>2012-10-02T16:07:39Z</time>
      </trkpt>
      <trkpt lat="47.14058" lon="5.48487">
        <ele>255</ele>
        <time>2012-10-02T16:07:50Z</time>
      </trkpt>
      <trkpt lat="47.14029" lon="5.48461">
        <ele>255</ele>
        <time>2012-10-02T16:07:57Z</time>
      </trkpt>
      <trkpt lat="47.1402" lon="5.48422">
        <ele>254</ele>
        <time>2012-10-02T16:08:01Z</time>
      </trkpt>
      <trkpt lat="47.14007" lon="5.48381">
        <ele>253</ele>
        <time>2012-10-02T16:08:06Z</time>
      </trkpt>
      <trkpt lat="47.1403" lon="5.48316">
        <ele>254</ele>
        <time>2012-10-02T16:08:11Z</time>
      </trkpt>
      <trkpt lat="47.14158" lon="5.48071">
        <ele>256</ele>
        <time>2012-10-02T16:08:34Z</time>
      </trkpt>
      <trkpt lat="47.14237" lon="5.47924">
        <ele>258</ele>
        <time>2012-10-02T16:08:50Z</time>
      </trkpt>
      <trkpt lat="47.14275" lon="5.47807">
        <ele>258</ele>
        <time>2012-10-02T16:09:04Z</time>
      </trkpt>
      <trkpt lat="47.1428" lon="5.47773">
        <ele>258</ele>
        <time>2012-10-02T16:09:08Z</time>
      </trkpt>
      <trkpt lat="47.14276" lon="5.47637">
        <ele>259</ele>
        <time>2012-10-02T16:09:25Z</time>
      </trkpt>
      <trkpt lat="47.14271" lon="5.475">
        <ele>255</ele>
        <time>2012-10-02T16:09:41Z</time>
      </trkpt>
      <trkpt lat="47.14273" lon="5.4748">
        <ele>255</ele>
        <time>2012-10-02T16:09:43Z</time>
      </trkpt>
      <trkpt lat="47.14311" lon="5.47355">
        <ele>252</ele>
        <time>2012-10-02T16:09:55Z</time>
      </trkpt>
      <trkpt lat="47.14354" lon="5.47226">
        <ele>253</ele>
        <time>2012-10-02T16:10:11Z</time>
      </trkpt>
      <trkpt lat="47.14402" lon="5.47129">
        <ele>253</ele>
        <time>2012-10-02T16:10:25Z</time>
      </trkpt>
      <trkpt lat="47.14452" lon="5.47025">
        <ele>253</ele>
        <time>2012-10-02T16:10:40Z</time>
      </trkpt>
      <trkpt lat="47.14467" lon="5.46988">
        <ele>254</ele>
        <time>2012-10-02T16:10:48Z</time>
      </trkpt>
      <trkpt lat="47.14463" lon="5.46982">
        <ele>255</ele>
        <time>2012-10-02T16:10:53Z</time>
      </trkpt>
      <trkpt lat="47.14458" lon="5.46976">
        <ele>254</ele>
        <time>2012-10-02T16:10:57Z</time>
      </trkpt>
      <trkpt lat="47.14455" lon="5.46958">
        <ele>254</ele>
        <time>2012-10-02T16:11:02Z</time>
      </trkpt>
      <trkpt lat="47.14458" lon="5.46932">
        <ele>255</ele>
        <time>2012-10-02T16:11:10Z</time>
      </trkpt>
      <trkpt lat="47.14457" lon="5.46928">
        <ele>255</ele>
        <time>2012-10-02T16:11:12Z</time>
      </trkpt>
      <trkpt lat="47.14475" lon="5.46841">
        <ele>254</ele>
        <time>2012-10-02T16:11:24Z</time>
      </trkpt>
      <trkpt lat="47.14493" lon="5.46793">
        <ele>251</ele>
        <time>2012-10-02T16:11:31Z</time>
      </trkpt>
      <trkpt lat="47.14519" lon="5.4678">
        <ele>248</ele>
        <time>2012-10-02T16:11:38Z</time>
      </trkpt>
      <trkpt lat="47.14534" lon="5.46782">
        <ele>244</ele>
        <time>2012-10-02T16:11:49Z</time>
      </trkpt>
      <trkpt lat="47.14545" lon="5.46756">
        <ele>243</ele>
        <time>2012-10-02T16:11:55Z</time>
      </trkpt>
      <trkpt lat="47.14531" lon="5.46701">
        <ele>241</ele>
        <time>2012-10-02T16:12:03Z</time>
      </trkpt>
      <trkpt lat="47.14537" lon="5.46654">
        <ele>241</ele>
        <time>2012-10-02T16:12:08Z</time>
      </trkpt>
      <trkpt lat="47.14527" lon="5.46634">
        <ele>241</ele>
        <time>2012-10-02T16:12:11Z</time>
      </trkpt>
      <trkpt lat="47.14512" lon="5.46565">
        <ele>238</ele>
        <time>2012-10-02T16:12:17Z</time>
      </trkpt>
      <trkpt lat="47.14507" lon="5.46545">
        <ele>237</ele>
        <time>2012-10-02T16:12:19Z</time>
      </trkpt>
      <trkpt lat="47.14494" lon="5.46485">
        <ele>235</ele>
        <time>2012-10-02T16:12:24Z</time>
      </trkpt>
      <trkpt lat="47.14477" lon="5.46444">
        <ele>232</ele>
        <time>2012-10-02T16:12:28Z</time>
      </trkpt>
      <trkpt lat="47.14476" lon="5.46342">
        <ele>228</ele>
        <time>2012-10-02T16:12:35Z</time>
      </trkpt>
      <trkpt lat="47.14479" lon="5.4625">
        <ele>226</ele>
        <time>2012-10-02T16:12:41Z</time>
      </trkpt>
      <trkpt lat="47.1448" lon="5.46232">
        <ele>225</ele>
        <time>2012-10-02T16:12:43Z</time>
      </trkpt>
      <trkpt lat="47.14485" lon="5.46155">
        <ele>225</ele>
        <time>2012-10-02T16:12:51Z</time>
      </trkpt>
      <trkpt lat="47.14483" lon="5.46143">
        <ele>225</ele>
        <time>2012-10-02T16:12:54Z</time>
      </trkpt>
      <trkpt lat="47.14472" lon="5.46065">
        <ele>224</ele>
        <time>2012-10-02T16:13:05Z</time>
      </trkpt>
      <trkpt lat="47.14462" lon="5.45997">
        <ele>224</ele>
        <time>2012-10-02T16:13:16Z</time>
      </trkpt>
      <trkpt lat="47.14464" lon="5.45936">
        <ele>222</ele>
        <time>2012-10-02T16:13:21Z</time>
      </trkpt>
      <trkpt lat="47.14479" lon="5.45924">
        <ele>221</ele>
        <time>2012-10-02T16:13:29Z</time>
      </trkpt>
      <trkpt lat="47.14468" lon="5.45898">
        <ele>221</ele>
        <time>2012-10-02T16:13:34Z</time>
      </trkpt>
      <trkpt lat="47.14441" lon="5.45877">
        <ele>220</ele>
        <time>2012-10-02T16:13:38Z</time>
      </trkpt>
      <trkpt lat="47.14418" lon="5.45856">
        <ele>220</ele>
        <time>2012-10-02T16:13:42Z</time>
      </trkpt>
      <trkpt lat="47.14393" lon="5.45832">
        <ele>221</ele>
        <time>2012-10-02T16:13:48Z</time>
      </trkpt>
      <trkpt lat="47.14365" lon="5.45838">
        <ele>221</ele>
        <time>2012-10-02T16:13:54Z</time>
      </trkpt>
      <trkpt lat="47.14289" lon="5.45834">
        <ele>224</ele>
        <time>2012-10-02T16:14:04Z</time>
      </trkpt>
      <trkpt lat="47.14248" lon="5.45837">
        <ele>226</ele>
        <time>2012-10-02T16:14:14Z</time>
      </trkpt>
      <trkpt lat="47.1421" lon="5.45815">
        <ele>229</ele>
        <time>2012-10-02T16:14:24Z</time>
      </trkpt>
      <trkpt lat="47.1416" lon="5.45728">
        <ele>232</ele>
        <time>2012-10-02T16:14:40Z</time>
      </trkpt>
      <trkpt lat="47.14109" lon="5.45651">
        <ele>232</ele>
        <time>2012-10-02T16:14:53Z</time>
      </trkpt>
      <trkpt lat="47.14065" lon="5.45623">
        <ele>230</ele>
        <time>2012-10-02T16:15:02Z</time>
      </trkpt>
      <trkpt lat="47.13982" lon="5.45615">
        <ele>230</ele>
        <time>2012-10-02T16:15:17Z</time>
      </trkpt>
      <trkpt lat="47.13943" lon="5.4562">
        <ele>231</ele>
        <time>2012-10-02T16:15:24Z</time>
      </trkpt>
      <trkpt lat="47.13923" lon="5.45625">
        <ele>231</ele>
        <time>2012-10-02T16:15:29Z</time>
      </trkpt>
      <trkpt lat="47.13919" lon="5.4563">
        <ele>232</ele>
        <time>2012-10-02T16:15:37Z</time>
      </trkpt>
      <trkpt lat="47.13875" lon="5.45637">
        <ele>235</ele>
        <time>2012-10-02T16:15:49Z</time>
      </trkpt>
      <trkpt lat="47.13845" lon="5.45619">
        <ele>235</ele>
        <time>2012-10-02T16:15:56Z</time>
      </trkpt>
      <trkpt lat="47.13826" lon="5.45613">
        <ele>236</ele>
        <time>2012-10-02T16:15:59Z</time>
      </trkpt>
      <trkpt lat="47.13726" lon="5.45572">
        <ele>237</ele>
        <time>2012-10-02T16:16:16Z</time>
      </trkpt>
      <trkpt lat="47.1366" lon="5.45536">
        <ele>238</ele>
        <time>2012-10-02T16:16:30Z</time>
      </trkpt>
      <trkpt lat="47.13657" lon="5.45534">
        <ele>238</ele>
        <time>2012-10-02T16:16:31Z</time>
      </trkpt>
      <trkpt lat="47.13637" lon="5.45527">
        <ele>238</ele>
        <time>2012-10-02T16:16:35Z</time>
      </trkpt>
      <trkpt lat="47.13618" lon="5.4551">
        <ele>238</ele>
        <time>2012-10-02T16:16:43Z</time>
      </trkpt>
      <trkpt lat="47.13583" lon="5.45492">
        <ele>238</ele>
        <time>2012-10-02T16:16:51Z</time>
      </trkpt>
      <trkpt lat="47.13567" lon="5.45483">
        <ele>239</ele>
        <time>2012-10-02T16:16:59Z</time>
      </trkpt>
      <trkpt lat="47.13513" lon="5.45493">
        <ele>239</ele>
        <time>2012-10-02T16:17:08Z</time>
      </trkpt>
      <trkpt lat="47.13485" lon="5.45497">
        <ele>239</ele>
        <time>2012-10-02T16:17:13Z</time>
      </trkpt>
      <trkpt lat="47.13399" lon="5.4553">
        <ele>239</ele>
        <time>2012-10-02T16:17:27Z</time>
      </trkpt>
      <trkpt lat="47.13325" lon="5.45566">
        <ele>238</ele>
        <time>2012-10-02T16:17:39Z</time>
      </trkpt>
      <trkpt lat="47.13266" lon="5.456">
        <ele>237</ele>
        <time>2012-10-02T16:17:48Z</time>
      </trkpt>
      <trkpt lat="47.13243" lon="5.45613">
        <ele>236</ele>
        <time>2012-10-02T16:17:51Z</time>
      </trkpt>
      <trkpt lat="47.13197" lon="5.45639">
        <ele>236</ele>
        <time>2012-10-02T16:18:00Z</time>
      </trkpt>
      <trkpt lat="47.13117" lon="5.45674">
        <ele>237</ele>
        <time>2012-10-02T16:18:12Z</time>
      </trkpt>
      <trkpt lat="47.13085" lon="5.45687">
        <ele>237</ele>
        <time>2012-10-02T16:18:17Z</time>
      </trkpt>
      <trkpt lat="47.13062" lon="5.4569">
        <ele>238</ele>
        <time>2012-10-02T16:18:21Z</time>
      </trkpt>
      <trkpt lat="47.13003" lon="5.45681">
        <ele>238</ele>
        <time>2012-10-02T16:18:31Z</time>
      </trkpt>
      <trkpt lat="47.1298" lon="5.45681">
        <ele>239</ele>
        <time>2012-10-02T16:18:36Z</time>
      </trkpt>
      <trkpt lat="47.1292" lon="5.45699">
        <ele>240</ele>
        <time>2012-10-02T16:18:49Z</time>
      </trkpt>
      <trkpt lat="47.12867" lon="5.45714">
        <ele>243</ele>
        <time>2012-10-02T16:19:01Z</time>
      </trkpt>
      <trkpt lat="47.12863" lon="5.45715">
        <ele>243</ele>
        <time>2012-10-02T16:19:02Z</time>
      </trkpt>
      <trkpt lat="47.12816" lon="5.4573">
        <ele>245</ele>
        <time>2012-10-02T16:19:15Z</time>
      </trkpt>
      <trkpt lat="47.12771" lon="5.45738">
        <ele>246</ele>
        <time>2012-10-02T16:19:27Z</time>
      </trkpt>
      <trkpt lat="47.12768" lon="5.45737">
        <ele>246</ele>
        <time>2012-10-02T16:19:30Z</time>
      </trkpt>
      <trkpt lat="47.12749" lon="5.45728">
        <ele>247</ele>
        <time>2012-10-02T16:19:37Z</time>
      </trkpt>
      <trkpt lat="47.1274" lon="5.45713">
        <ele>246</ele>
        <time>2012-10-02T16:19:44Z</time>
      </trkpt>
      <trkpt lat="47.12709" lon="5.45681">
        <ele>245</ele>
        <time>2012-10-02T16:19:59Z</time>
      </trkpt>
      <trkpt lat="47.12701" lon="5.4568">
        <ele>245</ele>
        <time>2012-10-02T16:20:12Z</time>
      </trkpt>
      <trkpt lat="47.12661" lon="5.45673">
        <ele>244</ele>
        <time>2012-10-02T16:20:23Z</time>
      </trkpt>
      <trkpt lat="47.12652" lon="5.45671">
        <ele>243</ele>
        <time>2012-10-02T16:20:27Z</time>
      </trkpt>
      <trkpt lat="47.1264" lon="5.45662">
        <ele>242</ele>
        <time>2012-10-02T16:20:31Z</time>
      </trkpt>
      <trkpt lat="47.1262" lon="5.45645">
        <ele>240</ele>
        <time>2012-10-02T16:20:37Z</time>
      </trkpt>
      <trkpt lat="47.12602" lon="5.45611">
        <ele>236</ele>
        <time>2012-10-02T16:20:46Z</time>
      </trkpt>
      <trkpt lat="47.12592" lon="5.45592">
        <ele>234</ele>
        <time>2012-10-02T16:20:50Z</time>
      </trkpt>
      <trkpt lat="47.1261" lon="5.45535">
        <ele>234</ele>
        <time>2012-10-02T16:20:56Z</time>
      </trkpt>
      <trkpt lat="47.1262" lon="5.45497">
        <ele>234</ele>
        <time>2012-10-02T16:20:59Z</time>
      </trkpt>
      <trkpt lat="47.12641" lon="5.45373">
        <ele>233</ele>
        <time>2012-10-02T16:21:09Z</time>
      </trkpt>
      <trkpt lat="47.12663" lon="5.45283">
        <ele>232</ele>
        <time>2012-10-02T16:21:15Z</time>
      </trkpt>
      <trkpt lat="47.12679" lon="5.45205">
        <ele>232</ele>
        <time>2012-10-02T16:21:22Z</time>
      </trkpt>
      <trkpt lat="47.1267" lon="5.45127">
        <ele>235</ele>
        <time>2012-10-02T16:21:33Z</time>
      </trkpt>
      <trkpt lat="47.12677" lon="5.45029">
        <ele>237</ele>
        <time>2012-10-02T16:21:48Z</time>
      </trkpt>
      <trkpt lat="47.12623" lon="5.44972">
        <ele>239</ele>
        <time>2012-10-02T16:21:59Z</time>
      </trkpt>
      <trkpt lat="47.12618" lon="5.44963">
        <ele>240</ele>
        <time>2012-10-02T16:22:02Z</time>
      </trkpt>
      <trkpt lat="47.12619" lon="5.44888">
        <ele>239</ele>
        <time>2012-10-02T16:22:14Z</time>
      </trkpt>
      <trkpt lat="47.12644" lon="5.44771">
        <ele>238</ele>
        <time>2012-10-02T16:22:27Z</time>
      </trkpt>
      <trkpt lat="47.1265" lon="5.44728">
        <ele>237</ele>
        <time>2012-10-02T16:22:31Z</time>
      </trkpt>
      <trkpt lat="47.12661" lon="5.44688">
        <ele>237</ele>
        <time>2012-10-02T16:22:35Z</time>
      </trkpt>
      <trkpt lat="47.12674" lon="5.44634">
        <ele>236</ele>
        <time>2012-10-02T16:22:40Z</time>
      </trkpt>
      <trkpt lat="47.12709" lon="5.444">
        <ele>234</ele>
        <time>2012-10-02T16:22:59Z</time>
      </trkpt>
      <trkpt lat="47.12751" lon="5.44221">
        <ele>232</ele>
        <time>2012-10-02T16:23:16Z</time>
      </trkpt>
      <trkpt lat="47.1279" lon="5.44107">
        <ele>232</ele>
        <time>2012-10-02T16:23:29Z</time>
      </trkpt>
      <trkpt lat="47.12814" lon="5.43969">
        <ele>232</ele>
        <time>2012-10-02T16:23:44Z</time>
      </trkpt>
      <trkpt lat="47.12875" lon="5.43854">
        <ele>230</ele>
        <time>2012-10-02T16:23:59Z</time>
      </trkpt>
      <trkpt lat="47.12888" lon="5.43806">
        <ele>230</ele>
        <time>2012-10-02T16:24:05Z</time>
      </trkpt>
      <trkpt lat="47.12884" lon="5.43779">
        <ele>230</ele>
        <time>2012-10-02T16:24:13Z</time>
      </trkpt>
      <trkpt lat="47.12875" lon="5.43738">
        <ele>229</ele>
        <time>2012-10-02T16:24:26Z</time>
      </trkpt>
      <trkpt lat="47.1286" lon="5.4369">
        <ele>229</ele>
        <time>2012-10-02T16:24:39Z</time>
      </trkpt>
      <trkpt lat="47.12856" lon="5.43629">
        <ele>228</ele>
        <time>2012-10-02T16:24:48Z</time>
      </trkpt>
      <trkpt lat="47.12854" lon="5.4356">
        <ele>227</ele>
        <time>2012-10-02T16:24:59Z</time>
      </trkpt>
      <trkpt lat="47.12855" lon="5.4354">
        <ele>227</ele>
        <time>2012-10-02T16:25:04Z</time>
      </trkpt>
      <trkpt lat="47.12847" lon="5.43496">
        <ele>226</ele>
        <time>2012-10-02T16:25:12Z</time>
      </trkpt>
      <trkpt lat="47.12854" lon="5.43376">
        <ele>226</ele>
        <time>2012-10-02T16:25:21Z</time>
      </trkpt>
      <trkpt lat="47.12856" lon="5.43343">
        <ele>226</ele>
        <time>2012-10-02T16:25:23Z</time>
      </trkpt>
      <trkpt lat="47.12844" lon="5.43242">
        <ele>225</ele>
        <time>2012-10-02T16:25:34Z</time>
      </trkpt>
      <trkpt lat="47.1283" lon="5.43154">
        <ele>224</ele>
        <time>2012-10-02T16:25:43Z</time>
      </trkpt>
      <trkpt lat="47.12801" lon="5.43071">
        <ele>225</ele>
        <time>2012-10-02T16:25:55Z</time>
      </trkpt>
      <trkpt lat="47.12788" lon="5.42983">
        <ele>225</ele>
        <time>2012-10-02T16:26:06Z</time>
      </trkpt>
      <trkpt lat="47.12775" lon="5.42922">
        <ele>225</ele>
        <time>2012-10-02T16:26:15Z</time>
      </trkpt>
      <trkpt lat="47.12774" lon="5.42824">
        <ele>226</ele>
        <time>2012-10-02T16:26:29Z</time>
      </trkpt>
      <trkpt lat="47.12806" lon="5.42688">
        <ele>226</ele>
        <time>2012-10-02T16:26:40Z</time>
      </trkpt>
      <trkpt lat="47.12824" lon="5.42568">
        <ele>225</ele>
        <time>2012-10-02T16:26:48Z</time>
      </trkpt>
      <trkpt lat="47.12824" lon="5.42511">
        <ele>225</ele>
        <time>2012-10-02T16:26:52Z</time>
      </trkpt>
      <trkpt lat="47.12823" lon="5.42464">
        <ele>224</ele>
        <time>2012-10-02T16:26:56Z</time>
      </trkpt>
      <trkpt lat="47.12838" lon="5.42349">
        <ele>220</ele>
        <time>2012-10-02T16:27:03Z</time>
      </trkpt>
      <trkpt lat="47.12847" lon="5.42267">
        <ele>218</ele>
        <time>2012-10-02T16:27:07Z</time>
      </trkpt>
      <trkpt lat="47.12848" lon="5.42201">
        <ele>217</ele>
        <time>2012-10-02T16:27:11Z</time>
      </trkpt>
      <trkpt lat="47.12851" lon="5.42137">
        <ele>216</ele>
        <time>2012-10-02T16:27:17Z</time>
      </trkpt>
      <trkpt lat="47.12828" lon="5.42089">
        <ele>218</ele>
        <time>2012-10-02T16:27:27Z</time>
      </trkpt>
      <trkpt lat="47.12813" lon="5.4204">
        <ele>221</ele>
        <time>2012-10-02T16:27:37Z</time>
      </trkpt>
      <trkpt lat="47.12813" lon="5.42036">
        <ele>221</ele>
        <time>2012-10-02T16:27:38Z</time>
      </trkpt>
      <trkpt lat="47.12803" lon="5.41981">
        <ele>223</ele>
        <time>2012-10-02T16:27:48Z</time>
      </trkpt>
      <trkpt lat="47.128" lon="5.41923">
        <ele>225</ele>
        <time>2012-10-02T16:27:58Z</time>
      </trkpt>
      <trkpt lat="47.12802" lon="5.41861">
        <ele>226</ele>
        <time>2012-10-02T16:28:08Z</time>
      </trkpt>
      <trkpt lat="47.12812" lon="5.41817">
        <ele>225</ele>
        <time>2012-10-02T16:28:19Z</time>
      </trkpt>
      <trkpt lat="47.12853" lon="5.4165">
        <ele>224</ele>
        <time>2012-10-02T16:28:27Z</time>
      </trkpt>
      <trkpt lat="47.12866" lon="5.41625">
        <ele>224</ele>
        <time>2012-10-02T16:28:29Z</time>
      </trkpt>
      <trkpt lat="47.12858" lon="5.41591">
        <ele>225</ele>
        <time>2012-10-02T16:28:35Z</time>
      </trkpt>
      <trkpt lat="47.12844" lon="5.41503">
        <ele>226</ele>
        <time>2012-10-02T16:28:45Z</time>
      </trkpt>
      <trkpt lat="47.12839" lon="5.41451">
        <ele>226</ele>
        <time>2012-10-02T16:28:51Z</time>
      </trkpt>
      <trkpt lat="47.12826" lon="5.41279">
        <ele>224</ele>
        <time>2012-10-02T16:29:07Z</time>
      </trkpt>
      <trkpt lat="47.12823" lon="5.41238">
        <ele>224</ele>
        <time>2012-10-02T16:29:11Z</time>
      </trkpt>
      <trkpt lat="47.12796" lon="5.41121">
        <ele>221</ele>
        <time>2012-10-02T16:29:23Z</time>
      </trkpt>
      <trkpt lat="47.12781" lon="5.41079">
        <ele>220</ele>
        <time>2012-10-02T16:29:27Z</time>
      </trkpt>
      <trkpt lat="47.12762" lon="5.41029">
        <ele>218</ele>
        <time>2012-10-02T16:29:32Z</time>
      </trkpt>
      <trkpt lat="47.12723" lon="5.40962">
        <ele>220</ele>
        <time>2012-10-02T16:29:41Z</time>
      </trkpt>
      <trkpt lat="47.12724" lon="5.40869">
        <ele>223</ele>
        <time>2012-10-02T16:29:50Z</time>
      </trkpt>
      <trkpt lat="47.12721" lon="5.40753">
        <ele>226</ele>
        <time>2012-10-02T16:30:01Z</time>
      </trkpt>
      <trkpt lat="47.12723" lon="5.40674">
        <ele>227</ele>
        <time>2012-10-02T16:30:06Z</time>
      </trkpt>
      <trkpt lat="47.1272" lon="5.40623">
        <ele>227</ele>
        <time>2012-10-02T16:30:10Z</time>
      </trkpt>
      <trkpt lat="47.12725" lon="5.40516">
        <ele>227</ele>
        <time>2012-10-02T16:30:16Z</time>
      </trkpt>
      <trkpt lat="47.12719" lon="5.40483">
        <ele>227</ele>
        <time>2012-10-02T16:30:19Z</time>
      </trkpt>
      <trkpt lat="47.12712" lon="5.40458">
        <ele>227</ele>
        <time>2012-10-02T16:30:22Z</time>
      </trkpt>
      <trkpt lat="47.12695" lon="5.40437">
        <ele>227</ele>
        <time>2012-10-02T16:30:28Z</time>
      </trkpt>
      <trkpt lat="47.1268" lon="5.40426">
        <ele>227</ele>
        <time>2012-10-02T16:30:31Z</time>
      </trkpt>
      <trkpt lat="47.12674" lon="5.40416">
        <ele>227</ele>
        <time>2012-10-02T16:30:35Z</time>
      </trkpt>
      <trkpt lat="47.12638" lon="5.40381">
        <ele>227</ele>
        <time>2012-10-02T16:30:52Z</time>
      </trkpt>
      <trkpt lat="47.12615" lon="5.40378">
        <ele>227</ele>
        <time>2012-10-02T16:31:01Z</time>
      </trkpt>
      <trkpt lat="47.12567" lon="5.40344">
        <ele>227</ele>
        <time>2012-10-02T16:31:16Z</time>
      </trkpt>
      <trkpt lat="47.1253" lon="5.40304">
        <ele>227</ele>
        <time>2012-10-02T16:31:27Z</time>
      </trkpt>
      <trkpt lat="47.12476" lon="5.40259">
        <ele>227</ele>
        <time>2012-10-02T16:31:40Z</time>
      </trkpt>
      <trkpt lat="47.12423" lon="5.40227">
        <ele>227</ele>
        <time>2012-10-02T16:31:49Z</time>
      </trkpt>
      <trkpt lat="47.12379" lon="5.4021">
        <ele>226</ele>
        <time>2012-10-02T16:31:56Z</time>
      </trkpt>
      <trkpt lat="47.12311" lon="5.40186">
        <ele>226</ele>
        <time>2012-10-02T16:32:05Z</time>
      </trkpt>
      <trkpt lat="47.12295" lon="5.4015">
        <ele>227</ele>
        <time>2012-10-02T16:32:15Z</time>
      </trkpt>
      <trkpt lat="47.12289" lon="5.40139">
        <ele>227</ele>
        <time>2012-10-02T16:32:20Z</time>
      </trkpt>
      <trkpt lat="47.12292" lon="5.40131">
        <ele>226</ele>
        <time>2012-10-02T16:32:27Z</time>
      </trkpt>
      <trkpt lat="47.12243" lon="5.40094">
        <ele>224</ele>
        <time>2012-10-02T16:32:35Z</time>
      </trkpt>
      <trkpt lat="47.12208" lon="5.40073">
        <ele>222</ele>
        <time>2012-10-02T16:32:40Z</time>
      </trkpt>
      <trkpt lat="47.12139" lon="5.40084">
        <ele>224</ele>
        <time>2012-10-02T16:32:50Z</time>
      </trkpt>
      <trkpt lat="47.12134" lon="5.40086">
        <ele>224</ele>
        <time>2012-10-02T16:32:51Z</time>
      </trkpt>
      <trkpt lat="47.12118" lon="5.40086">
        <ele>224</ele>
        <time>2012-10-02T16:32:56Z</time>
      </trkpt>
      <trkpt lat="47.12079" lon="5.40076">
        <ele>225</ele>
        <time>2012-10-02T16:33:05Z</time>
      </trkpt>
      <trkpt lat="47.11991" lon="5.40058">
        <ele>226</ele>
        <time>2012-10-02T16:33:15Z</time>
      </trkpt>
      <trkpt lat="47.11931" lon="5.40061">
        <ele>227</ele>
        <time>2012-10-02T16:33:27Z</time>
      </trkpt>
      <trkpt lat="47.11912" lon="5.40062">
        <ele>227</ele>
        <time>2012-10-02T16:33:29Z</time>
      </trkpt>
      <trkpt lat="47.11846" lon="5.40119">
        <ele>227</ele>
        <time>2012-10-02T16:33:44Z</time>
      </trkpt>
      <trkpt lat="47.11823" lon="5.40251">
        <ele>227</ele>
        <time>2012-10-02T16:34:02Z</time>
      </trkpt>
      <trkpt lat="47.11822" lon="5.40308">
        <ele>227</ele>
        <time>2012-10-02T16:34:09Z</time>
      </trkpt>
      <trkpt lat="47.11828" lon="5.40332">
        <ele>227</ele>
        <time>2012-10-02T16:34:12Z</time>
      </trkpt>
      <trkpt lat="47.11865" lon="5.40403">
        <ele>226</ele>
        <time>2012-10-02T16:34:23Z</time>
      </trkpt>
      <trkpt lat="47.11877" lon="5.4043">
        <ele>226</ele>
        <time>2012-10-02T16:34:27Z</time>
      </trkpt>
      <trkpt lat="47.11896" lon="5.40483">
        <ele>226</ele>
        <time>2012-10-02T16:34:34Z</time>
      </trkpt>
      <trkpt lat="47.11911" lon="5.40545">
        <ele>226</ele>
        <time>2012-10-02T16:34:42Z</time>
      </trkpt>
      <trkpt lat="47.11921" lon="5.40668">
        <ele>227</ele>
        <time>2012-10-02T16:34:58Z</time>
      </trkpt>
      <trkpt lat="47.11921" lon="5.40676">
        <ele>227</ele>
        <time>2012-10-02T16:34:59Z</time>
      </trkpt>
      <trkpt lat="47.1192" lon="5.40717">
        <ele>228</ele>
        <time>2012-10-02T16:35:05Z</time>
      </trkpt>
      <trkpt lat="47.11886" lon="5.40796">
        <ele>229</ele>
        <time>2012-10-02T16:35:18Z</time>
      </trkpt>
      <trkpt lat="47.11879" lon="5.40811">
        <ele>228</ele>
        <time>2012-10-02T16:35:20Z</time>
      </trkpt>
      <trkpt lat="47.11871" lon="5.40837">
        <ele>228</ele>
        <time>2012-10-02T16:35:24Z</time>
      </trkpt>
      <trkpt lat="47.11839" lon="5.40922">
        <ele>229</ele>
        <time>2012-10-02T16:35:37Z</time>
      </trkpt>
      <trkpt lat="47.11797" lon="5.40981">
        <ele>228</ele>
        <time>2012-10-02T16:35:44Z</time>
      </trkpt>
      <trkpt lat="47.11784" lon="5.41023">
        <ele>229</ele>
        <time>2012-10-02T16:35:49Z</time>
      </trkpt>
      <trkpt lat="47.11786" lon="5.4109">
        <ele>230</ele>
        <time>2012-10-02T16:35:59Z</time>
      </trkpt>
      <trkpt lat="47.11779" lon="5.41187">
        <ele>230</ele>
        <time>2012-10-02T16:36:11Z</time>
      </trkpt>
      <trkpt lat="47.11769" lon="5.41264">
        <ele>230</ele>
        <time>2012-10-02T16:36:23Z</time>
      </trkpt>
      <trkpt lat="47.11761" lon="5.41318">
        <ele>230</ele>
        <time>2012-10-02T16:36:32Z</time>
      </trkpt>
      <trkpt lat="47.11751" lon="5.41361">
        <ele>230</ele>
        <time>2012-10-02T16:36:36Z</time>
      </trkpt>
      <trkpt lat="47.11744" lon="5.41392">
        <ele>231</ele>
        <time>2012-10-02T16:36:39Z</time>
      </trkpt>
      <trkpt lat="47.11721" lon="5.41464">
        <ele>231</ele>
        <time>2012-10-02T16:36:46Z</time>
      </trkpt>
      <trkpt lat="47.11711" lon="5.41492">
        <ele>231</ele>
        <time>2012-10-02T16:36:49Z</time>
      </trkpt>
      <trkpt lat="47.11683" lon="5.41582">
        <ele>231</ele>
        <time>2012-10-02T16:37:01Z</time>
      </trkpt>
      <trkpt lat="47.11655" lon="5.4166">
        <ele>231</ele>
        <time>2012-10-02T16:37:13Z</time>
      </trkpt>
      <trkpt lat="47.11642" lon="5.41668">
        <ele>231</ele>
        <time>2012-10-02T16:37:16Z</time>
      </trkpt>
      <trkpt lat="47.1162" lon="5.41713">
        <ele>231</ele>
        <time>2012-10-02T16:37:23Z</time>
      </trkpt>
      <trkpt lat="47.11591" lon="5.41772">
        <ele>231</ele>
        <time>2012-10-02T16:37:34Z</time>
      </trkpt>
      <trkpt lat="47.1158" lon="5.4181">
        <ele>232</ele>
        <time>2012-10-02T16:37:41Z</time>
      </trkpt>
      <trkpt lat="47.11543" lon="5.41889">
        <ele>232</ele>
        <time>2012-10-02T16:37:53Z</time>
      </trkpt>
      <trkpt lat="47.11516" lon="5.41961">
        <ele>232</ele>
        <time>2012-10-02T16:38:06Z</time>
      </trkpt>
      <trkpt lat="47.11486" lon="5.42036">
        <ele>232</ele>
        <time>2012-10-02T16:38:16Z</time>
      </trkpt>
      <trkpt lat="47.11445" lon="5.42123">
        <ele>233</ele>
        <time>2012-10-02T16:38:29Z</time>
      </trkpt>
      <trkpt lat="47.11422" lon="5.42163">
        <ele>232</ele>
        <time>2012-10-02T16:38:34Z</time>
      </trkpt>
      <trkpt lat="47.11414" lon="5.42173">
        <ele>232</ele>
        <time>2012-10-02T16:38:36Z</time>
      </trkpt>
      <trkpt lat="47.1135" lon="5.42252">
        <ele>231</ele>
        <time>2012-10-02T16:38:50Z</time>
      </trkpt>
      <trkpt lat="47.11273" lon="5.4233">
        <ele>232</ele>
        <time>2012-10-02T16:39:07Z</time>
      </trkpt>
      <trkpt lat="47.11235" lon="5.42367">
        <ele>233</ele>
        <time>2012-10-02T16:39:16Z</time>
      </trkpt>
      <trkpt lat="47.11209" lon="5.42386">
        <ele>233</ele>
        <time>2012-10-02T16:39:21Z</time>
      </trkpt>
      <trkpt lat="47.11083" lon="5.42548">
        <ele>233</ele>
        <time>2012-10-02T16:39:39Z</time>
      </trkpt>
      <trkpt lat="47.11021" lon="5.42624">
        <ele>233</ele>
        <time>2012-10-02T16:39:47Z</time>
      </trkpt>
      <trkpt lat="47.11003" lon="5.42658">
        <ele>233</ele>
        <time>2012-10-02T16:39:50Z</time>
      </trkpt>
      <trkpt lat="47.10964" lon="5.42791">
        <ele>233</ele>
        <time>2012-10-02T16:40:02Z</time>
      </trkpt>
      <trkpt lat="47.10949" lon="5.42899">
        <ele>233</ele>
        <time>2012-10-02T16:40:11Z</time>
      </trkpt>
      <trkpt lat="47.10931" lon="5.42958">
        <ele>234</ele>
        <time>2012-10-02T16:40:17Z</time>
      </trkpt>
      <trkpt lat="47.10899" lon="5.43036">
        <ele>235</ele>
        <time>2012-10-02T16:40:24Z</time>
      </trkpt>
      <trkpt lat="47.10842" lon="5.43192">
        <ele>239</ele>
        <time>2012-10-02T16:40:36Z</time>
      </trkpt>
      <trkpt lat="47.10774" lon="5.43332">
        <ele>240</ele>
        <time>2012-10-02T16:40:49Z</time>
      </trkpt>
      <trkpt lat="47.10769" lon="5.43341">
        <ele>240</ele>
        <time>2012-10-02T16:40:50Z</time>
      </trkpt>
      <trkpt lat="47.10696" lon="5.43479">
        <ele>239</ele>
        <time>2012-10-02T16:41:05Z</time>
      </trkpt>
      <trkpt lat="47.10693" lon="5.43486">
        <ele>239</ele>
        <time>2012-10-02T16:41:06Z</time>
      </trkpt>
      <trkpt lat="47.10678" lon="5.43499">
        <ele>240</ele>
        <time>2012-10-02T16:41:11Z</time>
      </trkpt>
      <trkpt lat="47.10638" lon="5.43477">
        <ele>241</ele>
        <time>2012-10-02T16:41:22Z</time>
      </trkpt>
      <trkpt lat="47.10595" lon="5.43468">
        <ele>245</ele>
        <time>2012-10-02T16:41:34Z</time>
      </trkpt>
      <trkpt lat="47.10574" lon="5.43459">
        <ele>246</ele>
        <time>2012-10-02T16:41:40Z</time>
      </trkpt>
      <trkpt lat="47.10553" lon="5.4346">
        <ele>248</ele>
        <time>2012-10-02T16:41:46Z</time>
      </trkpt>
      <trkpt lat="47.10542" lon="5.43448">
        <ele>249</ele>
        <time>2012-10-02T16:41:50Z</time>
      </trkpt>
      <trkpt lat="47.10512" lon="5.43414">
        <ele>252</ele>
        <time>2012-10-02T16:42:01Z</time>
      </trkpt>
      <trkpt lat="47.10488" lon="5.43376">
        <ele>253</ele>
        <time>2012-10-02T16:42:14Z</time>
      </trkpt>
      <trkpt lat="47.10472" lon="5.43366">
        <ele>254</ele>
        <time>2012-10-02T16:42:20Z</time>
      </trkpt>
      <trkpt lat="47.10427" lon="5.4332">
        <ele>255</ele>
        <time>2012-10-02T16:42:33Z</time>
      </trkpt>
      <trkpt lat="47.10394" lon="5.43242">
        <ele>257</ele>
        <time>2012-10-02T16:42:46Z</time>
      </trkpt>
      <trkpt lat="47.10347" lon="5.4322">
        <ele>259</ele>
        <time>2012-10-02T16:42:56Z</time>
      </trkpt>
      <trkpt lat="47.10308" lon="5.43201">
        <ele>259</ele>
        <time>2012-10-02T16:43:06Z</time>
      </trkpt>
      <trkpt lat="47.10265" lon="5.432">
        <ele>258</ele>
        <time>2012-10-02T16:43:17Z</time>
      </trkpt>
      <trkpt lat="47.10242" lon="5.43226">
        <ele>257</ele>
        <time>2012-10-02T16:43:29Z</time>
      </trkpt>
      <trkpt lat="47.10229" lon="5.43271">
        <ele>255</ele>
        <time>2012-10-02T16:43:39Z</time>
      </trkpt>
      <trkpt lat="47.10223" lon="5.43288">
        <ele>254</ele>
        <time>2012-10-02T16:43:41Z</time>
      </trkpt>
      <trkpt lat="47.10203" lon="5.43343">
        <ele>252</ele>
        <time>2012-10-02T16:43:51Z</time>
      </trkpt>
      <trkpt lat="47.10196" lon="5.43354">
        <ele>253</ele>
        <time>2012-10-02T16:44:02Z</time>
      </trkpt>
      <trkpt lat="47.1019" lon="5.43354">
        <ele>253</ele>
        <time>2012-10-02T16:44:06Z</time>
      </trkpt>
      <trkpt lat="47.10151" lon="5.43348">
        <ele>254</ele>
        <time>2012-10-02T16:44:18Z</time>
      </trkpt>
      <trkpt lat="47.10148" lon="5.43346">
        <ele>254</ele>
        <time>2012-10-02T16:44:19Z</time>
      </trkpt>
      <trkpt lat="47.10086" lon="5.43325">
        <ele>256</ele>
        <time>2012-10-02T16:44:33Z</time>
      </trkpt>
      <trkpt lat="47.10051" lon="5.43301">
        <ele>258</ele>
        <time>2012-10-02T16:44:43Z</time>
      </trkpt>
      <trkpt lat="47.10043" lon="5.43295">
        <ele>259</ele>
        <time>2012-10-02T16:44:45Z</time>
      </trkpt>
      <trkpt lat="47.09997" lon="5.43272">
        <ele>260</ele>
        <time>2012-10-02T16:44:54Z</time>
      </trkpt>
      <trkpt lat="47.09975" lon="5.43265">
        <ele>260</ele>
        <time>2012-10-02T16:44:58Z</time>
      </trkpt>
      <trkpt lat="47.09907" lon="5.4324">
        <ele>260</ele>
        <time>2012-10-02T16:45:10Z</time>
      </trkpt>
      <trkpt lat="47.09849" lon="5.43199">
        <ele>259</ele>
        <time>2012-10-02T16:45:23Z</time>
      </trkpt>
      <trkpt lat="47.09791" lon="5.43167">
        <ele>258</ele>
        <time>2012-10-02T16:45:34Z</time>
      </trkpt>
      <trkpt lat="47.09696" lon="5.43146">
        <ele>256</ele>
        <time>2012-10-02T16:45:49Z</time>
      </trkpt>
      <trkpt lat="47.09608" lon="5.43131">
        <ele>255</ele>
        <time>2012-10-02T16:46:02Z</time>
      </trkpt>
      <trkpt lat="47.09506" lon="5.4308">
        <ele>257</ele>
        <time>2012-10-02T16:46:20Z</time>
      </trkpt>
      <trkpt lat="47.09464" lon="5.43053">
        <ele>258</ele>
        <time>2012-10-02T16:46:28Z</time>
      </trkpt>
      <trkpt lat="47.09444" lon="5.43045">
        <ele>258</ele>
        <time>2012-10-02T16:46:32Z</time>
      </trkpt>
      <trkpt lat="47.09414" lon="5.43039">
        <ele>259</ele>
        <time>2012-10-02T16:46:39Z</time>
      </trkpt>
      <trkpt lat="47.09388" lon="5.4303">
        <ele>259</ele>
        <time>2012-10-02T16:46:43Z</time>
      </trkpt>
      <trkpt lat="47.0928" lon="5.42957">
        <ele>258</ele>
        <time>2012-10-02T16:46:58Z</time>
      </trkpt>
      <trkpt lat="47.09177" lon="5.42917">
        <ele>257</ele>
        <time>2012-10-02T16:47:13Z</time>
      </trkpt>
      <trkpt lat="47.09117" lon="5.42905">
        <ele>254</ele>
        <time>2012-10-02T16:47:21Z</time>
      </trkpt>
      <trkpt lat="47.08998" lon="5.42865">
        <ele>251</ele>
        <time>2012-10-02T16:47:37Z</time>
      </trkpt>
      <trkpt lat="47.08882" lon="5.42819">
        <ele>250</ele>
        <time>2012-10-02T16:47:53Z</time>
      </trkpt>
      <trkpt lat="47.08849" lon="5.42793">
        <ele>250</ele>
        <time>2012-10-02T16:47:58Z</time>
      </trkpt>
      <trkpt lat="47.0882" lon="5.42777">
        <ele>250</ele>
        <time>2012-10-02T16:48:02Z</time>
      </trkpt>
      <trkpt lat="47.08794" lon="5.42756">
        <ele>250</ele>
        <time>2012-10-02T16:48:06Z</time>
      </trkpt>
      <trkpt lat="47.08772" lon="5.42736">
        <ele>250</ele>
        <time>2012-10-02T16:48:10Z</time>
      </trkpt>
      <trkpt lat="47.08729" lon="5.42681">
        <ele>252</ele>
        <time>2012-10-02T16:48:18Z</time>
      </trkpt>
      <trkpt lat="47.08719" lon="5.42667">
        <ele>253</ele>
        <time>2012-10-02T16:48:20Z</time>
      </trkpt>
      <trkpt lat="47.08699" lon="5.42633">
        <ele>253</ele>
        <time>2012-10-02T16:48:24Z</time>
      </trkpt>
      <trkpt lat="47.08689" lon="5.42616">
        <ele>254</ele>
        <time>2012-10-02T16:48:26Z</time>
      </trkpt>
      <trkpt lat="47.08654" lon="5.4251">
        <ele>253</ele>
        <time>2012-10-02T16:48:37Z</time>
      </trkpt>
      <trkpt lat="47.08644" lon="5.42338">
        <ele>251</ele>
        <time>2012-10-02T16:48:50Z</time>
      </trkpt>
      <trkpt lat="47.08606" lon="5.4217">
        <ele>248</ele>
        <time>2012-10-02T16:49:02Z</time>
      </trkpt>
      <trkpt lat="47.08586" lon="5.42107">
        <ele>247</ele>
        <time>2012-10-02T16:49:07Z</time>
      </trkpt>
      <trkpt lat="47.08517" lon="5.42007">
        <ele>244</ele>
        <time>2012-10-02T16:49:18Z</time>
      </trkpt>
      <trkpt lat="47.08429" lon="5.41898">
        <ele>240</ele>
        <time>2012-10-02T16:49:29Z</time>
      </trkpt>
      <trkpt lat="47.0835" lon="5.41821">
        <ele>238</ele>
        <time>2012-10-02T16:49:38Z</time>
      </trkpt>
      <trkpt lat="47.08228" lon="5.41728">
        <ele>235</ele>
        <time>2012-10-02T16:49:52Z</time>
      </trkpt>
      <trkpt lat="47.08127" lon="5.41647">
        <ele>234</ele>
        <time>2012-10-02T16:50:06Z</time>
      </trkpt>
      <trkpt lat="47.08055" lon="5.41587">
        <ele>234</ele>
        <time>2012-10-02T16:50:18Z</time>
      </trkpt>
      <trkpt lat="47.07983" lon="5.41529">
        <ele>233</ele>
        <time>2012-10-02T16:50:30Z</time>
      </trkpt>
      <trkpt lat="47.07917" lon="5.41471">
        <ele>231</ele>
        <time>2012-10-02T16:50:41Z</time>
      </trkpt>
      <trkpt lat="47.07891" lon="5.41451">
        <ele>231</ele>
        <time>2012-10-02T16:50:45Z</time>
      </trkpt>
      <trkpt lat="47.07845" lon="5.41425">
        <ele>229</ele>
        <time>2012-10-02T16:50:52Z</time>
      </trkpt>
      <trkpt lat="47.07827" lon="5.41414">
        <ele>229</ele>
        <time>2012-10-02T16:50:55Z</time>
      </trkpt>
      <trkpt lat="47.07788" lon="5.41394">
        <ele>228</ele>
        <time>2012-10-02T16:51:03Z</time>
      </trkpt>
      <trkpt lat="47.07744" lon="5.41375">
        <ele>226</ele>
        <time>2012-10-02T16:51:15Z</time>
      </trkpt>
      <trkpt lat="47.07711" lon="5.41324">
        <ele>225</ele>
        <time>2012-10-02T16:51:26Z</time>
      </trkpt>
      <trkpt lat="47.07691" lon="5.413">
        <ele>224</ele>
        <time>2012-10-02T16:51:32Z</time>
      </trkpt>
      <trkpt lat="47.07674" lon="5.41256">
        <ele>225</ele>
        <time>2012-10-02T16:51:39Z</time>
      </trkpt>
      <trkpt lat="47.07665" lon="5.41246">
        <ele>225</ele>
        <time>2012-10-02T16:51:42Z</time>
      </trkpt>
      <trkpt lat="47.07634" lon="5.41219">
        <ele>226</ele>
        <time>2012-10-02T16:51:51Z</time>
      </trkpt>
      <trkpt lat="47.07632" lon="5.41214">
        <ele>227</ele>
        <time>2012-10-02T16:51:56Z</time>
      </trkpt>
      <trkpt lat="47.07612" lon="5.41223">
        <ele>228</ele>
        <time>2012-10-02T16:52:05Z</time>
      </trkpt>
      <trkpt lat="47.07609" lon="5.41225">
        <ele>228</ele>
        <time>2012-10-02T16:52:07Z</time>
      </trkpt>
      <trkpt lat="47.07598" lon="5.41243">
        <ele>228</ele>
        <time>2012-10-02T16:52:12Z</time>
      </trkpt>
      <trkpt lat="47.07555" lon="5.41275">
        <ele>230</ele>
        <time>2012-10-02T16:52:29Z</time>
      </trkpt>
      <trkpt lat="47.07483" lon="5.41255">
        <ele>229</ele>
        <time>2012-10-02T16:52:38Z</time>
      </trkpt>
      <trkpt lat="47.07466" lon="5.41252">
        <ele>229</ele>
        <time>2012-10-02T16:52:40Z</time>
      </trkpt>
      <trkpt lat="47.07427" lon="5.41236">
        <ele>228</ele>
        <time>2012-10-02T16:52:45Z</time>
      </trkpt>
      <trkpt lat="47.07382" lon="5.41217">
        <ele>228</ele>
        <time>2012-10-02T16:52:50Z</time>
      </trkpt>
      <trkpt lat="47.073" lon="5.4119">
        <ele>228</ele>
        <time>2012-10-02T16:53:01Z</time>
      </trkpt>
      <trkpt lat="47.07243" lon="5.41205">
        <ele>229</ele>
        <time>2012-10-02T16:53:11Z</time>
      </trkpt>
      <trkpt lat="47.07188" lon="5.41228">
        <ele>230</ele>
        <time>2012-10-02T16:53:21Z</time>
      </trkpt>
      <trkpt lat="47.07142" lon="5.41257">
        <ele>231</ele>
        <time>2012-10-02T16:53:30Z</time>
      </trkpt>
      <trkpt lat="47.07078" lon="5.41287">
        <ele>231</ele>
        <time>2012-10-02T16:53:40Z</time>
      </trkpt>
      <trkpt lat="47.07001" lon="5.4132">
        <ele>232</ele>
        <time>2012-10-02T16:53:52Z</time>
      </trkpt>
      <trkpt lat="47.06972" lon="5.41334">
        <ele>232</ele>
        <time>2012-10-02T16:53:57Z</time>
      </trkpt>
      <trkpt lat="47.06922" lon="5.41357">
        <ele>232</ele>
        <time>2012-10-02T16:54:07Z</time>
      </trkpt>
      <trkpt lat="47.06887" lon="5.41378">
        <ele>231</ele>
        <time>2012-10-02T16:54:16Z</time>
      </trkpt>
      <trkpt lat="47.06852" lon="5.41391">
        <ele>231</ele>
        <time>2012-10-02T16:54:25Z</time>
      </trkpt>
      <trkpt lat="47.06801" lon="5.41414">
        <ele>231</ele>
        <time>2012-10-02T16:54:34Z</time>
      </trkpt>
      <trkpt lat="47.06746" lon="5.41442">
        <ele>232</ele>
        <time>2012-10-02T16:54:44Z</time>
      </trkpt>
      <trkpt lat="47.06685" lon="5.41471">
        <ele>232</ele>
        <time>2012-10-02T16:54:55Z</time>
      </trkpt>
      <trkpt lat="47.06659" lon="5.4148">
        <ele>232</ele>
        <time>2012-10-02T16:55:00Z</time>
      </trkpt>
      <trkpt lat="47.0654" lon="5.41508">
        <ele>231</ele>
        <time>2012-10-02T16:55:14Z</time>
      </trkpt>
      <trkpt lat="47.06522" lon="5.4152">
        <ele>231</ele>
        <time>2012-10-02T16:55:16Z</time>
      </trkpt>
      <trkpt lat="47.06424" lon="5.41523">
        <ele>229</ele>
        <time>2012-10-02T16:55:26Z</time>
      </trkpt>
      <trkpt lat="47.06418" lon="5.41522">
        <ele>229</ele>
        <time>2012-10-02T16:55:27Z</time>
      </trkpt>
      <trkpt lat="47.0639" lon="5.4154">
        <ele>228</ele>
        <time>2012-10-02T16:55:32Z</time>
      </trkpt>
      <trkpt lat="47.06378" lon="5.41565">
        <ele>228</ele>
        <time>2012-10-02T16:55:36Z</time>
      </trkpt>
      <trkpt lat="47.06371" lon="5.41591">
        <ele>228</ele>
        <time>2012-10-02T16:55:40Z</time>
      </trkpt>
      <trkpt lat="47.0636" lon="5.41621">
        <ele>227</ele>
        <time>2012-10-02T16:55:44Z</time>
      </trkpt>
      <trkpt lat="47.06353" lon="5.41638">
        <ele>227</ele>
        <time>2012-10-02T16:55:46Z</time>
      </trkpt>
      <trkpt lat="47.06342" lon="5.41665">
        <ele>228</ele>
        <time>2012-10-02T16:55:49Z</time>
      </trkpt>
      <trkpt lat="47.06326" lon="5.41704">
        <ele>227</ele>
        <time>2012-10-02T16:55:53Z</time>
      </trkpt>
      <trkpt lat="47.06291" lon="5.41787">
        <ele>226</ele>
        <time>2012-10-02T16:56:01Z</time>
      </trkpt>
      <trkpt lat="47.06251" lon="5.41944">
        <ele>223</ele>
        <time>2012-10-02T16:56:15Z</time>
      </trkpt>
      <trkpt lat="47.06248" lon="5.41969">
        <ele>222</ele>
        <time>2012-10-02T16:56:17Z</time>
      </trkpt>
      <trkpt lat="47.06247" lon="5.42123">
        <ele>222</ele>
        <time>2012-10-02T16:56:30Z</time>
      </trkpt>
      <trkpt lat="47.06244" lon="5.42188">
        <ele>221</ele>
        <time>2012-10-02T16:56:36Z</time>
      </trkpt>
      <trkpt lat="47.06252" lon="5.42364">
        <ele>220</ele>
        <time>2012-10-02T16:56:52Z</time>
      </trkpt>
      <trkpt lat="47.06279" lon="5.4249">
        <ele>219</ele>
        <time>2012-10-02T16:57:05Z</time>
      </trkpt>
      <trkpt lat="47.06292" lon="5.42513">
        <ele>220</ele>
        <time>2012-10-02T16:57:08Z</time>
      </trkpt>
      <trkpt lat="47.06311" lon="5.42559">
        <ele>220</ele>
        <time>2012-10-02T16:57:13Z</time>
      </trkpt>
      <trkpt lat="47.06305" lon="5.426">
        <ele>220</ele>
        <time>2012-10-02T16:57:17Z</time>
      </trkpt>
      <trkpt lat="47.06289" lon="5.42656">
        <ele>221</ele>
        <time>2012-10-02T16:57:24Z</time>
      </trkpt>
      <trkpt lat="47.06281" lon="5.42651">
        <ele>219</ele>
        <time>2012-10-02T16:57:28Z</time>
      </trkpt>
      <trkpt lat="47.06275" lon="5.42648">
        <ele>219</ele>
        <time>2012-10-02T16:57:30Z</time>
      </trkpt>
      <trkpt lat="47.06264" lon="5.42633">
        <ele>218</ele>
        <time>2012-10-02T16:57:36Z</time>
      </trkpt>
      <trkpt lat="47.0623" lon="5.42616">
        <ele>217</ele>
        <time>2012-10-02T16:57:47Z</time>
      </trkpt>
      <trkpt lat="47.06196" lon="5.42612">
        <ele>217</ele>
        <time>2012-10-02T16:57:54Z</time>
      </trkpt>
      <trkpt lat="47.0613" lon="5.42619">
        <ele>219</ele>
        <time>2012-10-02T16:58:04Z</time>
      </trkpt>
      <trkpt lat="47.06112" lon="5.42626">
        <ele>219</ele>
        <time>2012-10-02T16:58:06Z</time>
      </trkpt>
      <trkpt lat="47.06081" lon="5.42684">
        <ele>218</ele>
        <time>2012-10-02T16:58:15Z</time>
      </trkpt>
      <trkpt lat="47.06064" lon="5.42744">
        <ele>217</ele>
        <time>2012-10-02T16:58:21Z</time>
      </trkpt>
      <trkpt lat="47.06051" lon="5.42857">
        <ele>217</ele>
        <time>2012-10-02T16:58:33Z</time>
      </trkpt>
      <trkpt lat="47.06007" lon="5.42911">
        <ele>217</ele>
        <time>2012-10-02T16:58:40Z</time>
      </trkpt>
      <trkpt lat="47.05994" lon="5.43095">
        <ele>217</ele>
        <time>2012-10-02T16:58:56Z</time>
      </trkpt>
      <trkpt lat="47.05992" lon="5.43323">
        <ele>217</ele>
        <time>2012-10-02T16:59:15Z</time>
      </trkpt>
      <trkpt lat="47.05992" lon="5.43551">
        <ele>217</ele>
        <time>2012-10-02T16:59:35Z</time>
      </trkpt>
      <trkpt lat="47.05996" lon="5.43676">
        <ele>218</ele>
        <time>2012-10-02T16:59:48Z</time>
      </trkpt>
      <trkpt lat="47.05998" lon="5.43719">
        <ele>218</ele>
        <time>2012-10-02T16:59:53Z</time>
      </trkpt>
      <trkpt lat="47.05992" lon="5.43772">
        <ele>218</ele>
        <time>2012-10-02T17:00:00Z</time>
      </trkpt>
      <trkpt lat="47.05911" lon="5.43891">
        <ele>217</ele>
        <time>2012-10-02T17:00:13Z</time>
      </trkpt>
      <trkpt lat="47.05826" lon="5.44015">
        <ele>218</ele>
        <time>2012-10-02T17:00:27Z</time>
      </trkpt>
      <trkpt lat="47.05729" lon="5.44138">
        <ele>218</ele>
        <time>2012-10-02T17:00:45Z</time>
      </trkpt>
      <trkpt lat="47.05705" lon="5.44169">
        <ele>217</ele>
        <time>2012-10-02T17:00:50Z</time>
      </trkpt>
      <trkpt lat="47.05676" lon="5.442">
        <ele>218</ele>
        <time>2012-10-02T17:00:56Z</time>
      </trkpt>
      <trkpt lat="47.05659" lon="5.44207">
        <ele>217</ele>
        <time>2012-10-02T17:01:01Z</time>
      </trkpt>
      <trkpt lat="47.05654" lon="5.44208">
        <ele>217</ele>
        <time>2012-10-02T17:01:04Z</time>
      </trkpt>
      <trkpt lat="47.05651" lon="5.44223">
        <ele>219</ele>
        <time>2012-10-02T17:01:09Z</time>
      </trkpt>
      <trkpt lat="47.05607" lon="5.44288">
        <ele>220</ele>
        <time>2012-10-02T17:01:19Z</time>
      </trkpt>
      <trkpt lat="47.05576" lon="5.44324">
        <ele>220</ele>
        <time>2012-10-02T17:01:24Z</time>
      </trkpt>
      <trkpt lat="47.05559" lon="5.44372">
        <ele>220</ele>
        <time>2012-10-02T17:01:29Z</time>
      </trkpt>
      <trkpt lat="47.0556" lon="5.44434">
        <ele>219</ele>
        <time>2012-10-02T17:01:35Z</time>
      </trkpt>
      <trkpt lat="47.05617" lon="5.44617">
        <ele>220</ele>
        <time>2012-10-02T17:01:54Z</time>
      </trkpt>
      <trkpt lat="47.05667" lon="5.4479">
        <ele>220</ele>
        <time>2012-10-02T17:02:11Z</time>
      </trkpt>
      <trkpt lat="47.05716" lon="5.44941">
        <ele>220</ele>
        <time>2012-10-02T17:02:26Z</time>
      </trkpt>
      <trkpt lat="47.05762" lon="5.45103">
        <ele>220</ele>
        <time>2012-10-02T17:02:42Z</time>
      </trkpt>
      <trkpt lat="47.05798" lon="5.45213">
        <ele>220</ele>
        <time>2012-10-02T17:02:53Z</time>
      </trkpt>
      <trkpt lat="47.05856" lon="5.45402">
        <ele>220</ele>
        <time>2012-10-02T17:03:12Z</time>
      </trkpt>
      <trkpt lat="47.05897" lon="5.45522">
        <ele>220</ele>
        <time>2012-10-02T17:03:25Z</time>
      </trkpt>
      <trkpt lat="47.05958" lon="5.45717">
        <ele>220</ele>
        <time>2012-10-02T17:03:43Z</time>
      </trkpt>
      <trkpt lat="47.06017" lon="5.45905">
        <ele>220</ele>
        <time>2012-10-02T17:04:01Z</time>
      </trkpt>
      <trkpt lat="47.06074" lon="5.46076">
        <ele>219</ele>
        <time>2012-10-02T17:04:19Z</time>
      </trkpt>
      <trkpt lat="47.06077" lon="5.4608">
        <ele>219</ele>
        <time>2012-10-02T17:04:20Z</time>
      </trkpt>
      <trkpt lat="47.06102" lon="5.46116">
        <ele>219</ele>
        <time>2012-10-02T17:04:30Z</time>
      </trkpt>
      <trkpt lat="47.06115" lon="5.46121">
        <ele>220</ele>
        <time>2012-10-02T17:04:33Z</time>
      </trkpt>
      <trkpt lat="47.0618" lon="5.46166">
        <ele>220</ele>
        <time>2012-10-02T17:04:45Z</time>
      </trkpt>
      <trkpt lat="47.06199" lon="5.46174">
        <ele>220</ele>
        <time>2012-10-02T17:04:48Z</time>
      </trkpt>
      <trkpt lat="47.06257" lon="5.46208">
        <ele>220</ele>
        <time>2012-10-02T17:04:56Z</time>
      </trkpt>
      <trkpt lat="47.06278" lon="5.46227">
        <ele>220</ele>
        <time>2012-10-02T17:04:59Z</time>
      </trkpt>
      <trkpt lat="47.0637" lon="5.46305">
        <ele>219</ele>
        <time>2012-10-02T17:05:13Z</time>
      </trkpt>
      <trkpt lat="47.06444" lon="5.46368">
        <ele>220</ele>
        <time>2012-10-02T17:05:27Z</time>
      </trkpt>
      <trkpt lat="47.06533" lon="5.46433">
        <ele>220</ele>
        <time>2012-10-02T17:05:40Z</time>
      </trkpt>
      <trkpt lat="47.06661" lon="5.46536">
        <ele>220</ele>
        <time>2012-10-02T17:05:57Z</time>
      </trkpt>
      <trkpt lat="47.06769" lon="5.4662">
        <ele>220</ele>
        <time>2012-10-02T17:06:11Z</time>
      </trkpt>
      <trkpt lat="47.06806" lon="5.46641">
        <ele>221</ele>
        <time>2012-10-02T17:06:16Z</time>
      </trkpt>
      <trkpt lat="47.06904" lon="5.46713">
        <ele>221</ele>
        <time>2012-10-02T17:06:30Z</time>
      </trkpt>
      <trkpt lat="47.07029" lon="5.4681">
        <ele>221</ele>
        <time>2012-10-02T17:06:48Z</time>
      </trkpt>
      <trkpt lat="47.0711" lon="5.46884">
        <ele>221</ele>
        <time>2012-10-02T17:07:00Z</time>
      </trkpt>
      <trkpt lat="47.07174" lon="5.46933">
        <ele>221</ele>
        <time>2012-10-02T17:07:09Z</time>
      </trkpt>
      <trkpt lat="47.07197" lon="5.4696">
        <ele>220</ele>
        <time>2012-10-02T17:07:13Z</time>
      </trkpt>
      <trkpt lat="47.07255" lon="5.47007">
        <ele>221</ele>
        <time>2012-10-02T17:07:21Z</time>
      </trkpt>
      <trkpt lat="47.07273" lon="5.47031">
        <ele>220</ele>
        <time>2012-10-02T17:07:25Z</time>
      </trkpt>
      <trkpt lat="47.07293" lon="5.4704">
        <ele>220</ele>
        <time>2012-10-02T17:07:29Z</time>
      </trkpt>
      <trkpt lat="47.07396" lon="5.47133">
        <ele>221</ele>
        <time>2012-10-02T17:07:43Z</time>
      </trkpt>
      <trkpt lat="47.07504" lon="5.47204">
        <ele>221</ele>
        <time>2012-10-02T17:07:56Z</time>
      </trkpt>
      <trkpt lat="47.07579" lon="5.47265">
        <ele>220</ele>
        <time>2012-10-02T17:08:07Z</time>
      </trkpt>
      <trkpt lat="47.07609" lon="5.473">
        <ele>221</ele>
        <time>2012-10-02T17:08:12Z</time>
      </trkpt>
      <trkpt lat="47.07665" lon="5.47384">
        <ele>221</ele>
        <time>2012-10-02T17:08:23Z</time>
      </trkpt>
      <trkpt lat="47.07749" lon="5.47515">
        <ele>221</ele>
        <time>2012-10-02T17:08:38Z</time>
      </trkpt>
      <trkpt lat="47.07836" lon="5.47654">
        <ele>221</ele>
        <time>2012-10-02T17:08:53Z</time>
      </trkpt>
      <trkpt lat="47.07855" lon="5.47685">
        <ele>221</ele>
        <time>2012-10-02T17:08:57Z</time>
      </trkpt>
      <trkpt lat="47.07871" lon="5.47706">
        <ele>221</ele>
        <time>2012-10-02T17:09:00Z</time>
      </trkpt>
      <trkpt lat="47.0794" lon="5.47811">
        <ele>221</ele>
        <time>2012-10-02T17:09:14Z</time>
      </trkpt>
      <trkpt lat="47.0795" lon="5.47824">
        <ele>221</ele>
        <time>2012-10-02T17:09:16Z</time>
      </trkpt>
      <trkpt lat="47.0797" lon="5.47861">
        <ele>222</ele>
        <time>2012-10-02T17:09:21Z</time>
      </trkpt>
      <trkpt lat="47.08024" lon="5.47947">
        <ele>223</ele>
        <time>2012-10-02T17:09:34Z</time>
      </trkpt>
      <trkpt lat="47.08028" lon="5.47954">
        <ele>223</ele>
        <time>2012-10-02T17:09:35Z</time>
      </trkpt>
      <trkpt lat="47.08037" lon="5.47967">
        <ele>223</ele>
        <time>2012-10-02T17:09:37Z</time>
      </trkpt>
      <trkpt lat="47.08108" lon="5.48034">
        <ele>223</ele>
        <time>2012-10-02T17:09:50Z</time>
      </trkpt>
      <trkpt lat="47.08181" lon="5.48118">
        <ele>223</ele>
        <time>2012-10-02T17:10:04Z</time>
      </trkpt>
      <trkpt lat="47.08202" lon="5.48146">
        <ele>223</ele>
        <time>2012-10-02T17:10:08Z</time>
      </trkpt>
      <trkpt lat="47.08264" lon="5.48236">
        <ele>223</ele>
        <time>2012-10-02T17:10:21Z</time>
      </trkpt>
      <trkpt lat="47.08276" lon="5.48251">
        <ele>222</ele>
        <time>2012-10-02T17:10:24Z</time>
      </trkpt>
      <trkpt lat="47.08277" lon="5.4827">
        <ele>223</ele>
        <time>2012-10-02T17:10:27Z</time>
      </trkpt>
      <trkpt lat="47.08297" lon="5.48294">
        <ele>223</ele>
        <time>2012-10-02T17:10:32Z</time>
      </trkpt>
      <trkpt lat="47.08357" lon="5.48361">
        <ele>223</ele>
        <time>2012-10-02T17:10:44Z</time>
      </trkpt>
      <trkpt lat="47.08423" lon="5.4847">
        <ele>223</ele>
        <time>2012-10-02T17:11:01Z</time>
      </trkpt>
      <trkpt lat="47.08468" lon="5.48541">
        <ele>223</ele>
        <time>2012-10-02T17:11:14Z</time>
      </trkpt>
      <trkpt lat="47.08494" lon="5.48585">
        <ele>224</ele>
        <time>2012-10-02T17:11:23Z</time>
      </trkpt>
      <trkpt lat="47.08505" lon="5.48602">
        <ele>223</ele>
        <time>2012-10-02T17:11:26Z</time>
      </trkpt>
      <trkpt lat="47.08537" lon="5.48654">
        <ele>223</ele>
        <time>2012-10-02T17:11:34Z</time>
      </trkpt>
      <trkpt lat="47.08577" lon="5.48749">
        <ele>222</ele>
        <time>2012-10-02T17:11:47Z</time>
      </trkpt>
      <trkpt lat="47.08625" lon="5.48821">
        <ele>223</ele>
        <time>2012-10-02T17:11:57Z</time>
      </trkpt>
      <trkpt lat="47.08642" lon="5.48856">
        <ele>222</ele>
        <time>2012-10-02T17:12:01Z</time>
      </trkpt>
      <trkpt lat="47.08682" lon="5.48974">
        <ele>223</ele>
        <time>2012-10-02T17:12:15Z</time>
      </trkpt>
      <trkpt lat="47.08729" lon="5.49081">
        <ele>223</ele>
        <time>2012-10-02T17:12:29Z</time>
      </trkpt>
      <trkpt lat="47.08803" lon="5.49159">
        <ele>224</ele>
        <time>2012-10-02T17:12:44Z</time>
      </trkpt>
      <trkpt lat="47.08833" lon="5.49177">
        <ele>224</ele>
        <time>2012-10-02T17:12:49Z</time>
      </trkpt>
      <trkpt lat="47.08851" lon="5.492">
        <ele>224</ele>
        <time>2012-10-02T17:12:53Z</time>
      </trkpt>
      <trkpt lat="47.08872" lon="5.49243">
        <ele>224</ele>
        <time>2012-10-02T17:12:59Z</time>
      </trkpt>
      <trkpt lat="47.08867" lon="5.49273">
        <ele>226</ele>
        <time>2012-10-02T17:13:05Z</time>
      </trkpt>
      <trkpt lat="47.08876" lon="5.4933">
        <ele>224</ele>
        <time>2012-10-02T17:13:14Z</time>
      </trkpt>
      <trkpt lat="47.08892" lon="5.49412">
        <ele>227</ele>
        <time>2012-10-02T17:13:26Z</time>
      </trkpt>
      <trkpt lat="47.08889" lon="5.49417">
        <ele>227</ele>
        <time>2012-10-02T17:13:35Z</time>
      </trkpt>
      <trkpt lat="47.0888" lon="5.49423">
        <ele>227</ele>
        <time>2012-10-02T17:13:40Z</time>
      </trkpt>
      <trkpt lat="47.08865" lon="5.49439">
        <ele>227</ele>
        <time>2012-10-02T17:13:44Z</time>
      </trkpt>
      <trkpt lat="47.08759" lon="5.4951">
        <ele>227</ele>
        <time>2012-10-02T17:14:05Z</time>
      </trkpt>
      <trkpt lat="47.08743" lon="5.4952">
        <ele>227</ele>
        <time>2012-10-02T17:14:08Z</time>
      </trkpt>
      <trkpt lat="47.08706" lon="5.49501">
        <ele>227</ele>
        <time>2012-10-02T17:14:16Z</time>
      </trkpt>
      <trkpt lat="47.08701" lon="5.49473">
        <ele>225</ele>
        <time>2012-10-02T17:14:19Z</time>
      </trkpt>
      <trkpt lat="47.08702" lon="5.4945">
        <ele>225</ele>
        <time>2012-10-02T17:14:21Z</time>
      </trkpt>
      <trkpt lat="47.08675" lon="5.49335">
        <ele>223</ele>
        <time>2012-10-02T17:14:33Z</time>
      </trkpt>
      <trkpt lat="47.08626" lon="5.49178">
        <ele>223</ele>
        <time>2012-10-02T17:14:52Z</time>
      </trkpt>
      <trkpt lat="47.08546" lon="5.49086">
        <ele>223</ele>
        <time>2012-10-02T17:15:09Z</time>
      </trkpt>
      <trkpt lat="47.0848" lon="5.48984">
        <ele>223</ele>
        <time>2012-10-02T17:15:25Z</time>
      </trkpt>
      <trkpt lat="47.08408" lon="5.48865">
        <ele>222</ele>
        <time>2012-10-02T17:15:44Z</time>
      </trkpt>
      <trkpt lat="47.084" lon="5.48835">
        <ele>222</ele>
        <time>2012-10-02T17:15:48Z</time>
      </trkpt>
      <trkpt lat="47.08374" lon="5.48813">
        <ele>223</ele>
        <time>2012-10-02T17:15:53Z</time>
      </trkpt>
      <trkpt lat="47.08249" lon="5.48614">
        <ele>222</ele>
        <time>2012-10-02T17:16:20Z</time>
      </trkpt>
      <trkpt lat="47.08141" lon="5.48516">
        <ele>222</ele>
        <time>2012-10-02T17:16:38Z</time>
      </trkpt>
      <trkpt lat="47.08091" lon="5.48479">
        <ele>222</ele>
        <time>2012-10-02T17:16:46Z</time>
      </trkpt>
      <trkpt lat="47.0805" lon="5.48496">
        <ele>221</ele>
        <time>2012-10-02T17:16:53Z</time>
      </trkpt>
      <trkpt lat="47.08046" lon="5.48505">
        <ele>221</ele>
        <time>2012-10-02T17:16:54Z</time>
      </trkpt>
      <trkpt lat="47.07956" lon="5.48771">
        <ele>222</ele>
        <time>2012-10-02T17:17:22Z</time>
      </trkpt>
      <trkpt lat="47.07907" lon="5.48915">
        <ele>222</ele>
        <time>2012-10-02T17:17:38Z</time>
      </trkpt>
      <trkpt lat="47.07855" lon="5.48956">
        <ele>222</ele>
        <time>2012-10-02T17:17:47Z</time>
      </trkpt>
      <trkpt lat="47.07813" lon="5.48922">
        <ele>222</ele>
        <time>2012-10-02T17:17:55Z</time>
      </trkpt>
      <trkpt lat="47.07809" lon="5.48905">
        <ele>222</ele>
        <time>2012-10-02T17:17:57Z</time>
      </trkpt>
      <trkpt lat="47.07773" lon="5.48878">
        <ele>223</ele>
        <time>2012-10-02T17:18:04Z</time>
      </trkpt>
      <trkpt lat="47.07762" lon="5.48885">
        <ele>223</ele>
        <time>2012-10-02T17:18:06Z</time>
      </trkpt>
      <trkpt lat="47.07723" lon="5.48891">
        <ele>223</ele>
        <time>2012-10-02T17:18:12Z</time>
      </trkpt>
      <trkpt lat="47.07691" lon="5.4893">
        <ele>223</ele>
        <time>2012-10-02T17:18:19Z</time>
      </trkpt>
      <trkpt lat="47.0769" lon="5.4894">
        <ele>223</ele>
        <time>2012-10-02T17:18:20Z</time>
      </trkpt>
      <trkpt lat="47.07687" lon="5.48958">
        <ele>223</ele>
        <time>2012-10-02T17:18:22Z</time>
      </trkpt>
      <trkpt lat="47.07671" lon="5.48989">
        <ele>223</ele>
        <time>2012-10-02T17:18:26Z</time>
      </trkpt>
      <trkpt lat="47.07599" lon="5.49087">
        <ele>223</ele>
        <time>2012-10-02T17:18:41Z</time>
      </trkpt>
      <trkpt lat="47.07545" lon="5.49098">
        <ele>222</ele>
        <time>2012-10-02T17:18:50Z</time>
      </trkpt>
      <trkpt lat="47.07536" lon="5.49087">
        <ele>222</ele>
        <time>2012-10-02T17:18:52Z</time>
      </trkpt>
      <trkpt lat="47.07522" lon="5.49063">
        <ele>221</ele>
        <time>2012-10-02T17:18:57Z</time>
      </trkpt>
      <trkpt lat="47.0752" lon="5.49066">
        <ele>220</ele>
        <time>2012-10-02T17:19:05Z</time>
      </trkpt>
      <trkpt lat="47.0752" lon="5.49066">
        <ele>220</ele>
        <time>2012-10-02T17:19:40Z</time>
      </trkpt>
    </trkseg>
  </trk>
</gpx>